<?xml version="1.0" encoding="UTF-8" standalone="no" ?>
<gpx xmlns="http://www.topografix.com/GPX/1/1" xmlns:xsi="http://www.w3.org/2001/XMLSchema-instance" xsi:schemaLocation="http://www.topografix.com/GPX/1/1 http://www.topografix.com/GPX/1/1/gpx.xsd" version="1.1" creator="VisuGPX - https://www.visugpx.com">
  <metadata>
    <name>Tour de Peyre Arse</name>
    <desc><![CDATA[15 Km / 860 +
Projet été 2020
]]></desc>
  </metadata>
  <trk>
    <name><![CDATA[Course à pied juil. 14]]></name>
    <trkseg>
      <trkpt lat="45.13048" lon="2.70239">
        <ele>1322.1231689453</ele>
        <time>2020-07-14T20:02:01.000Z</time>
      </trkpt>
      <trkpt lat="45.1304" lon="2.70236">
        <ele>1324.6057128906</ele>
        <time>2020-07-14T20:02:01.003Z</time>
      </trkpt>
      <trkpt lat="45.13037" lon="2.70236">
        <ele>1325.0736083984</ele>
        <time>2020-07-14T20:02:01.007Z</time>
      </trkpt>
      <trkpt lat="45.13034" lon="2.70234">
        <ele>1325.5416259766</ele>
        <time>2020-07-14T20:02:01.012Z</time>
      </trkpt>
      <trkpt lat="45.13031" lon="2.70233">
        <ele>1326.0095214844</ele>
        <time>2020-07-14T20:02:01.018Z</time>
      </trkpt>
      <trkpt lat="45.13028" lon="2.70232">
        <ele>1326.4774169922</ele>
        <time>2020-07-14T20:02:01.025Z</time>
      </trkpt>
      <trkpt lat="45.13025" lon="2.7023">
        <ele>1326.9453125</ele>
        <time>2020-07-14T20:02:01.033Z</time>
      </trkpt>
      <trkpt lat="45.13022" lon="2.70229">
        <ele>1327.4132080078</ele>
        <time>2020-07-14T20:02:01.042Z</time>
      </trkpt>
      <trkpt lat="45.13019" lon="2.70227">
        <ele>1327.8812255859</ele>
        <time>2020-07-14T20:02:01.052Z</time>
      </trkpt>
      <trkpt lat="45.13016" lon="2.70226">
        <ele>1328.30078125</ele>
        <time>2020-07-14T20:02:01.063Z</time>
      </trkpt>
      <trkpt lat="45.13012" lon="2.70224">
        <ele>1328.7326660156</ele>
        <time>2020-07-14T20:02:01.076Z</time>
      </trkpt>
      <trkpt lat="45.13008" lon="2.70222">
        <ele>1329.1646728516</ele>
        <time>2020-07-14T20:02:01.090Z</time>
      </trkpt>
      <trkpt lat="45.13005" lon="2.7022">
        <ele>1329.5364990234</ele>
        <time>2020-07-14T20:02:01.105Z</time>
      </trkpt>
      <trkpt lat="45.13001" lon="2.70219">
        <ele>1329.8725585938</ele>
        <time>2020-07-14T20:02:01.121Z</time>
      </trkpt>
      <trkpt lat="45.12997" lon="2.70217">
        <ele>1330.3044433594</ele>
        <time>2020-07-14T20:02:01.139Z</time>
      </trkpt>
      <trkpt lat="45.12996" lon="2.70202">
        <ele>1331.4686279297</ele>
        <time>2020-07-14T20:02:01.160Z</time>
      </trkpt>
      <trkpt lat="45.12996" lon="2.70196">
        <ele>1331.4686279297</ele>
        <time>2020-07-14T20:02:01.183Z</time>
      </trkpt>
      <trkpt lat="45.12996" lon="2.70186">
        <ele>1331.4686279297</ele>
        <time>2020-07-14T20:02:01.208Z</time>
      </trkpt>
      <trkpt lat="45.12997" lon="2.70177">
        <ele>1331.3126220703</ele>
        <time>2020-07-14T20:02:01.235Z</time>
      </trkpt>
      <trkpt lat="45.12998" lon="2.70166">
        <ele>1330.9146728516</ele>
        <time>2020-07-14T20:02:01.265Z</time>
      </trkpt>
      <trkpt lat="45.12999" lon="2.70158">
        <ele>1330.2788085938</ele>
        <time>2020-07-14T20:02:01.297Z</time>
      </trkpt>
      <trkpt lat="45.12999" lon="2.70146">
        <ele>1329.5589599609</ele>
        <time>2020-07-14T20:02:01.332Z</time>
      </trkpt>
      <trkpt lat="45.12999" lon="2.70137">
        <ele>1329.0190429688</ele>
        <time>2020-07-14T20:02:01.369Z</time>
      </trkpt>
      <trkpt lat="45.12991" lon="2.70129">
        <ele>1329.7868652344</ele>
        <time>2020-07-14T20:02:01.409Z</time>
      </trkpt>
      <trkpt lat="45.12989" lon="2.70129">
        <ele>1330.0988769531</ele>
        <time>2020-07-14T20:02:01.450Z</time>
      </trkpt>
      <trkpt lat="45.12976" lon="2.70102">
        <ele>1330.4870605469</ele>
        <time>2020-07-14T20:02:01.499Z</time>
      </trkpt>
      <trkpt lat="45.12949" lon="2.70072">
        <ele>1330.8919677734</ele>
        <time>2020-07-14T20:02:01.559Z</time>
      </trkpt>
      <trkpt lat="45.12914" lon="2.7005">
        <ele>1332.7744140625</ele>
        <time>2020-07-14T20:02:01.632Z</time>
      </trkpt>
      <trkpt lat="45.12878" lon="2.70031">
        <ele>1335.1739501953</ele>
        <time>2020-07-14T20:02:01.718Z</time>
      </trkpt>
      <trkpt lat="45.12844" lon="2.70012">
        <ele>1338.8304443359</ele>
        <time>2020-07-14T20:02:01.816Z</time>
      </trkpt>
      <trkpt lat="45.12816" lon="2.69994">
        <ele>1341.0859375</ele>
        <time>2020-07-14T20:02:01.924Z</time>
      </trkpt>
      <trkpt lat="45.12784" lon="2.6996">
        <ele>1341.3088378906</ele>
        <time>2020-07-14T20:02:02.045Z</time>
      </trkpt>
      <trkpt lat="45.12766" lon="2.69926">
        <ele>1339.3890380859</ele>
        <time>2020-07-14T20:02:02.176Z</time>
      </trkpt>
      <trkpt lat="45.12732" lon="2.69894">
        <ele>1342.7966308594</ele>
        <time>2020-07-14T20:02:02.321Z</time>
      </trkpt>
      <trkpt lat="45.12691" lon="2.69859">
        <ele>1345.5747070312</ele>
        <time>2020-07-14T20:02:02.482Z</time>
      </trkpt>
      <trkpt lat="45.1267" lon="2.69837">
        <ele>1344.8309326172</ele>
        <time>2020-07-14T20:02:02.652Z</time>
      </trkpt>
      <trkpt lat="45.12642" lon="2.69808">
        <ele>1344.9500732422</ele>
        <time>2020-07-14T20:02:02.833Z</time>
      </trkpt>
      <trkpt lat="45.12607" lon="2.69767">
        <ele>1344.1461181641</ele>
        <time>2020-07-14T20:02:03.029Z</time>
      </trkpt>
      <trkpt lat="45.1259" lon="2.6974">
        <ele>1344.8630371094</ele>
        <time>2020-07-14T20:02:03.234Z</time>
      </trkpt>
      <trkpt lat="45.12572" lon="2.69709">
        <ele>1348.3784179688</ele>
        <time>2020-07-14T20:02:03.448Z</time>
      </trkpt>
      <trkpt lat="45.12543" lon="2.69664">
        <ele>1353.1322021484</ele>
        <time>2020-07-14T20:02:03.677Z</time>
      </trkpt>
      <trkpt lat="45.12525" lon="2.69642">
        <ele>1356.4196777344</ele>
        <time>2020-07-14T20:02:03.914Z</time>
      </trkpt>
      <trkpt lat="45.12505" lon="2.69619">
        <ele>1360.3669433594</ele>
        <time>2020-07-14T20:02:04.159Z</time>
      </trkpt>
      <trkpt lat="45.12487" lon="2.69591">
        <ele>1362.4306640625</ele>
        <time>2020-07-14T20:02:04.413Z</time>
      </trkpt>
      <trkpt lat="45.12467" lon="2.69544">
        <ele>1362.5051269531</ele>
        <time>2020-07-14T20:02:04.680Z</time>
      </trkpt>
      <trkpt lat="45.12446" lon="2.69509">
        <ele>1363.7159423828</ele>
        <time>2020-07-14T20:02:04.958Z</time>
      </trkpt>
      <trkpt lat="45.12413" lon="2.69479">
        <ele>1367.8430175781</ele>
        <time>2020-07-14T20:02:05.249Z</time>
      </trkpt>
      <trkpt lat="45.12369" lon="2.6946">
        <ele>1376.4038085938</ele>
        <time>2020-07-14T20:02:05.555Z</time>
      </trkpt>
      <trkpt lat="45.12345" lon="2.69452">
        <ele>1378.3234863281</ele>
        <time>2020-07-14T20:02:05.870Z</time>
      </trkpt>
      <trkpt lat="45.12319" lon="2.69443">
        <ele>1380.3271484375</ele>
        <time>2020-07-14T20:02:06.194Z</time>
      </trkpt>
      <trkpt lat="45.12281" lon="2.69432">
        <ele>1382.2398681641</ele>
        <time>2020-07-14T20:02:06.530Z</time>
      </trkpt>
      <trkpt lat="45.12245" lon="2.69439">
        <ele>1386.1751708984</ele>
        <time>2020-07-14T20:02:06.879Z</time>
      </trkpt>
      <trkpt lat="45.1221" lon="2.6943">
        <ele>1385.8723144531</ele>
        <time>2020-07-14T20:02:07.239Z</time>
      </trkpt>
      <trkpt lat="45.12187" lon="2.69404">
        <ele>1383.732421875</ele>
        <time>2020-07-14T20:02:07.609Z</time>
      </trkpt>
      <trkpt lat="45.12166" lon="2.69368">
        <ele>1378.3156738281</ele>
        <time>2020-07-14T20:02:07.990Z</time>
      </trkpt>
      <trkpt lat="45.12136" lon="2.6934">
        <ele>1375.580078125</ele>
        <time>2020-07-14T20:02:08.383Z</time>
      </trkpt>
      <trkpt lat="45.12107" lon="2.69331">
        <ele>1374.6801757812</ele>
        <time>2020-07-14T20:02:08.786Z</time>
      </trkpt>
      <trkpt lat="45.1208" lon="2.69329">
        <ele>1374.6801757812</ele>
        <time>2020-07-14T20:02:09.198Z</time>
      </trkpt>
      <trkpt lat="45.12045" lon="2.69327">
        <ele>1374.8721923828</ele>
        <time>2020-07-14T20:02:09.622Z</time>
      </trkpt>
      <trkpt lat="45.12007" lon="2.69327">
        <ele>1373.4068603516</ele>
        <time>2020-07-14T20:02:10.059Z</time>
      </trkpt>
      <trkpt lat="45.11975" lon="2.69316">
        <ele>1368.8596191406</ele>
        <time>2020-07-14T20:02:10.507Z</time>
      </trkpt>
      <trkpt lat="45.11973" lon="2.69318">
        <ele>1369.1235351562</ele>
        <time>2020-07-14T20:02:10.955Z</time>
      </trkpt>
      <trkpt lat="45.11948" lon="2.69308">
        <ele>1367.9555664062</ele>
        <time>2020-07-14T20:02:11.412Z</time>
      </trkpt>
      <trkpt lat="45.11931" lon="2.69299">
        <ele>1368.5675048828</ele>
        <time>2020-07-14T20:02:11.875Z</time>
      </trkpt>
      <trkpt lat="45.11915" lon="2.69289">
        <ele>1368.8314208984</ele>
        <time>2020-07-14T20:02:12.344Z</time>
      </trkpt>
      <trkpt lat="45.11901" lon="2.69277">
        <ele>1368.3995361328</ele>
        <time>2020-07-14T20:02:12.818Z</time>
      </trkpt>
      <trkpt lat="45.11891" lon="2.69265">
        <ele>1367.3917236328</ele>
        <time>2020-07-14T20:02:13.297Z</time>
      </trkpt>
      <trkpt lat="45.11881" lon="2.69251">
        <ele>1365.8962402344</ele>
        <time>2020-07-14T20:02:13.780Z</time>
      </trkpt>
      <trkpt lat="45.11872" lon="2.69241">
        <ele>1364.9732666016</ele>
        <time>2020-07-14T20:02:14.267Z</time>
      </trkpt>
      <trkpt lat="45.11866" lon="2.69238">
        <ele>1365.3331298828</ele>
        <time>2020-07-14T20:02:14.756Z</time>
      </trkpt>
      <trkpt lat="45.11844" lon="2.69228">
        <ele>1366.1433105469</ele>
        <time>2020-07-14T20:02:15.253Z</time>
      </trkpt>
      <trkpt lat="45.11817" lon="2.69212">
        <ele>1366.1072998047</ele>
        <time>2020-07-14T20:02:15.760Z</time>
      </trkpt>
      <trkpt lat="45.11794" lon="2.69195">
        <ele>1365.5914306641</ele>
        <time>2020-07-14T20:02:16.275Z</time>
      </trkpt>
      <trkpt lat="45.11778" lon="2.69181">
        <ele>1366.0479736328</ele>
        <time>2020-07-14T20:02:16.797Z</time>
      </trkpt>
      <trkpt lat="45.11764" lon="2.69169">
        <ele>1366.4415283203</ele>
        <time>2020-07-14T20:02:17.324Z</time>
      </trkpt>
      <trkpt lat="45.11746" lon="2.69157">
        <ele>1366.6574707031</ele>
        <time>2020-07-14T20:02:17.858Z</time>
      </trkpt>
      <trkpt lat="45.11727" lon="2.69147">
        <ele>1367.4614257812</ele>
        <time>2020-07-14T20:02:18.399Z</time>
      </trkpt>
      <trkpt lat="45.11715" lon="2.69138">
        <ele>1367.3894042969</ele>
        <time>2020-07-14T20:02:18.944Z</time>
      </trkpt>
      <trkpt lat="45.11714" lon="2.6914">
        <ele>1367.9772949219</ele>
        <time>2020-07-14T20:02:19.490Z</time>
      </trkpt>
      <trkpt lat="45.11715" lon="2.69138">
        <ele>1367.3894042969</ele>
        <time>2020-07-14T20:02:20.036Z</time>
      </trkpt>
      <trkpt lat="45.11698" lon="2.69121">
        <ele>1366.6654052734</ele>
        <time>2020-07-14T20:02:20.589Z</time>
      </trkpt>
      <trkpt lat="45.11686" lon="2.69112">
        <ele>1366.8813476562</ele>
        <time>2020-07-14T20:02:21.147Z</time>
      </trkpt>
      <trkpt lat="45.11678" lon="2.69108">
        <ele>1367.4572753906</ele>
        <time>2020-07-14T20:02:21.708Z</time>
      </trkpt>
      <trkpt lat="45.1166" lon="2.69104">
        <ele>1369.8328857422</ele>
        <time>2020-07-14T20:02:22.275Z</time>
      </trkpt>
      <trkpt lat="45.1165" lon="2.691">
        <ele>1370.7686767578</ele>
        <time>2020-07-14T20:02:22.845Z</time>
      </trkpt>
      <trkpt lat="45.11643" lon="2.69095">
        <ele>1370.9486083984</ele>
        <time>2020-07-14T20:02:23.418Z</time>
      </trkpt>
      <trkpt lat="45.11638" lon="2.69091">
        <ele>1370.9846191406</ele>
        <time>2020-07-14T20:02:23.993Z</time>
      </trkpt>
      <trkpt lat="45.11625" lon="2.69074">
        <ele>1369.0682373047</ele>
        <time>2020-07-14T20:02:24.574Z</time>
      </trkpt>
      <trkpt lat="45.11602" lon="2.6904">
        <ele>1365.7568359375</ele>
        <time>2020-07-14T20:02:25.166Z</time>
      </trkpt>
      <trkpt lat="45.11584" lon="2.69017">
        <ele>1364.1610107422</ele>
        <time>2020-07-14T20:02:25.766Z</time>
      </trkpt>
      <trkpt lat="45.11576" lon="2.69012">
        <ele>1364.8929443359</ele>
        <time>2020-07-14T20:02:26.369Z</time>
      </trkpt>
      <trkpt lat="45.11564" lon="2.69007">
        <ele>1366.6806640625</ele>
        <time>2020-07-14T20:02:26.976Z</time>
      </trkpt>
      <trkpt lat="45.11542" lon="2.68998">
        <ele>1370.3143310547</ele>
        <time>2020-07-14T20:02:27.591Z</time>
      </trkpt>
      <trkpt lat="45.11526" lon="2.68989">
        <ele>1372.0539550781</ele>
        <time>2020-07-14T20:02:28.211Z</time>
      </trkpt>
      <trkpt lat="45.11504" lon="2.68974">
        <ele>1373.5296630859</ele>
        <time>2020-07-14T20:02:28.839Z</time>
      </trkpt>
      <trkpt lat="45.11494" lon="2.68965">
        <ele>1374.0695800781</ele>
        <time>2020-07-14T20:02:29.471Z</time>
      </trkpt>
      <trkpt lat="45.1149" lon="2.68959">
        <ele>1374.1416015625</ele>
        <time>2020-07-14T20:02:30.105Z</time>
      </trkpt>
      <trkpt lat="45.11485" lon="2.68952">
        <ele>1374.2615966797</ele>
        <time>2020-07-14T20:02:30.742Z</time>
      </trkpt>
      <trkpt lat="45.11475" lon="2.68942">
        <ele>1374.7414550781</ele>
        <time>2020-07-14T20:02:31.383Z</time>
      </trkpt>
      <trkpt lat="45.11455" lon="2.68923">
        <ele>1375.9516601562</ele>
        <time>2020-07-14T20:02:32.032Z</time>
      </trkpt>
      <trkpt lat="45.11422" lon="2.68898">
        <ele>1380.5123291016</ele>
        <time>2020-07-14T20:02:32.693Z</time>
      </trkpt>
      <trkpt lat="45.11414" lon="2.6889">
        <ele>1381.6640625</ele>
        <time>2020-07-14T20:02:33.358Z</time>
      </trkpt>
      <trkpt lat="45.1141" lon="2.68879">
        <ele>1382.2399902344</ele>
        <time>2020-07-14T20:02:34.025Z</time>
      </trkpt>
      <trkpt lat="45.11409" lon="2.68872">
        <ele>1382.3840332031</ele>
        <time>2020-07-14T20:02:34.694Z</time>
      </trkpt>
      <trkpt lat="45.11409" lon="2.68861">
        <ele>1381.7509765625</ele>
        <time>2020-07-14T20:02:35.366Z</time>
      </trkpt>
      <trkpt lat="45.1141" lon="2.68842">
        <ele>1379.9272460938</ele>
        <time>2020-07-14T20:02:36.042Z</time>
      </trkpt>
      <trkpt lat="45.11408" lon="2.68831">
        <ele>1379.8536376953</ele>
        <time>2020-07-14T20:02:36.721Z</time>
      </trkpt>
      <trkpt lat="45.11405" lon="2.68815">
        <ele>1380.3454589844</ele>
        <time>2020-07-14T20:02:37.404Z</time>
      </trkpt>
      <trkpt lat="45.11397" lon="2.68784">
        <ele>1381.7972412109</ele>
        <time>2020-07-14T20:02:38.095Z</time>
      </trkpt>
      <trkpt lat="45.11397" lon="2.68773">
        <ele>1381.6584472656</ele>
        <time>2020-07-14T20:02:38.788Z</time>
      </trkpt>
      <trkpt lat="45.11399" lon="2.68759">
        <ele>1380.4586181641</ele>
        <time>2020-07-14T20:02:39.485Z</time>
      </trkpt>
      <trkpt lat="45.11404" lon="2.68741">
        <ele>1379.1481933594</ele>
        <time>2020-07-14T20:02:40.186Z</time>
      </trkpt>
      <trkpt lat="45.11406" lon="2.68732">
        <ele>1378.8361816406</ele>
        <time>2020-07-14T20:02:40.889Z</time>
      </trkpt>
      <trkpt lat="45.11406" lon="2.68724">
        <ele>1379.0281982422</ele>
        <time>2020-07-14T20:02:41.594Z</time>
      </trkpt>
      <trkpt lat="45.11403" lon="2.68717">
        <ele>1379.9880371094</ele>
        <time>2020-07-14T20:02:42.301Z</time>
      </trkpt>
      <trkpt lat="45.11398" lon="2.68711">
        <ele>1381.4517822266</ele>
        <time>2020-07-14T20:02:43.010Z</time>
      </trkpt>
      <trkpt lat="45.11393" lon="2.68706">
        <ele>1382.8916015625</ele>
        <time>2020-07-14T20:02:43.721Z</time>
      </trkpt>
      <trkpt lat="45.11391" lon="2.68703">
        <ele>1383.4914550781</ele>
        <time>2020-07-14T20:02:44.433Z</time>
      </trkpt>
      <trkpt lat="45.1139" lon="2.68698">
        <ele>1383.8753662109</ele>
        <time>2020-07-14T20:02:45.147Z</time>
      </trkpt>
      <trkpt lat="45.11392" lon="2.68687">
        <ele>1383.6114501953</ele>
        <time>2020-07-14T20:02:45.863Z</time>
      </trkpt>
      <trkpt lat="45.11395" lon="2.68676">
        <ele>1382.373046875</ele>
        <time>2020-07-14T20:02:46.582Z</time>
      </trkpt>
      <trkpt lat="45.11396" lon="2.68668">
        <ele>1381.9108886719</ele>
        <time>2020-07-14T20:02:47.303Z</time>
      </trkpt>
      <trkpt lat="45.11395" lon="2.68658">
        <ele>1382.7147216797</ele>
        <time>2020-07-14T20:02:48.026Z</time>
      </trkpt>
      <trkpt lat="45.11386" lon="2.68632">
        <ele>1386.8780517578</ele>
        <time>2020-07-14T20:02:48.756Z</time>
      </trkpt>
      <trkpt lat="45.11381" lon="2.68627">
        <ele>1388.7376708984</ele>
        <time>2020-07-14T20:02:49.488Z</time>
      </trkpt>
      <trkpt lat="45.11369" lon="2.68622">
        <ele>1391.9124755859</ele>
        <time>2020-07-14T20:02:50.224Z</time>
      </trkpt>
      <trkpt lat="45.11357" lon="2.68618">
        <ele>1394.5520019531</ele>
        <time>2020-07-14T20:02:50.965Z</time>
      </trkpt>
      <trkpt lat="45.11343" lon="2.68611">
        <ele>1397.7435302734</ele>
        <time>2020-07-14T20:02:51.710Z</time>
      </trkpt>
      <trkpt lat="45.11335" lon="2.68605">
        <ele>1399.6632080078</ele>
        <time>2020-07-14T20:02:52.459Z</time>
      </trkpt>
      <trkpt lat="45.11327" lon="2.686">
        <ele>1401.5349121094</ele>
        <time>2020-07-14T20:02:53.210Z</time>
      </trkpt>
      <trkpt lat="45.11324" lon="2.686">
        <ele>1402.1467285156</ele>
        <time>2020-07-14T20:02:53.962Z</time>
      </trkpt>
      <trkpt lat="45.11313" lon="2.68606">
        <ele>1404.1080322266</ele>
        <time>2020-07-14T20:02:54.718Z</time>
      </trkpt>
      <trkpt lat="45.11305" lon="2.68616">
        <ele>1405.9078369141</ele>
        <time>2020-07-14T20:02:55.478Z</time>
      </trkpt>
      <trkpt lat="45.11296" lon="2.68629">
        <ele>1407.9114990234</ele>
        <time>2020-07-14T20:02:56.242Z</time>
      </trkpt>
      <trkpt lat="45.11296" lon="2.68634">
        <ele>1407.8514404297</ele>
        <time>2020-07-14T20:02:57.007Z</time>
      </trkpt>
      <trkpt lat="45.11296" lon="2.68641">
        <ele>1407.7674560547</ele>
        <time>2020-07-14T20:02:57.774Z</time>
      </trkpt>
      <trkpt lat="45.11277" lon="2.68641">
        <ele>1410.3360595703</ele>
        <time>2020-07-14T20:02:58.547Z</time>
      </trkpt>
      <trkpt lat="45.11275" lon="2.68641">
        <ele>1410.5759277344</ele>
        <time>2020-07-14T20:02:59.321Z</time>
      </trkpt>
      <trkpt lat="45.11263" lon="2.68638">
        <ele>1412.0517578125</ele>
        <time>2020-07-14T20:03:00.099Z</time>
      </trkpt>
      <trkpt lat="45.1125" lon="2.68636">
        <ele>1413.6354980469</ele>
        <time>2020-07-14T20:03:00.881Z</time>
      </trkpt>
      <trkpt lat="45.11239" lon="2.68632">
        <ele>1415.0032958984</ele>
        <time>2020-07-14T20:03:01.667Z</time>
      </trkpt>
      <trkpt lat="45.11237" lon="2.68631">
        <ele>1415.2552490234</ele>
        <time>2020-07-14T20:03:02.454Z</time>
      </trkpt>
      <trkpt lat="45.11222" lon="2.68624">
        <ele>1417.1389160156</ele>
        <time>2020-07-14T20:03:03.246Z</time>
      </trkpt>
      <trkpt lat="45.11203" lon="2.68612">
        <ele>1419.388671875</ele>
        <time>2020-07-14T20:03:04.045Z</time>
      </trkpt>
      <trkpt lat="45.11164" lon="2.68589">
        <ele>1423.4079589844</ele>
        <time>2020-07-14T20:03:04.858Z</time>
      </trkpt>
      <trkpt lat="45.11122" lon="2.68561">
        <ele>1427.7639160156</ele>
        <time>2020-07-14T20:03:05.687Z</time>
      </trkpt>
      <trkpt lat="45.11102" lon="2.68545">
        <ele>1430.8833007812</ele>
        <time>2020-07-14T20:03:06.523Z</time>
      </trkpt>
      <trkpt lat="45.11091" lon="2.6853">
        <ele>1432.5991210938</ele>
        <time>2020-07-14T20:03:07.365Z</time>
      </trkpt>
      <trkpt lat="45.11087" lon="2.68522">
        <ele>1433.2230224609</ele>
        <time>2020-07-14T20:03:08.209Z</time>
      </trkpt>
      <trkpt lat="45.11085" lon="2.6851">
        <ele>1433.5349121094</ele>
        <time>2020-07-14T20:03:09.056Z</time>
      </trkpt>
      <trkpt lat="45.11085" lon="2.68499">
        <ele>1435.3497314453</ele>
        <time>2020-07-14T20:03:09.905Z</time>
      </trkpt>
      <trkpt lat="45.11085" lon="2.68495">
        <ele>1437.1254882812</ele>
        <time>2020-07-14T20:03:10.755Z</time>
      </trkpt>
      <trkpt lat="45.11085" lon="2.68484">
        <ele>1442.0086669922</ele>
        <time>2020-07-14T20:03:11.608Z</time>
      </trkpt>
      <trkpt lat="45.11083" lon="2.68474">
        <ele>1446.7598876953</ele>
        <time>2020-07-14T20:03:12.463Z</time>
      </trkpt>
      <trkpt lat="45.11079" lon="2.68467">
        <ele>1450.4912109375</ele>
        <time>2020-07-14T20:03:13.320Z</time>
      </trkpt>
      <trkpt lat="45.11073" lon="2.68461">
        <ele>1454.0905761719</ele>
        <time>2020-07-14T20:03:14.180Z</time>
      </trkpt>
      <trkpt lat="45.11049" lon="2.68441">
        <ele>1466.7125244141</ele>
        <time>2020-07-14T20:03:15.049Z</time>
      </trkpt>
      <trkpt lat="45.11029" lon="2.68421">
        <ele>1472.9495849609</ele>
        <time>2020-07-14T20:03:15.926Z</time>
      </trkpt>
      <trkpt lat="45.11004" lon="2.68395">
        <ele>1477.8990478516</ele>
        <time>2020-07-14T20:03:16.814Z</time>
      </trkpt>
      <trkpt lat="45.10984" lon="2.68373">
        <ele>1482.3382568359</ele>
        <time>2020-07-14T20:03:17.710Z</time>
      </trkpt>
      <trkpt lat="45.10962" lon="2.6835">
        <ele>1486.7175292969</ele>
        <time>2020-07-14T20:03:18.615Z</time>
      </trkpt>
      <trkpt lat="45.10946" lon="2.68336">
        <ele>1488.2790527344</ele>
        <time>2020-07-14T20:03:19.527Z</time>
      </trkpt>
      <trkpt lat="45.10927" lon="2.68322">
        <ele>1490.0906982422</ele>
        <time>2020-07-14T20:03:20.446Z</time>
      </trkpt>
      <trkpt lat="45.10911" lon="2.68311">
        <ele>1491.2185058594</ele>
        <time>2020-07-14T20:03:21.371Z</time>
      </trkpt>
      <trkpt lat="45.10908" lon="2.68307">
        <ele>1492.4063720703</ele>
        <time>2020-07-14T20:03:22.297Z</time>
      </trkpt>
      <trkpt lat="45.10906" lon="2.68302">
        <ele>1494.3740234375</ele>
        <time>2020-07-14T20:03:23.224Z</time>
      </trkpt>
      <trkpt lat="45.10907" lon="2.68299">
        <ele>1496.1617431641</ele>
        <time>2020-07-14T20:03:24.152Z</time>
      </trkpt>
      <trkpt lat="45.10891" lon="2.68285">
        <ele>1498.8012695312</ele>
        <time>2020-07-14T20:03:25.086Z</time>
      </trkpt>
      <trkpt lat="45.10886" lon="2.68283">
        <ele>1498.4293212891</ele>
        <time>2020-07-14T20:03:26.022Z</time>
      </trkpt>
      <trkpt lat="45.10881" lon="2.68284">
        <ele>1496.5456542969</ele>
        <time>2020-07-14T20:03:26.960Z</time>
      </trkpt>
      <trkpt lat="45.10877" lon="2.68283">
        <ele>1495.9458007812</ele>
        <time>2020-07-14T20:03:27.899Z</time>
      </trkpt>
      <trkpt lat="45.1087" lon="2.68282">
        <ele>1495.9985351562</ele>
        <time>2020-07-14T20:03:28.841Z</time>
      </trkpt>
      <trkpt lat="45.10866" lon="2.68278">
        <ele>1497.7742919922</ele>
        <time>2020-07-14T20:03:29.784Z</time>
      </trkpt>
      <trkpt lat="45.10858" lon="2.68276">
        <ele>1498.3022460938</ele>
        <time>2020-07-14T20:03:30.730Z</time>
      </trkpt>
      <trkpt lat="45.10856" lon="2.68275">
        <ele>1498.6861572266</ele>
        <time>2020-07-14T20:03:31.677Z</time>
      </trkpt>
      <trkpt lat="45.1085" lon="2.68275">
        <ele>1498.326171875</ele>
        <time>2020-07-14T20:03:32.626Z</time>
      </trkpt>
      <trkpt lat="45.10838" lon="2.6827">
        <ele>1500.1258544922</ele>
        <time>2020-07-14T20:03:33.579Z</time>
      </trkpt>
      <trkpt lat="45.10831" lon="2.68263">
        <ele>1503.2333984375</ele>
        <time>2020-07-14T20:03:34.535Z</time>
      </trkpt>
      <trkpt lat="45.10819" lon="2.68258">
        <ele>1505.0330810547</ele>
        <time>2020-07-14T20:03:35.495Z</time>
      </trkpt>
      <trkpt lat="45.10809" lon="2.68258">
        <ele>1504.4332275391</ele>
        <time>2020-07-14T20:03:36.458Z</time>
      </trkpt>
      <trkpt lat="45.10783" lon="2.68264">
        <ele>1502.7231445312</ele>
        <time>2020-07-14T20:03:37.430Z</time>
      </trkpt>
      <trkpt lat="45.10774" lon="2.68261">
        <ele>1506.8984375</ele>
        <time>2020-07-14T20:03:38.405Z</time>
      </trkpt>
      <trkpt lat="45.10762" lon="2.68255">
        <ele>1513.5932617188</ele>
        <time>2020-07-14T20:03:39.384Z</time>
      </trkpt>
      <trkpt lat="45.10753" lon="2.68254">
        <ele>1516.6408691406</ele>
        <time>2020-07-14T20:03:40.366Z</time>
      </trkpt>
      <trkpt lat="45.10745" lon="2.68256">
        <ele>1517.7205810547</ele>
        <time>2020-07-14T20:03:41.351Z</time>
      </trkpt>
      <trkpt lat="45.10738" lon="2.68257">
        <ele>1519.0883789062</ele>
        <time>2020-07-14T20:03:42.338Z</time>
      </trkpt>
      <trkpt lat="45.10724" lon="2.68262">
        <ele>1520.1322021484</ele>
        <time>2020-07-14T20:03:43.330Z</time>
      </trkpt>
      <trkpt lat="45.10715" lon="2.68267">
        <ele>1517.1716308594</ele>
        <time>2020-07-14T20:03:44.325Z</time>
      </trkpt>
      <trkpt lat="45.107" lon="2.68274">
        <ele>1512.0040283203</ele>
        <time>2020-07-14T20:03:45.326Z</time>
      </trkpt>
      <trkpt lat="45.10683" lon="2.68277">
        <ele>1510.8762207031</ele>
        <time>2020-07-14T20:03:46.332Z</time>
      </trkpt>
      <trkpt lat="45.10661" lon="2.68294">
        <ele>1501.7337646484</ele>
        <time>2020-07-14T20:03:47.347Z</time>
      </trkpt>
      <trkpt lat="45.10657" lon="2.68298">
        <ele>1502.7896728516</ele>
        <time>2020-07-14T20:03:48.363Z</time>
      </trkpt>
      <trkpt lat="45.10654" lon="2.683">
        <ele>1503.9174804688</ele>
        <time>2020-07-14T20:03:49.380Z</time>
      </trkpt>
      <trkpt lat="45.10649" lon="2.683">
        <ele>1506.9169921875</ele>
        <time>2020-07-14T20:03:50.399Z</time>
      </trkpt>
      <trkpt lat="45.10635" lon="2.68308">
        <ele>1512.6279296875</ele>
        <time>2020-07-14T20:03:51.423Z</time>
      </trkpt>
      <trkpt lat="45.10629" lon="2.68312">
        <ele>1514.8835449219</ele>
        <time>2020-07-14T20:03:52.449Z</time>
      </trkpt>
      <trkpt lat="45.10627" lon="2.68317">
        <ele>1514.4036865234</ele>
        <time>2020-07-14T20:03:53.477Z</time>
      </trkpt>
      <trkpt lat="45.10626" lon="2.6832">
        <ele>1513.8199462891</ele>
        <time>2020-07-14T20:03:54.505Z</time>
      </trkpt>
      <trkpt lat="45.10625" lon="2.68324">
        <ele>1512.8601074219</ele>
        <time>2020-07-14T20:03:55.534Z</time>
      </trkpt>
      <trkpt lat="45.10623" lon="2.68326">
        <ele>1512.9560546875</ele>
        <time>2020-07-14T20:03:56.564Z</time>
      </trkpt>
      <trkpt lat="45.10622" lon="2.68329">
        <ele>1512.3321533203</ele>
        <time>2020-07-14T20:03:57.595Z</time>
      </trkpt>
      <trkpt lat="45.10621" lon="2.68334">
        <ele>1511.4057617188</ele>
        <time>2020-07-14T20:03:58.627Z</time>
      </trkpt>
      <trkpt lat="45.10618" lon="2.68339">
        <ele>1510.6784667969</ele>
        <time>2020-07-14T20:03:59.661Z</time>
      </trkpt>
      <trkpt lat="45.10617" lon="2.68342">
        <ele>1509.2626953125</ele>
        <time>2020-07-14T20:04:00.696Z</time>
      </trkpt>
      <trkpt lat="45.10613" lon="2.68346">
        <ele>1508.6868896484</ele>
        <time>2020-07-14T20:04:01.732Z</time>
      </trkpt>
      <trkpt lat="45.10606" lon="2.68351">
        <ele>1508.9508056641</ele>
        <time>2020-07-14T20:04:02.771Z</time>
      </trkpt>
      <trkpt lat="45.10599" lon="2.68359">
        <ele>1507.3070068359</ele>
        <time>2020-07-14T20:04:03.813Z</time>
      </trkpt>
      <trkpt lat="45.10597" lon="2.68359">
        <ele>1508.2908935547</ele>
        <time>2020-07-14T20:04:04.856Z</time>
      </trkpt>
      <trkpt lat="45.10592" lon="2.68364">
        <ele>1507.5710449219</ele>
        <time>2020-07-14T20:04:05.901Z</time>
      </trkpt>
      <trkpt lat="45.10589" lon="2.68367">
        <ele>1507.1390380859</ele>
        <time>2020-07-14T20:04:06.947Z</time>
      </trkpt>
      <trkpt lat="45.10584" lon="2.68376">
        <ele>1503.8756103516</ele>
        <time>2020-07-14T20:04:07.996Z</time>
      </trkpt>
      <trkpt lat="45.10583" lon="2.6838">
        <ele>1502.9479980469</ele>
        <time>2020-07-14T20:04:09.046Z</time>
      </trkpt>
      <trkpt lat="45.10582" lon="2.68384">
        <ele>1502.2761230469</ele>
        <time>2020-07-14T20:04:10.097Z</time>
      </trkpt>
      <trkpt lat="45.10583" lon="2.6839">
        <ele>1499.3486328125</ele>
        <time>2020-07-14T20:04:11.149Z</time>
      </trkpt>
      <trkpt lat="45.10582" lon="2.68394">
        <ele>1498.6766357422</ele>
        <time>2020-07-14T20:04:12.202Z</time>
      </trkpt>
      <trkpt lat="45.10581" lon="2.68397">
        <ele>1498.3647460938</ele>
        <time>2020-07-14T20:04:13.256Z</time>
      </trkpt>
      <trkpt lat="45.10578" lon="2.68399">
        <ele>1499.9484863281</ele>
        <time>2020-07-14T20:04:14.311Z</time>
      </trkpt>
      <trkpt lat="45.10572" lon="2.68404">
        <ele>1502.7559814453</ele>
        <time>2020-07-14T20:04:15.368Z</time>
      </trkpt>
      <trkpt lat="45.10569" lon="2.68409">
        <ele>1503.2598876953</ele>
        <time>2020-07-14T20:04:16.427Z</time>
      </trkpt>
      <trkpt lat="45.10565" lon="2.68414">
        <ele>1504.5317382812</ele>
        <time>2020-07-14T20:04:17.488Z</time>
      </trkpt>
      <trkpt lat="45.10565" lon="2.68418">
        <ele>1503.0919189453</ele>
        <time>2020-07-14T20:04:18.549Z</time>
      </trkpt>
      <trkpt lat="45.10565" lon="2.68424">
        <ele>1501.443359375</ele>
        <time>2020-07-14T20:04:19.612Z</time>
      </trkpt>
      <trkpt lat="45.10563" lon="2.68429">
        <ele>1501.779296875</ele>
        <time>2020-07-14T20:04:20.676Z</time>
      </trkpt>
      <trkpt lat="45.10558" lon="2.68436">
        <ele>1503.5247802734</ele>
        <time>2020-07-14T20:04:21.743Z</time>
      </trkpt>
      <trkpt lat="45.10556" lon="2.68439">
        <ele>1503.1408691406</ele>
        <time>2020-07-14T20:04:22.811Z</time>
      </trkpt>
      <trkpt lat="45.10554" lon="2.68441">
        <ele>1503.2368164062</ele>
        <time>2020-07-14T20:04:23.879Z</time>
      </trkpt>
      <trkpt lat="45.10552" lon="2.68442">
        <ele>1503.8127441406</ele>
        <time>2020-07-14T20:04:24.948Z</time>
      </trkpt>
      <trkpt lat="45.10548" lon="2.68448">
        <ele>1503.0447998047</ele>
        <time>2020-07-14T20:04:26.019Z</time>
      </trkpt>
      <trkpt lat="45.10547" lon="2.68451">
        <ele>1502.1329345703</ele>
        <time>2020-07-14T20:04:27.091Z</time>
      </trkpt>
      <trkpt lat="45.10544" lon="2.68454">
        <ele>1502.2769775391</ele>
        <time>2020-07-14T20:04:28.164Z</time>
      </trkpt>
      <trkpt lat="45.10542" lon="2.68457">
        <ele>1502.1569824219</ele>
        <time>2020-07-14T20:04:29.238Z</time>
      </trkpt>
      <trkpt lat="45.1054" lon="2.68459">
        <ele>1502.6129150391</ele>
        <time>2020-07-14T20:04:30.313Z</time>
      </trkpt>
      <trkpt lat="45.10538" lon="2.68461">
        <ele>1503.0688476562</ele>
        <time>2020-07-14T20:04:31.389Z</time>
      </trkpt>
      <trkpt lat="45.10536" lon="2.68462">
        <ele>1504.0047607422</ele>
        <time>2020-07-14T20:04:32.465Z</time>
      </trkpt>
      <trkpt lat="45.10534" lon="2.68466">
        <ele>1503.5007324219</ele>
        <time>2020-07-14T20:04:33.543Z</time>
      </trkpt>
      <trkpt lat="45.10532" lon="2.68469">
        <ele>1503.4768066406</ele>
        <time>2020-07-14T20:04:34.621Z</time>
      </trkpt>
      <trkpt lat="45.10531" lon="2.68471">
        <ele>1503.2248535156</ele>
        <time>2020-07-14T20:04:35.700Z</time>
      </trkpt>
      <trkpt lat="45.10531" lon="2.68474">
        <ele>1501.7850341797</ele>
        <time>2020-07-14T20:04:36.780Z</time>
      </trkpt>
      <trkpt lat="45.1053" lon="2.68479">
        <ele>1500.0933837891</ele>
        <time>2020-07-14T20:04:37.861Z</time>
      </trkpt>
      <trkpt lat="45.10529" lon="2.68482">
        <ele>1499.3614501953</ele>
        <time>2020-07-14T20:04:38.943Z</time>
      </trkpt>
      <trkpt lat="45.10527" lon="2.68487">
        <ele>1498.4458007812</ele>
        <time>2020-07-14T20:04:40.026Z</time>
      </trkpt>
      <trkpt lat="45.10525" lon="2.6849">
        <ele>1499.3216552734</ele>
        <time>2020-07-14T20:04:41.110Z</time>
      </trkpt>
      <trkpt lat="45.10522" lon="2.68493">
        <ele>1501.0853271484</ele>
        <time>2020-07-14T20:04:42.195Z</time>
      </trkpt>
      <trkpt lat="45.1052" lon="2.68496">
        <ele>1501.9611816406</ele>
        <time>2020-07-14T20:04:43.281Z</time>
      </trkpt>
      <trkpt lat="45.10519" lon="2.68499">
        <ele>1501.94921875</ele>
        <time>2020-07-14T20:04:44.368Z</time>
      </trkpt>
      <trkpt lat="45.10517" lon="2.68502">
        <ele>1502.8250732422</ele>
        <time>2020-07-14T20:04:45.456Z</time>
      </trkpt>
      <trkpt lat="45.10517" lon="2.68506">
        <ele>1501.8698730469</ele>
        <time>2020-07-14T20:04:46.545Z</time>
      </trkpt>
      <trkpt lat="45.10513" lon="2.68515">
        <ele>1503.4775390625</ele>
        <time>2020-07-14T20:04:47.637Z</time>
      </trkpt>
      <trkpt lat="45.10511" lon="2.68519">
        <ele>1504.3894042969</ele>
        <time>2020-07-14T20:04:48.730Z</time>
      </trkpt>
      <trkpt lat="45.10509" lon="2.68522">
        <ele>1505.5172119141</ele>
        <time>2020-07-14T20:04:49.824Z</time>
      </trkpt>
      <trkpt lat="45.10506" lon="2.68526">
        <ele>1507.3168945312</ele>
        <time>2020-07-14T20:04:50.919Z</time>
      </trkpt>
      <trkpt lat="45.10505" lon="2.68529">
        <ele>1507.5568847656</ele>
        <time>2020-07-14T20:04:52.015Z</time>
      </trkpt>
      <trkpt lat="45.10504" lon="2.68533">
        <ele>1507.5808105469</ele>
        <time>2020-07-14T20:04:53.112Z</time>
      </trkpt>
      <trkpt lat="45.10503" lon="2.68538">
        <ele>1507.3889160156</ele>
        <time>2020-07-14T20:04:54.210Z</time>
      </trkpt>
      <trkpt lat="45.10502" lon="2.68543">
        <ele>1507.1968994141</ele>
        <time>2020-07-14T20:04:55.309Z</time>
      </trkpt>
      <trkpt lat="45.10502" lon="2.68546">
        <ele>1506.3510742188</ele>
        <time>2020-07-14T20:04:56.409Z</time>
      </trkpt>
      <trkpt lat="45.10501" lon="2.68551">
        <ele>1505.0072021484</ele>
        <time>2020-07-14T20:04:57.510Z</time>
      </trkpt>
      <trkpt lat="45.105" lon="2.68556">
        <ele>1503.6634521484</ele>
        <time>2020-07-14T20:04:58.612Z</time>
      </trkpt>
      <trkpt lat="45.10498" lon="2.68559">
        <ele>1503.8314208984</ele>
        <time>2020-07-14T20:04:59.715Z</time>
      </trkpt>
      <trkpt lat="45.10497" lon="2.68563">
        <ele>1502.8956298828</ele>
        <time>2020-07-14T20:05:00.819Z</time>
      </trkpt>
      <trkpt lat="45.10497" lon="2.68568">
        <ele>1500.8559570312</ele>
        <time>2020-07-14T20:05:01.925Z</time>
      </trkpt>
      <trkpt lat="45.10497" lon="2.68573">
        <ele>1498.8162841797</ele>
        <time>2020-07-14T20:05:03.032Z</time>
      </trkpt>
      <trkpt lat="45.10497" lon="2.68578">
        <ele>1496.7766113281</ele>
        <time>2020-07-14T20:05:04.140Z</time>
      </trkpt>
      <trkpt lat="45.10496" lon="2.6858">
        <ele>1496.6566162109</ele>
        <time>2020-07-14T20:05:05.249Z</time>
      </trkpt>
      <trkpt lat="45.10495" lon="2.68584">
        <ele>1495.7208251953</ele>
        <time>2020-07-14T20:05:06.359Z</time>
      </trkpt>
      <trkpt lat="45.10494" lon="2.68587">
        <ele>1495.4503173828</ele>
        <time>2020-07-14T20:05:07.469Z</time>
      </trkpt>
      <trkpt lat="45.10494" lon="2.68591">
        <ele>1495.6422119141</ele>
        <time>2020-07-14T20:05:08.580Z</time>
      </trkpt>
      <trkpt lat="45.10493" lon="2.68597">
        <ele>1496.6260986328</ele>
        <time>2020-07-14T20:05:09.693Z</time>
      </trkpt>
      <trkpt lat="45.10492" lon="2.68601">
        <ele>1497.5139160156</ele>
        <time>2020-07-14T20:05:10.807Z</time>
      </trkpt>
      <trkpt lat="45.10489" lon="2.68607">
        <ele>1499.8895263672</ele>
        <time>2020-07-14T20:05:11.922Z</time>
      </trkpt>
      <trkpt lat="45.10489" lon="2.68612">
        <ele>1500.1295166016</ele>
        <time>2020-07-14T20:05:13.039Z</time>
      </trkpt>
      <trkpt lat="45.10489" lon="2.68617">
        <ele>1500.0057373047</ele>
        <time>2020-07-14T20:05:14.157Z</time>
      </trkpt>
      <trkpt lat="45.10489" lon="2.6862">
        <ele>1499.5018310547</ele>
        <time>2020-07-14T20:05:15.276Z</time>
      </trkpt>
      <trkpt lat="45.10487" lon="2.68627">
        <ele>1499.2858886719</ele>
        <time>2020-07-14T20:05:16.396Z</time>
      </trkpt>
      <trkpt lat="45.10486" lon="2.68629">
        <ele>1499.4298095703</ele>
        <time>2020-07-14T20:05:17.517Z</time>
      </trkpt>
      <trkpt lat="45.10486" lon="2.68634">
        <ele>1498.5899658203</ele>
        <time>2020-07-14T20:05:18.639Z</time>
      </trkpt>
      <trkpt lat="45.10485" lon="2.68642">
        <ele>1497.7260742188</ele>
        <time>2020-07-14T20:05:19.763Z</time>
      </trkpt>
      <trkpt lat="45.10485" lon="2.68646">
        <ele>1497.0541992188</ele>
        <time>2020-07-14T20:05:20.888Z</time>
      </trkpt>
      <trkpt lat="45.10483" lon="2.68649">
        <ele>1497.5101318359</ele>
        <time>2020-07-14T20:05:22.014Z</time>
      </trkpt>
      <trkpt lat="45.10481" lon="2.68653">
        <ele>1497.7980957031</ele>
        <time>2020-07-14T20:05:23.141Z</time>
      </trkpt>
      <trkpt lat="45.10479" lon="2.68656">
        <ele>1498.2540283203</ele>
        <time>2020-07-14T20:05:24.269Z</time>
      </trkpt>
      <trkpt lat="45.10477" lon="2.68663">
        <ele>1498.0380859375</ele>
        <time>2020-07-14T20:05:25.399Z</time>
      </trkpt>
      <trkpt lat="45.10476" lon="2.68669">
        <ele>1497.5101318359</ele>
        <time>2020-07-14T20:05:26.530Z</time>
      </trkpt>
      <trkpt lat="45.10474" lon="2.68676">
        <ele>1499.4575195312</ele>
        <time>2020-07-14T20:05:27.663Z</time>
      </trkpt>
      <trkpt lat="45.10474" lon="2.68679">
        <ele>1499.9974365234</ele>
        <time>2020-07-14T20:05:28.797Z</time>
      </trkpt>
      <trkpt lat="45.10477" lon="2.68688">
        <ele>1500.0169677734</ele>
        <time>2020-07-14T20:05:29.933Z</time>
      </trkpt>
      <trkpt lat="45.10478" lon="2.68692">
        <ele>1499.8969726562</ele>
        <time>2020-07-14T20:05:31.070Z</time>
      </trkpt>
      <trkpt lat="45.10479" lon="2.68695">
        <ele>1499.7170410156</ele>
        <time>2020-07-14T20:05:32.208Z</time>
      </trkpt>
      <trkpt lat="45.10478" lon="2.68699">
        <ele>1500.3168945312</ele>
        <time>2020-07-14T20:05:33.347Z</time>
      </trkpt>
      <trkpt lat="45.10475" lon="2.6871">
        <ele>1502.056640625</ele>
        <time>2020-07-14T20:05:34.489Z</time>
      </trkpt>
      <trkpt lat="45.10474" lon="2.68712">
        <ele>1502.5364990234</ele>
        <time>2020-07-14T20:05:35.631Z</time>
      </trkpt>
      <trkpt lat="45.10473" lon="2.68714">
        <ele>1503.0164794922</ele>
        <time>2020-07-14T20:05:36.774Z</time>
      </trkpt>
      <trkpt lat="45.10472" lon="2.68725">
        <ele>1504.0362548828</ele>
        <time>2020-07-14T20:05:37.919Z</time>
      </trkpt>
      <trkpt lat="45.10471" lon="2.68727">
        <ele>1504.5162353516</ele>
        <time>2020-07-14T20:05:39.065Z</time>
      </trkpt>
      <trkpt lat="45.1047" lon="2.68731">
        <ele>1505.1160888672</ele>
        <time>2020-07-14T20:05:40.212Z</time>
      </trkpt>
      <trkpt lat="45.10468" lon="2.68735">
        <ele>1506.0759277344</ele>
        <time>2020-07-14T20:05:41.360Z</time>
      </trkpt>
      <trkpt lat="45.10468" lon="2.68738">
        <ele>1506.255859375</ele>
        <time>2020-07-14T20:05:42.509Z</time>
      </trkpt>
      <trkpt lat="45.10469" lon="2.6874">
        <ele>1506.0159912109</ele>
        <time>2020-07-14T20:05:43.658Z</time>
      </trkpt>
      <trkpt lat="45.1047" lon="2.68741">
        <ele>1505.7159423828</ele>
        <time>2020-07-14T20:05:44.808Z</time>
      </trkpt>
      <trkpt lat="45.10471" lon="2.68745">
        <ele>1505.5960693359</ele>
        <time>2020-07-14T20:05:45.959Z</time>
      </trkpt>
      <trkpt lat="45.10471" lon="2.68749">
        <ele>1505.8359375</ele>
        <time>2020-07-14T20:05:47.111Z</time>
      </trkpt>
      <trkpt lat="45.10468" lon="2.68772">
        <ele>1510.8979492188</ele>
        <time>2020-07-14T20:05:48.268Z</time>
      </trkpt>
      <trkpt lat="45.10467" lon="2.68784">
        <ele>1514.0654296875</ele>
        <time>2020-07-14T20:05:49.428Z</time>
      </trkpt>
      <trkpt lat="45.10467" lon="2.68789">
        <ele>1515.2052001953</ele>
        <time>2020-07-14T20:05:50.589Z</time>
      </trkpt>
      <trkpt lat="45.10466" lon="2.68792">
        <ele>1516.3210449219</ele>
        <time>2020-07-14T20:05:51.751Z</time>
      </trkpt>
      <trkpt lat="45.10467" lon="2.68797">
        <ele>1517.0289306641</ele>
        <time>2020-07-14T20:05:52.914Z</time>
      </trkpt>
      <trkpt lat="45.10469" lon="2.688">
        <ele>1516.8489990234</ele>
        <time>2020-07-14T20:05:54.078Z</time>
      </trkpt>
      <trkpt lat="45.1047" lon="2.68809">
        <ele>1518.4686279297</ele>
        <time>2020-07-14T20:05:55.244Z</time>
      </trkpt>
      <trkpt lat="45.10471" lon="2.68813">
        <ele>1518.9486083984</ele>
        <time>2020-07-14T20:05:56.411Z</time>
      </trkpt>
      <trkpt lat="45.1047" lon="2.68817">
        <ele>1520.2923583984</ele>
        <time>2020-07-14T20:05:57.579Z</time>
      </trkpt>
      <trkpt lat="45.1047" lon="2.68821">
        <ele>1521.2042236328</ele>
        <time>2020-07-14T20:05:58.748Z</time>
      </trkpt>
      <trkpt lat="45.10472" lon="2.68825">
        <ele>1521.2521972656</ele>
        <time>2020-07-14T20:05:59.919Z</time>
      </trkpt>
      <trkpt lat="45.10474" lon="2.68828">
        <ele>1521.072265625</ele>
        <time>2020-07-14T20:06:01.091Z</time>
      </trkpt>
      <trkpt lat="45.10475" lon="2.68833">
        <ele>1521.7801513672</ele>
        <time>2020-07-14T20:06:02.264Z</time>
      </trkpt>
      <trkpt lat="45.10475" lon="2.68837">
        <ele>1522.6480712891</ele>
        <time>2020-07-14T20:06:03.438Z</time>
      </trkpt>
      <trkpt lat="45.10475" lon="2.6884">
        <ele>1523.0799560547</ele>
        <time>2020-07-14T20:06:04.612Z</time>
      </trkpt>
      <trkpt lat="45.10475" lon="2.68843">
        <ele>1523.5119628906</ele>
        <time>2020-07-14T20:06:05.787Z</time>
      </trkpt>
      <trkpt lat="45.10475" lon="2.68847">
        <ele>1524.0877685547</ele>
        <time>2020-07-14T20:06:06.963Z</time>
      </trkpt>
      <trkpt lat="45.10475" lon="2.68855">
        <ele>1525.3707275391</ele>
        <time>2020-07-14T20:06:08.141Z</time>
      </trkpt>
      <trkpt lat="45.10475" lon="2.68859">
        <ele>1526.0905761719</ele>
        <time>2020-07-14T20:06:09.320Z</time>
      </trkpt>
      <trkpt lat="45.10475" lon="2.68861">
        <ele>1526.4505615234</ele>
        <time>2020-07-14T20:06:10.499Z</time>
      </trkpt>
      <trkpt lat="45.10476" lon="2.68863">
        <ele>1526.3425292969</ele>
        <time>2020-07-14T20:06:11.679Z</time>
      </trkpt>
      <trkpt lat="45.10478" lon="2.68867">
        <ele>1526.1265869141</ele>
        <time>2020-07-14T20:06:12.860Z</time>
      </trkpt>
      <trkpt lat="45.10479" lon="2.6887">
        <ele>1526.1986083984</ele>
        <time>2020-07-14T20:06:14.042Z</time>
      </trkpt>
      <trkpt lat="45.1048" lon="2.68873">
        <ele>1526.2706298828</ele>
        <time>2020-07-14T20:06:15.225Z</time>
      </trkpt>
      <trkpt lat="45.10481" lon="2.68876">
        <ele>1526.3425292969</ele>
        <time>2020-07-14T20:06:16.408Z</time>
      </trkpt>
      <trkpt lat="45.1048" lon="2.6888">
        <ele>1527.5303955078</ele>
        <time>2020-07-14T20:06:17.592Z</time>
      </trkpt>
      <trkpt lat="45.1048" lon="2.68883">
        <ele>1528.0703125</ele>
        <time>2020-07-14T20:06:18.777Z</time>
      </trkpt>
      <trkpt lat="45.10481" lon="2.68887">
        <ele>1528.322265625</ele>
        <time>2020-07-14T20:06:19.963Z</time>
      </trkpt>
      <trkpt lat="45.10483" lon="2.6889">
        <ele>1527.9262695312</ele>
        <time>2020-07-14T20:06:21.150Z</time>
      </trkpt>
      <trkpt lat="45.10487" lon="2.68892">
        <ele>1526.4145507812</ele>
        <time>2020-07-14T20:06:22.339Z</time>
      </trkpt>
      <trkpt lat="45.10489" lon="2.68901">
        <ele>1527.0983886719</ele>
        <time>2020-07-14T20:06:23.530Z</time>
      </trkpt>
      <trkpt lat="45.1049" lon="2.68906">
        <ele>1527.5303955078</ele>
        <time>2020-07-14T20:06:24.722Z</time>
      </trkpt>
      <trkpt lat="45.10491" lon="2.68909">
        <ele>1527.6024169922</ele>
        <time>2020-07-14T20:06:25.915Z</time>
      </trkpt>
      <trkpt lat="45.10492" lon="2.68918">
        <ele>1528.7541503906</ele>
        <time>2020-07-14T20:06:27.110Z</time>
      </trkpt>
      <trkpt lat="45.10492" lon="2.68921">
        <ele>1529.3646240234</ele>
        <time>2020-07-14T20:06:28.306Z</time>
      </trkpt>
      <trkpt lat="45.10492" lon="2.68925">
        <ele>1530.3244628906</ele>
        <time>2020-07-14T20:06:29.503Z</time>
      </trkpt>
      <trkpt lat="45.10492" lon="2.6893">
        <ele>1531.5242919922</ele>
        <time>2020-07-14T20:06:30.701Z</time>
      </trkpt>
      <trkpt lat="45.10495" lon="2.68934">
        <ele>1531.0803222656</ele>
        <time>2020-07-14T20:06:31.900Z</time>
      </trkpt>
      <trkpt lat="45.10497" lon="2.68938">
        <ele>1531.1043701172</ele>
        <time>2020-07-14T20:06:33.100Z</time>
      </trkpt>
      <trkpt lat="45.10499" lon="2.68944">
        <ele>1531.6082763672</ele>
        <time>2020-07-14T20:06:34.302Z</time>
      </trkpt>
      <trkpt lat="45.105" lon="2.6895">
        <ele>1532.580078125</ele>
        <time>2020-07-14T20:06:35.505Z</time>
      </trkpt>
      <trkpt lat="45.10502" lon="2.68955">
        <ele>1532.8439941406</ele>
        <time>2020-07-14T20:06:36.710Z</time>
      </trkpt>
      <trkpt lat="45.10503" lon="2.6896">
        <ele>1533.5759277344</ele>
        <time>2020-07-14T20:06:37.916Z</time>
      </trkpt>
      <trkpt lat="45.10508" lon="2.68969">
        <ele>1533.3493652344</ele>
        <time>2020-07-14T20:06:39.125Z</time>
      </trkpt>
      <trkpt lat="45.1051" lon="2.68975">
        <ele>1533.7092285156</ele>
        <time>2020-07-14T20:06:40.335Z</time>
      </trkpt>
      <trkpt lat="45.10512" lon="2.6898">
        <ele>1533.865234375</ele>
        <time>2020-07-14T20:06:41.547Z</time>
      </trkpt>
      <trkpt lat="45.10512" lon="2.68985">
        <ele>1534.8850097656</ele>
        <time>2020-07-14T20:06:42.760Z</time>
      </trkpt>
      <trkpt lat="45.10516" lon="2.68995">
        <ele>1535.1970214844</ele>
        <time>2020-07-14T20:06:43.975Z</time>
      </trkpt>
      <trkpt lat="45.10518" lon="2.69001">
        <ele>1535.5568847656</ele>
        <time>2020-07-14T20:06:45.192Z</time>
      </trkpt>
      <trkpt lat="45.10518" lon="2.69007">
        <ele>1536.0457763672</ele>
        <time>2020-07-14T20:06:46.410Z</time>
      </trkpt>
      <trkpt lat="45.10518" lon="2.69014">
        <ele>1536.1297607422</ele>
        <time>2020-07-14T20:06:47.630Z</time>
      </trkpt>
      <trkpt lat="45.10519" lon="2.69018">
        <ele>1535.7458496094</ele>
        <time>2020-07-14T20:06:48.851Z</time>
      </trkpt>
      <trkpt lat="45.1052" lon="2.6902">
        <ele>1535.337890625</ele>
        <time>2020-07-14T20:06:50.073Z</time>
      </trkpt>
      <trkpt lat="45.10522" lon="2.69022">
        <ele>1534.498046875</ele>
        <time>2020-07-14T20:06:51.295Z</time>
      </trkpt>
      <trkpt lat="45.10524" lon="2.69025">
        <ele>1533.6701660156</ele>
        <time>2020-07-14T20:06:52.518Z</time>
      </trkpt>
      <trkpt lat="45.10525" lon="2.69029">
        <ele>1533.2862548828</ele>
        <time>2020-07-14T20:06:53.742Z</time>
      </trkpt>
      <trkpt lat="45.10526" lon="2.69033">
        <ele>1532.90234375</ele>
        <time>2020-07-14T20:06:54.967Z</time>
      </trkpt>
      <trkpt lat="45.10525" lon="2.69036">
        <ele>1533.3702392578</ele>
        <time>2020-07-14T20:06:56.193Z</time>
      </trkpt>
      <trkpt lat="45.10525" lon="2.69038">
        <ele>1533.3942871094</ele>
        <time>2020-07-14T20:06:57.420Z</time>
      </trkpt>
      <trkpt lat="45.10525" lon="2.69047">
        <ele>1533.5021972656</ele>
        <time>2020-07-14T20:06:58.649Z</time>
      </trkpt>
      <trkpt lat="45.10527" lon="2.69059">
        <ele>1532.7823486328</ele>
        <time>2020-07-14T20:06:59.881Z</time>
      </trkpt>
      <trkpt lat="45.10528" lon="2.69066">
        <ele>1532.4344482422</ele>
        <time>2020-07-14T20:07:01.114Z</time>
      </trkpt>
      <trkpt lat="45.10529" lon="2.69072">
        <ele>1532.0744628906</ele>
        <time>2020-07-14T20:07:02.349Z</time>
      </trkpt>
      <trkpt lat="45.10532" lon="2.69087">
        <ele>1530.873046875</ele>
        <time>2020-07-14T20:07:03.588Z</time>
      </trkpt>
      <trkpt lat="45.10533" lon="2.69092">
        <ele>1531.0529785156</ele>
        <time>2020-07-14T20:07:04.828Z</time>
      </trkpt>
      <trkpt lat="45.10535" lon="2.69097">
        <ele>1530.8129882812</ele>
        <time>2020-07-14T20:07:06.069Z</time>
      </trkpt>
      <trkpt lat="45.10537" lon="2.6911">
        <ele>1531.5329589844</ele>
        <time>2020-07-14T20:07:07.313Z</time>
      </trkpt>
      <trkpt lat="45.10539" lon="2.69117">
        <ele>1531.5329589844</ele>
        <time>2020-07-14T20:07:08.559Z</time>
      </trkpt>
      <trkpt lat="45.10541" lon="2.69125">
        <ele>1531.6529541016</ele>
        <time>2020-07-14T20:07:09.807Z</time>
      </trkpt>
      <trkpt lat="45.10541" lon="2.6913">
        <ele>1532.2528076172</ele>
        <time>2020-07-14T20:07:11.056Z</time>
      </trkpt>
      <trkpt lat="45.10541" lon="2.69134">
        <ele>1532.7326660156</ele>
        <time>2020-07-14T20:07:12.306Z</time>
      </trkpt>
      <trkpt lat="45.1054" lon="2.69139">
        <ele>1533.7525634766</ele>
        <time>2020-07-14T20:07:13.557Z</time>
      </trkpt>
      <trkpt lat="45.10538" lon="2.69145">
        <ele>1535.3122558594</ele>
        <time>2020-07-14T20:07:14.810Z</time>
      </trkpt>
      <trkpt lat="45.10533" lon="2.69156">
        <ele>1538.7316894531</ele>
        <time>2020-07-14T20:07:16.066Z</time>
      </trkpt>
      <trkpt lat="45.10529" lon="2.69161">
        <ele>1540.2049560547</ele>
        <time>2020-07-14T20:07:17.324Z</time>
      </trkpt>
      <trkpt lat="45.10526" lon="2.69164">
        <ele>1540.9608154297</ele>
        <time>2020-07-14T20:07:18.583Z</time>
      </trkpt>
      <trkpt lat="45.1052" lon="2.69168">
        <ele>1542.5205078125</ele>
        <time>2020-07-14T20:07:19.844Z</time>
      </trkpt>
      <trkpt lat="45.10515" lon="2.69172">
        <ele>1543.5738525391</ele>
        <time>2020-07-14T20:07:21.107Z</time>
      </trkpt>
      <trkpt lat="45.10511" lon="2.69174">
        <ele>1544.4138183594</ele>
        <time>2020-07-14T20:07:22.372Z</time>
      </trkpt>
      <trkpt lat="45.10504" lon="2.69177">
        <ele>1545.9494628906</ele>
        <time>2020-07-14T20:07:23.639Z</time>
      </trkpt>
      <trkpt lat="45.10499" lon="2.69179">
        <ele>1547.0653076172</ele>
        <time>2020-07-14T20:07:24.908Z</time>
      </trkpt>
      <trkpt lat="45.10491" lon="2.69182">
        <ele>1548.8770751953</ele>
        <time>2020-07-14T20:07:26.180Z</time>
      </trkpt>
      <trkpt lat="45.10486" lon="2.69187">
        <ele>1549.5969238281</ele>
        <time>2020-07-14T20:07:27.454Z</time>
      </trkpt>
      <trkpt lat="45.10484" lon="2.69191">
        <ele>1549.6208496094</ele>
        <time>2020-07-14T20:07:28.729Z</time>
      </trkpt>
      <trkpt lat="45.10481" lon="2.69195">
        <ele>1549.9208984375</ele>
        <time>2020-07-14T20:07:30.005Z</time>
      </trkpt>
      <trkpt lat="45.10475" lon="2.69206">
        <ele>1550.1247558594</ele>
        <time>2020-07-14T20:07:31.284Z</time>
      </trkpt>
      <trkpt lat="45.1047" lon="2.6922">
        <ele>1549.6568603516</ele>
        <time>2020-07-14T20:07:32.567Z</time>
      </trkpt>
      <trkpt lat="45.10466" lon="2.69227">
        <ele>1549.8369140625</ele>
        <time>2020-07-14T20:07:33.852Z</time>
      </trkpt>
      <trkpt lat="45.10464" lon="2.6923">
        <ele>1549.9927978516</ele>
        <time>2020-07-14T20:07:35.138Z</time>
      </trkpt>
      <trkpt lat="45.10462" lon="2.69236">
        <ele>1549.7529296875</ele>
        <time>2020-07-14T20:07:36.426Z</time>
      </trkpt>
      <trkpt lat="45.10459" lon="2.69242">
        <ele>1549.9635009766</ele>
        <time>2020-07-14T20:07:37.716Z</time>
      </trkpt>
      <trkpt lat="45.10456" lon="2.69248">
        <ele>1550.4674072266</ele>
        <time>2020-07-14T20:07:39.007Z</time>
      </trkpt>
      <trkpt lat="45.10454" lon="2.69252">
        <ele>1551.4509277344</ele>
        <time>2020-07-14T20:07:40.299Z</time>
      </trkpt>
      <trkpt lat="45.10451" lon="2.69258">
        <ele>1552.7979736328</ele>
        <time>2020-07-14T20:07:41.593Z</time>
      </trkpt>
      <trkpt lat="45.10449" lon="2.69262">
        <ele>1553.6379394531</ele>
        <time>2020-07-14T20:07:42.888Z</time>
      </trkpt>
      <trkpt lat="45.10446" lon="2.69268">
        <ele>1554.8977050781</ele>
        <time>2020-07-14T20:07:44.185Z</time>
      </trkpt>
      <trkpt lat="45.10443" lon="2.69271">
        <ele>1556.3734130859</ele>
        <time>2020-07-14T20:07:45.483Z</time>
      </trkpt>
      <trkpt lat="45.10441" lon="2.69274">
        <ele>1557.2852783203</ele>
        <time>2020-07-14T20:07:46.782Z</time>
      </trkpt>
      <trkpt lat="45.10439" lon="2.69278">
        <ele>1558.1251220703</ele>
        <time>2020-07-14T20:07:48.082Z</time>
      </trkpt>
      <trkpt lat="45.10435" lon="2.69289">
        <ele>1559.5888671875</ele>
        <time>2020-07-14T20:07:49.385Z</time>
      </trkpt>
      <trkpt lat="45.10433" lon="2.69295">
        <ele>1560.2847900391</ele>
        <time>2020-07-14T20:07:50.690Z</time>
      </trkpt>
      <trkpt lat="45.1043" lon="2.69306">
        <ele>1561.1846923828</ele>
        <time>2020-07-14T20:07:51.998Z</time>
      </trkpt>
      <trkpt lat="45.10427" lon="2.69319">
        <ele>1563.9940185547</ele>
        <time>2020-07-14T20:07:53.309Z</time>
      </trkpt>
      <trkpt lat="45.10423" lon="2.69327">
        <ele>1567.2574462891</ele>
        <time>2020-07-14T20:07:54.622Z</time>
      </trkpt>
      <trkpt lat="45.1042" lon="2.69333">
        <ele>1569.705078125</ele>
        <time>2020-07-14T20:07:55.937Z</time>
      </trkpt>
      <trkpt lat="45.10418" lon="2.69337">
        <ele>1571.3315429688</ele>
        <time>2020-07-14T20:07:57.253Z</time>
      </trkpt>
      <trkpt lat="45.10415" lon="2.69342">
        <ele>1573.6590576172</ele>
        <time>2020-07-14T20:07:58.571Z</time>
      </trkpt>
      <trkpt lat="45.10412" lon="2.69351">
        <ele>1576.1787109375</ele>
        <time>2020-07-14T20:07:59.891Z</time>
      </trkpt>
      <trkpt lat="45.10411" lon="2.69356">
        <ele>1577.1145019531</ele>
        <time>2020-07-14T20:08:01.212Z</time>
      </trkpt>
      <trkpt lat="45.1041" lon="2.69363">
        <ele>1578.1463623047</ele>
        <time>2020-07-14T20:08:02.535Z</time>
      </trkpt>
      <trkpt lat="45.10409" lon="2.69373">
        <ele>1578.1597900391</ele>
        <time>2020-07-14T20:08:03.860Z</time>
      </trkpt>
      <trkpt lat="45.10409" lon="2.6938">
        <ele>1576.5640869141</ele>
        <time>2020-07-14T20:08:05.187Z</time>
      </trkpt>
      <trkpt lat="45.10408" lon="2.69384">
        <ele>1576.0721435547</ele>
        <time>2020-07-14T20:08:06.515Z</time>
      </trkpt>
      <trkpt lat="45.10408" lon="2.69391">
        <ele>1574.4764404297</ele>
        <time>2020-07-14T20:08:07.845Z</time>
      </trkpt>
      <trkpt lat="45.10408" lon="2.69397">
        <ele>1573.1086425781</ele>
        <time>2020-07-14T20:08:09.176Z</time>
      </trkpt>
      <trkpt lat="45.10408" lon="2.69401">
        <ele>1572.1967773438</ele>
        <time>2020-07-14T20:08:10.508Z</time>
      </trkpt>
      <trkpt lat="45.104" lon="2.69416">
        <ele>1572.1368408203</ele>
        <time>2020-07-14T20:08:11.844Z</time>
      </trkpt>
      <trkpt lat="45.10396" lon="2.69439">
        <ele>1573.3839111328</ele>
        <time>2020-07-14T20:08:13.186Z</time>
      </trkpt>
      <trkpt lat="45.10392" lon="2.69463">
        <ele>1578.6484375</ele>
        <time>2020-07-14T20:08:14.534Z</time>
      </trkpt>
      <trkpt lat="45.1039" lon="2.69487">
        <ele>1582.8717041016</ele>
        <time>2020-07-14T20:08:15.888Z</time>
      </trkpt>
      <trkpt lat="45.10389" lon="2.6951">
        <ele>1586.6778564453</ele>
        <time>2020-07-14T20:08:17.247Z</time>
      </trkpt>
      <trkpt lat="45.10374" lon="2.69497">
        <ele>1593.0372314453</ele>
        <time>2020-07-14T20:08:18.612Z</time>
      </trkpt>
      <trkpt lat="45.10363" lon="2.69515">
        <ele>1600.7233886719</ele>
        <time>2020-07-14T20:08:19.982Z</time>
      </trkpt>
      <trkpt lat="45.10352" lon="2.69531">
        <ele>1608.8820800781</ele>
        <time>2020-07-14T20:08:21.358Z</time>
      </trkpt>
      <trkpt lat="45.10343" lon="2.69545">
        <ele>1615.7209472656</ele>
        <time>2020-07-14T20:08:22.738Z</time>
      </trkpt>
      <trkpt lat="45.10345" lon="2.69585">
        <ele>1613.2723388672</ele>
        <time>2020-07-14T20:08:24.128Z</time>
      </trkpt>
      <trkpt lat="45.10349" lon="2.69632">
        <ele>1618.3229980469</ele>
        <time>2020-07-14T20:08:25.529Z</time>
      </trkpt>
      <trkpt lat="45.10361" lon="2.69669">
        <ele>1619.1240234375</ele>
        <time>2020-07-14T20:08:26.939Z</time>
      </trkpt>
      <trkpt lat="45.10371" lon="2.69705">
        <ele>1620.5181884766</ele>
        <time>2020-07-14T20:08:28.359Z</time>
      </trkpt>
      <trkpt lat="45.1038" lon="2.69745">
        <ele>1621.41796875</ele>
        <time>2020-07-14T20:08:29.788Z</time>
      </trkpt>
      <trkpt lat="45.1039" lon="2.69771">
        <ele>1620.8366699219</ele>
        <time>2020-07-14T20:08:31.224Z</time>
      </trkpt>
      <trkpt lat="45.10388" lon="2.69771">
        <ele>1621.3885498047</ele>
        <time>2020-07-14T20:08:32.661Z</time>
      </trkpt>
      <trkpt lat="45.10393" lon="2.69788">
        <ele>1621.4365234375</ele>
        <time>2020-07-14T20:08:34.102Z</time>
      </trkpt>
      <trkpt lat="45.10396" lon="2.698">
        <ele>1621.6164550781</ele>
        <time>2020-07-14T20:08:35.546Z</time>
      </trkpt>
      <trkpt lat="45.104" lon="2.69813">
        <ele>1621.6044921875</ele>
        <time>2020-07-14T20:08:36.994Z</time>
      </trkpt>
      <trkpt lat="45.10402" lon="2.69822">
        <ele>1621.8084716797</ele>
        <time>2020-07-14T20:08:38.444Z</time>
      </trkpt>
      <trkpt lat="45.10407" lon="2.69834">
        <ele>1621.4365234375</ele>
        <time>2020-07-14T20:08:39.897Z</time>
      </trkpt>
      <trkpt lat="45.10412" lon="2.69848">
        <ele>1622.7313232422</ele>
        <time>2020-07-14T20:08:41.354Z</time>
      </trkpt>
      <trkpt lat="45.10414" lon="2.69854">
        <ele>1623.4752197266</ele>
        <time>2020-07-14T20:08:42.813Z</time>
      </trkpt>
      <trkpt lat="45.10415" lon="2.69858">
        <ele>1624.0631103516</ele>
        <time>2020-07-14T20:08:44.273Z</time>
      </trkpt>
      <trkpt lat="45.10416" lon="2.69862">
        <ele>1624.6510009766</ele>
        <time>2020-07-14T20:08:45.734Z</time>
      </trkpt>
      <trkpt lat="45.10419" lon="2.69875">
        <ele>1626.6307373047</ele>
        <time>2020-07-14T20:08:47.198Z</time>
      </trkpt>
      <trkpt lat="45.10421" lon="2.69874">
        <ele>1625.8627929688</ele>
        <time>2020-07-14T20:08:48.663Z</time>
      </trkpt>
      <trkpt lat="45.10419" lon="2.69875">
        <ele>1626.6307373047</ele>
        <time>2020-07-14T20:08:50.128Z</time>
      </trkpt>
      <trkpt lat="45.1042" lon="2.69881">
        <ele>1627.4473876953</ele>
        <time>2020-07-14T20:08:51.595Z</time>
      </trkpt>
      <trkpt lat="45.10422" lon="2.69886">
        <ele>1627.4354248047</ele>
        <time>2020-07-14T20:08:53.063Z</time>
      </trkpt>
      <trkpt lat="45.10425" lon="2.69896">
        <ele>1627.5074462891</ele>
        <time>2020-07-14T20:08:54.534Z</time>
      </trkpt>
      <trkpt lat="45.10426" lon="2.69901">
        <ele>1627.5914306641</ele>
        <time>2020-07-14T20:08:56.006Z</time>
      </trkpt>
      <trkpt lat="45.10428" lon="2.69904">
        <ele>1627.5074462891</ele>
        <time>2020-07-14T20:08:57.479Z</time>
      </trkpt>
      <trkpt lat="45.10431" lon="2.69908">
        <ele>1627.3634033203</ele>
        <time>2020-07-14T20:08:58.953Z</time>
      </trkpt>
      <trkpt lat="45.10435" lon="2.69914">
        <ele>1627.1954345703</ele>
        <time>2020-07-14T20:09:00.429Z</time>
      </trkpt>
      <trkpt lat="45.10437" lon="2.69918">
        <ele>1627.1474609375</ele>
        <time>2020-07-14T20:09:01.906Z</time>
      </trkpt>
      <trkpt lat="45.10439" lon="2.69921">
        <ele>1627.0755615234</ele>
        <time>2020-07-14T20:09:03.384Z</time>
      </trkpt>
      <trkpt lat="45.10444" lon="2.69924">
        <ele>1626.7396240234</ele>
        <time>2020-07-14T20:09:04.864Z</time>
      </trkpt>
      <trkpt lat="45.10447" lon="2.69926">
        <ele>1626.5476074219</ele>
        <time>2020-07-14T20:09:06.345Z</time>
      </trkpt>
      <trkpt lat="45.10451" lon="2.69929">
        <ele>1626.3077392578</ele>
        <time>2020-07-14T20:09:07.828Z</time>
      </trkpt>
      <trkpt lat="45.10455" lon="2.69932">
        <ele>1626.0677490234</ele>
        <time>2020-07-14T20:09:09.312Z</time>
      </trkpt>
      <trkpt lat="45.1046" lon="2.69938">
        <ele>1625.8757324219</ele>
        <time>2020-07-14T20:09:10.798Z</time>
      </trkpt>
      <trkpt lat="45.10465" lon="2.69945">
        <ele>1625.3804931641</ele>
        <time>2020-07-14T20:09:12.287Z</time>
      </trkpt>
      <trkpt lat="45.10471" lon="2.69953">
        <ele>1624.7565917969</ele>
        <time>2020-07-14T20:09:13.778Z</time>
      </trkpt>
      <trkpt lat="45.10477" lon="2.69963">
        <ele>1624.2286376953</ele>
        <time>2020-07-14T20:09:15.273Z</time>
      </trkpt>
      <trkpt lat="45.10483" lon="2.69968">
        <ele>1623.4608154297</ele>
        <time>2020-07-14T20:09:16.770Z</time>
      </trkpt>
      <trkpt lat="45.10488" lon="2.69974">
        <ele>1622.9089355469</ele>
        <time>2020-07-14T20:09:18.269Z</time>
      </trkpt>
      <trkpt lat="45.10496" lon="2.69982">
        <ele>1621.9490966797</ele>
        <time>2020-07-14T20:09:19.771Z</time>
      </trkpt>
      <trkpt lat="45.10502" lon="2.69989">
        <ele>1621.2770996094</ele>
        <time>2020-07-14T20:09:21.276Z</time>
      </trkpt>
      <trkpt lat="45.1051" lon="2.69998">
        <ele>1620.3653564453</ele>
        <time>2020-07-14T20:09:22.784Z</time>
      </trkpt>
      <trkpt lat="45.10517" lon="2.70007">
        <ele>1620.0607910156</ele>
        <time>2020-07-14T20:09:24.296Z</time>
      </trkpt>
      <trkpt lat="45.1052" lon="2.70013">
        <ele>1620.5646972656</ele>
        <time>2020-07-14T20:09:25.809Z</time>
      </trkpt>
      <trkpt lat="45.10526" lon="2.70023">
        <ele>1621.2365722656</ele>
        <time>2020-07-14T20:09:27.325Z</time>
      </trkpt>
      <trkpt lat="45.10531" lon="2.70031">
        <ele>1621.7404785156</ele>
        <time>2020-07-14T20:09:28.844Z</time>
      </trkpt>
      <trkpt lat="45.10533" lon="2.70036">
        <ele>1622.2443847656</ele>
        <time>2020-07-14T20:09:30.364Z</time>
      </trkpt>
      <trkpt lat="45.10535" lon="2.70039">
        <ele>1622.4123535156</ele>
        <time>2020-07-14T20:09:31.885Z</time>
      </trkpt>
      <trkpt lat="45.10537" lon="2.70044">
        <ele>1622.9162597656</ele>
        <time>2020-07-14T20:09:33.408Z</time>
      </trkpt>
      <trkpt lat="45.10537" lon="2.70046">
        <ele>1623.2521972656</ele>
        <time>2020-07-14T20:09:34.931Z</time>
      </trkpt>
      <trkpt lat="45.10536" lon="2.70048">
        <ele>1623.7561035156</ele>
        <time>2020-07-14T20:09:36.455Z</time>
      </trkpt>
      <trkpt lat="45.10536" lon="2.7005">
        <ele>1624.0921630859</ele>
        <time>2020-07-14T20:09:37.979Z</time>
      </trkpt>
      <trkpt lat="45.10537" lon="2.70054">
        <ele>1624.5960693359</ele>
        <time>2020-07-14T20:09:39.504Z</time>
      </trkpt>
      <trkpt lat="45.10539" lon="2.70059">
        <ele>1625.0999755859</ele>
        <time>2020-07-14T20:09:41.030Z</time>
      </trkpt>
      <trkpt lat="45.10541" lon="2.70067">
        <ele>1626.1077880859</ele>
        <time>2020-07-14T20:09:42.558Z</time>
      </trkpt>
      <trkpt lat="45.10542" lon="2.70076">
        <ele>1627.4515380859</ele>
        <time>2020-07-14T20:09:44.089Z</time>
      </trkpt>
      <trkpt lat="45.10543" lon="2.70078">
        <ele>1627.6195068359</ele>
        <time>2020-07-14T20:09:45.620Z</time>
      </trkpt>
      <trkpt lat="45.10545" lon="2.70083">
        <ele>1628.1785888672</ele>
        <time>2020-07-14T20:09:47.153Z</time>
      </trkpt>
      <trkpt lat="45.10546" lon="2.70088">
        <ele>1629.0284423828</ele>
        <time>2020-07-14T20:09:48.687Z</time>
      </trkpt>
      <trkpt lat="45.10546" lon="2.70096">
        <ele>1630.4224853516</ele>
        <time>2020-07-14T20:09:50.223Z</time>
      </trkpt>
      <trkpt lat="45.10548" lon="2.70107">
        <ele>1632.1141357422</ele>
        <time>2020-07-14T20:09:51.761Z</time>
      </trkpt>
      <trkpt lat="45.1055" lon="2.70112">
        <ele>1632.8699951172</ele>
        <time>2020-07-14T20:09:53.301Z</time>
      </trkpt>
      <trkpt lat="45.10552" lon="2.70118">
        <ele>1633.7818603516</ele>
        <time>2020-07-14T20:09:54.842Z</time>
      </trkpt>
      <trkpt lat="45.10553" lon="2.70123">
        <ele>1634.5498046875</ele>
        <time>2020-07-14T20:09:56.384Z</time>
      </trkpt>
      <trkpt lat="45.10553" lon="2.70127">
        <ele>1635.1737060547</ele>
        <time>2020-07-14T20:09:57.927Z</time>
      </trkpt>
      <trkpt lat="45.10553" lon="2.70134">
        <ele>1636.2655029297</ele>
        <time>2020-07-14T20:09:59.472Z</time>
      </trkpt>
      <trkpt lat="45.10553" lon="2.70139">
        <ele>1637.0452880859</ele>
        <time>2020-07-14T20:10:01.018Z</time>
      </trkpt>
      <trkpt lat="45.10553" lon="2.70144">
        <ele>1637.8251953125</ele>
        <time>2020-07-14T20:10:02.565Z</time>
      </trkpt>
      <trkpt lat="45.10552" lon="2.70151">
        <ele>1638.9290771484</ele>
        <time>2020-07-14T20:10:04.114Z</time>
      </trkpt>
      <trkpt lat="45.10552" lon="2.70157">
        <ele>1639.8648681641</ele>
        <time>2020-07-14T20:10:05.665Z</time>
      </trkpt>
      <trkpt lat="45.10553" lon="2.70165">
        <ele>1641.1007080078</ele>
        <time>2020-07-14T20:10:07.217Z</time>
      </trkpt>
      <trkpt lat="45.10554" lon="2.70173">
        <ele>1642.5856933594</ele>
        <time>2020-07-14T20:10:08.771Z</time>
      </trkpt>
      <trkpt lat="45.10555" lon="2.70181">
        <ele>1644.4934082031</ele>
        <time>2020-07-14T20:10:10.327Z</time>
      </trkpt>
      <trkpt lat="45.10555" lon="2.70196">
        <ele>1645.4949951172</ele>
        <time>2020-07-14T20:10:11.887Z</time>
      </trkpt>
      <trkpt lat="45.10554" lon="2.702">
        <ele>1645.5670166016</ele>
        <time>2020-07-14T20:10:13.448Z</time>
      </trkpt>
      <trkpt lat="45.10554" lon="2.70204">
        <ele>1645.8070068359</ele>
        <time>2020-07-14T20:10:15.010Z</time>
      </trkpt>
      <trkpt lat="45.10552" lon="2.70209">
        <ele>1645.7709960938</ele>
        <time>2020-07-14T20:10:16.573Z</time>
      </trkpt>
      <trkpt lat="45.1055" lon="2.70212">
        <ele>1645.6149902344</ele>
        <time>2020-07-14T20:10:18.137Z</time>
      </trkpt>
      <trkpt lat="45.10549" lon="2.70217">
        <ele>1645.7469482422</ele>
        <time>2020-07-14T20:10:19.702Z</time>
      </trkpt>
      <trkpt lat="45.10548" lon="2.70224">
        <ele>1645.9989013672</ele>
        <time>2020-07-14T20:10:21.269Z</time>
      </trkpt>
      <trkpt lat="45.10547" lon="2.70237">
        <ele>1646.6108398438</ele>
        <time>2020-07-14T20:10:22.839Z</time>
      </trkpt>
      <trkpt lat="45.10548" lon="2.70241">
        <ele>1647.0187988281</ele>
        <time>2020-07-14T20:10:24.410Z</time>
      </trkpt>
      <trkpt lat="45.10547" lon="2.70248">
        <ele>1647.2707519531</ele>
        <time>2020-07-14T20:10:25.983Z</time>
      </trkpt>
      <trkpt lat="45.10548" lon="2.70252">
        <ele>1647.6787109375</ele>
        <time>2020-07-14T20:10:27.557Z</time>
      </trkpt>
      <trkpt lat="45.10548" lon="2.70257">
        <ele>1648.0654296875</ele>
        <time>2020-07-14T20:10:29.132Z</time>
      </trkpt>
      <trkpt lat="45.10548" lon="2.70264">
        <ele>1647.4118652344</ele>
        <time>2020-07-14T20:10:30.709Z</time>
      </trkpt>
      <trkpt lat="45.10545" lon="2.70272">
        <ele>1645.3361816406</ele>
        <time>2020-07-14T20:10:32.288Z</time>
      </trkpt>
      <trkpt lat="45.10543" lon="2.70278">
        <ele>1643.7603759766</ele>
        <time>2020-07-14T20:10:33.868Z</time>
      </trkpt>
      <trkpt lat="45.10541" lon="2.70283">
        <ele>1641.9366455078</ele>
        <time>2020-07-14T20:10:35.450Z</time>
      </trkpt>
      <trkpt lat="45.10541" lon="2.70287">
        <ele>1641.4567871094</ele>
        <time>2020-07-14T20:10:37.033Z</time>
      </trkpt>
      <trkpt lat="45.10541" lon="2.70294">
        <ele>1640.6169433594</ele>
        <time>2020-07-14T20:10:38.617Z</time>
      </trkpt>
      <trkpt lat="45.1054" lon="2.70299">
        <ele>1639.4051513672</ele>
        <time>2020-07-14T20:10:40.203Z</time>
      </trkpt>
      <trkpt lat="45.1054" lon="2.70305">
        <ele>1638.6851806641</ele>
        <time>2020-07-14T20:10:41.790Z</time>
      </trkpt>
      <trkpt lat="45.10539" lon="2.70312">
        <ele>1637.2335205078</ele>
        <time>2020-07-14T20:10:43.379Z</time>
      </trkpt>
      <trkpt lat="45.10539" lon="2.7032">
        <ele>1636.2736816406</ele>
        <time>2020-07-14T20:10:44.969Z</time>
      </trkpt>
      <trkpt lat="45.10539" lon="2.70326">
        <ele>1635.5537109375</ele>
        <time>2020-07-14T20:10:46.561Z</time>
      </trkpt>
      <trkpt lat="45.10539" lon="2.70331">
        <ele>1634.9538574219</ele>
        <time>2020-07-14T20:10:48.154Z</time>
      </trkpt>
      <trkpt lat="45.10541" lon="2.70337">
        <ele>1635.6419677734</ele>
        <time>2020-07-14T20:10:49.749Z</time>
      </trkpt>
      <trkpt lat="45.10543" lon="2.70343">
        <ele>1636.1458740234</ele>
        <time>2020-07-14T20:10:51.345Z</time>
      </trkpt>
      <trkpt lat="45.10544" lon="2.70348">
        <ele>1636.1546630859</ele>
        <time>2020-07-14T20:10:52.942Z</time>
      </trkpt>
      <trkpt lat="45.10548" lon="2.70352">
        <ele>1637.5463867188</ele>
        <time>2020-07-14T20:10:54.541Z</time>
      </trkpt>
      <trkpt lat="45.1055" lon="2.70356">
        <ele>1638.0502929688</ele>
        <time>2020-07-14T20:10:56.141Z</time>
      </trkpt>
      <trkpt lat="45.10553" lon="2.7036">
        <ele>1638.9981689453</ele>
        <time>2020-07-14T20:10:57.743Z</time>
      </trkpt>
      <trkpt lat="45.10556" lon="2.70364">
        <ele>1639.9460449219</ele>
        <time>2020-07-14T20:10:59.346Z</time>
      </trkpt>
      <trkpt lat="45.10564" lon="2.70375">
        <ele>1642.4416503906</ele>
        <time>2020-07-14T20:11:00.953Z</time>
      </trkpt>
      <trkpt lat="45.10565" lon="2.70378">
        <ele>1642.5975341797</ele>
        <time>2020-07-14T20:11:02.560Z</time>
      </trkpt>
      <trkpt lat="45.10567" lon="2.70384">
        <ele>1642.9095458984</ele>
        <time>2020-07-14T20:11:04.169Z</time>
      </trkpt>
      <trkpt lat="45.1057" lon="2.70389">
        <ele>1643.7613525391</ele>
        <time>2020-07-14T20:11:05.780Z</time>
      </trkpt>
      <trkpt lat="45.10571" lon="2.70393">
        <ele>1643.8214111328</ele>
        <time>2020-07-14T20:11:07.392Z</time>
      </trkpt>
      <trkpt lat="45.10575" lon="2.70406">
        <ele>1644.3492431641</ele>
        <time>2020-07-14T20:11:09.007Z</time>
      </trkpt>
      <trkpt lat="45.1058" lon="2.70416">
        <ele>1645.6091308594</ele>
        <time>2020-07-14T20:11:10.625Z</time>
      </trkpt>
      <trkpt lat="45.10583" lon="2.70425">
        <ele>1646.431640625</ele>
        <time>2020-07-14T20:11:12.245Z</time>
      </trkpt>
      <trkpt lat="45.10584" lon="2.70431">
        <ele>1646.7315673828</ele>
        <time>2020-07-14T20:11:13.867Z</time>
      </trkpt>
      <trkpt lat="45.10585" lon="2.70437">
        <ele>1647.0314941406</ele>
        <time>2020-07-14T20:11:15.490Z</time>
      </trkpt>
      <trkpt lat="45.10587" lon="2.70443">
        <ele>1647.775390625</ele>
        <time>2020-07-14T20:11:17.115Z</time>
      </trkpt>
      <trkpt lat="45.10587" lon="2.70447">
        <ele>1647.6793212891</ele>
        <time>2020-07-14T20:11:18.741Z</time>
      </trkpt>
      <trkpt lat="45.10587" lon="2.70453">
        <ele>1647.5354003906</ele>
        <time>2020-07-14T20:11:20.368Z</time>
      </trkpt>
      <trkpt lat="45.10586" lon="2.70458">
        <ele>1646.9714355469</ele>
        <time>2020-07-14T20:11:21.996Z</time>
      </trkpt>
      <trkpt lat="45.10585" lon="2.70468">
        <ele>1645.3671875</ele>
        <time>2020-07-14T20:11:23.627Z</time>
      </trkpt>
      <trkpt lat="45.10586" lon="2.7047">
        <ele>1645.619140625</ele>
        <time>2020-07-14T20:11:25.258Z</time>
      </trkpt>
      <trkpt lat="45.10586" lon="2.70478">
        <ele>1644.275390625</ele>
        <time>2020-07-14T20:11:26.891Z</time>
      </trkpt>
      <trkpt lat="45.10587" lon="2.70483">
        <ele>1644.0234375</ele>
        <time>2020-07-14T20:11:28.525Z</time>
      </trkpt>
      <trkpt lat="45.10588" lon="2.7049">
        <ele>1643.435546875</ele>
        <time>2020-07-14T20:11:30.161Z</time>
      </trkpt>
      <trkpt lat="45.10589" lon="2.70498">
        <ele>1642.6796875</ele>
        <time>2020-07-14T20:11:31.799Z</time>
      </trkpt>
      <trkpt lat="45.10589" lon="2.70507">
        <ele>1640.7385253906</ele>
        <time>2020-07-14T20:11:33.439Z</time>
      </trkpt>
      <trkpt lat="45.10588" lon="2.70509">
        <ele>1639.5748291016</ele>
        <time>2020-07-14T20:11:35.080Z</time>
      </trkpt>
      <trkpt lat="45.10588" lon="2.70513">
        <ele>1638.4229736328</ele>
        <time>2020-07-14T20:11:36.722Z</time>
      </trkpt>
      <trkpt lat="45.10587" lon="2.70517">
        <ele>1636.6832275391</ele>
        <time>2020-07-14T20:11:38.365Z</time>
      </trkpt>
      <trkpt lat="45.10587" lon="2.70521">
        <ele>1635.5314941406</ele>
        <time>2020-07-14T20:11:40.009Z</time>
      </trkpt>
      <trkpt lat="45.10587" lon="2.70527">
        <ele>1633.8037109375</ele>
        <time>2020-07-14T20:11:41.654Z</time>
      </trkpt>
      <trkpt lat="45.10587" lon="2.7053">
        <ele>1632.9399414062</ele>
        <time>2020-07-14T20:11:43.300Z</time>
      </trkpt>
      <trkpt lat="45.10585" lon="2.70537">
        <ele>1629.7484130859</ele>
        <time>2020-07-14T20:11:44.947Z</time>
      </trkpt>
      <trkpt lat="45.10585" lon="2.70541">
        <ele>1628.5965576172</ele>
        <time>2020-07-14T20:11:46.595Z</time>
      </trkpt>
      <trkpt lat="45.10585" lon="2.70549">
        <ele>1626.6326904297</ele>
        <time>2020-07-14T20:11:48.245Z</time>
      </trkpt>
      <trkpt lat="45.10585" lon="2.70557">
        <ele>1625.0009765625</ele>
        <time>2020-07-14T20:11:49.897Z</time>
      </trkpt>
      <trkpt lat="45.10586" lon="2.70569">
        <ele>1623.0573730469</ele>
        <time>2020-07-14T20:11:51.552Z</time>
      </trkpt>
      <trkpt lat="45.10587" lon="2.70576">
        <ele>1622.1335449219</ele>
        <time>2020-07-14T20:11:53.209Z</time>
      </trkpt>
      <trkpt lat="45.10588" lon="2.70579">
        <ele>1622.0255126953</ele>
        <time>2020-07-14T20:11:54.866Z</time>
      </trkpt>
      <trkpt lat="45.10589" lon="2.70584">
        <ele>1621.5096435547</ele>
        <time>2020-07-14T20:11:56.525Z</time>
      </trkpt>
      <trkpt lat="45.10595" lon="2.70594">
        <ele>1621.0185546875</ele>
        <time>2020-07-14T20:11:58.187Z</time>
      </trkpt>
      <trkpt lat="45.10597" lon="2.70597">
        <ele>1620.8024902344</ele>
        <time>2020-07-14T20:11:59.850Z</time>
      </trkpt>
      <trkpt lat="45.106" lon="2.706">
        <ele>1621.0904541016</ele>
        <time>2020-07-14T20:12:01.514Z</time>
      </trkpt>
      <trkpt lat="45.10602" lon="2.70602">
        <ele>1621.2824707031</ele>
        <time>2020-07-14T20:12:03.179Z</time>
      </trkpt>
      <trkpt lat="45.10605" lon="2.70606">
        <ele>1621.1624755859</ele>
        <time>2020-07-14T20:12:04.845Z</time>
      </trkpt>
      <trkpt lat="45.10606" lon="2.7061">
        <ele>1620.0346679688</ele>
        <time>2020-07-14T20:12:06.512Z</time>
      </trkpt>
      <trkpt lat="45.10608" lon="2.70621">
        <ele>1616.5552978516</ele>
        <time>2020-07-14T20:12:08.182Z</time>
      </trkpt>
      <trkpt lat="45.10609" lon="2.70624">
        <ele>1615.8353271484</ele>
        <time>2020-07-14T20:12:09.853Z</time>
      </trkpt>
      <trkpt lat="45.10611" lon="2.70627">
        <ele>1615.6193847656</ele>
        <time>2020-07-14T20:12:11.525Z</time>
      </trkpt>
      <trkpt lat="45.10617" lon="2.70637">
        <ele>1614.5635986328</ele>
        <time>2020-07-14T20:12:13.200Z</time>
      </trkpt>
      <trkpt lat="45.10621" lon="2.70639">
        <ele>1615.7634277344</ele>
        <time>2020-07-14T20:12:14.876Z</time>
      </trkpt>
      <trkpt lat="45.10623" lon="2.70642">
        <ele>1615.5473632812</ele>
        <time>2020-07-14T20:12:16.553Z</time>
      </trkpt>
      <trkpt lat="45.10626" lon="2.70643">
        <ele>1616.6512451172</ele>
        <time>2020-07-14T20:12:18.231Z</time>
      </trkpt>
      <trkpt lat="45.10631" lon="2.70646">
        <ele>1618.4995117188</ele>
        <time>2020-07-14T20:12:19.911Z</time>
      </trkpt>
      <trkpt lat="45.10639" lon="2.70652">
        <ele>1621.1390380859</ele>
        <time>2020-07-14T20:12:21.594Z</time>
      </trkpt>
      <trkpt lat="45.10641" lon="2.70655">
        <ele>1621.1870117188</ele>
        <time>2020-07-14T20:12:23.278Z</time>
      </trkpt>
      <trkpt lat="45.10644" lon="2.70659">
        <ele>1621.4630126953</ele>
        <time>2020-07-14T20:12:24.963Z</time>
      </trkpt>
      <trkpt lat="45.10647" lon="2.70662">
        <ele>1622.1468505859</ele>
        <time>2020-07-14T20:12:26.650Z</time>
      </trkpt>
      <trkpt lat="45.10651" lon="2.70664">
        <ele>1623.8745117188</ele>
        <time>2020-07-14T20:12:28.338Z</time>
      </trkpt>
      <trkpt lat="45.10653" lon="2.70666">
        <ele>1624.3304443359</ele>
        <time>2020-07-14T20:12:30.027Z</time>
      </trkpt>
      <trkpt lat="45.10654" lon="2.70669">
        <ele>1623.7425537109</ele>
        <time>2020-07-14T20:12:31.717Z</time>
      </trkpt>
      <trkpt lat="45.10656" lon="2.70673">
        <ele>1623.6594238281</ele>
        <time>2020-07-14T20:12:33.408Z</time>
      </trkpt>
      <trkpt lat="45.10658" lon="2.70676">
        <ele>1623.9953613281</ele>
        <time>2020-07-14T20:12:35.100Z</time>
      </trkpt>
      <trkpt lat="45.10661" lon="2.70678">
        <ele>1625.2791748047</ele>
        <time>2020-07-14T20:12:36.793Z</time>
      </trkpt>
      <trkpt lat="45.10665" lon="2.70679">
        <ele>1627.5108642578</ele>
        <time>2020-07-14T20:12:38.487Z</time>
      </trkpt>
      <trkpt lat="45.10667" lon="2.70682">
        <ele>1627.8468017578</ele>
        <time>2020-07-14T20:12:40.182Z</time>
      </trkpt>
      <trkpt lat="45.10668" lon="2.70686">
        <ele>1627.2348632812</ele>
        <time>2020-07-14T20:12:41.878Z</time>
      </trkpt>
      <trkpt lat="45.1067" lon="2.70688">
        <ele>1627.8828125</ele>
        <time>2020-07-14T20:12:43.575Z</time>
      </trkpt>
      <trkpt lat="45.10674" lon="2.70696">
        <ele>1627.9307861328</ele>
        <time>2020-07-14T20:12:45.274Z</time>
      </trkpt>
      <trkpt lat="45.10676" lon="2.70699">
        <ele>1628.2667236328</ele>
        <time>2020-07-14T20:12:46.974Z</time>
      </trkpt>
      <trkpt lat="45.10676" lon="2.70702">
        <ele>1627.3308105469</ele>
        <time>2020-07-14T20:12:48.675Z</time>
      </trkpt>
      <trkpt lat="45.10677" lon="2.70705">
        <ele>1627.0308837891</ele>
        <time>2020-07-14T20:12:50.377Z</time>
      </trkpt>
      <trkpt lat="45.10678" lon="2.70708">
        <ele>1626.7309570312</ele>
        <time>2020-07-14T20:12:52.080Z</time>
      </trkpt>
      <trkpt lat="45.10679" lon="2.70713">
        <ele>1625.8071289062</ele>
        <time>2020-07-14T20:12:53.784Z</time>
      </trkpt>
      <trkpt lat="45.1068" lon="2.70716">
        <ele>1625.5072021484</ele>
        <time>2020-07-14T20:12:55.489Z</time>
      </trkpt>
      <trkpt lat="45.10681" lon="2.70719">
        <ele>1625.2071533203</ele>
        <time>2020-07-14T20:12:57.194Z</time>
      </trkpt>
      <trkpt lat="45.10683" lon="2.70722">
        <ele>1625.5432128906</ele>
        <time>2020-07-14T20:12:58.900Z</time>
      </trkpt>
      <trkpt lat="45.10684" lon="2.70725">
        <ele>1625.2431640625</ele>
        <time>2020-07-14T20:13:00.607Z</time>
      </trkpt>
      <trkpt lat="45.10685" lon="2.7073">
        <ele>1624.4620361328</ele>
        <time>2020-07-14T20:13:02.315Z</time>
      </trkpt>
      <trkpt lat="45.10686" lon="2.70736">
        <ele>1623.6461181641</ele>
        <time>2020-07-14T20:13:04.025Z</time>
      </trkpt>
      <trkpt lat="45.10687" lon="2.70742">
        <ele>1622.8302001953</ele>
        <time>2020-07-14T20:13:05.736Z</time>
      </trkpt>
      <trkpt lat="45.10687" lon="2.70747">
        <ele>1621.6904296875</ele>
        <time>2020-07-14T20:13:07.448Z</time>
      </trkpt>
      <trkpt lat="45.10687" lon="2.7075">
        <ele>1621.0065917969</ele>
        <time>2020-07-14T20:13:09.161Z</time>
      </trkpt>
      <trkpt lat="45.10689" lon="2.70756">
        <ele>1621.2296142578</ele>
        <time>2020-07-14T20:13:10.876Z</time>
      </trkpt>
      <trkpt lat="45.10689" lon="2.70763">
        <ele>1620.9776611328</ele>
        <time>2020-07-14T20:13:12.592Z</time>
      </trkpt>
      <trkpt lat="45.1069" lon="2.70768">
        <ele>1621.349609375</ele>
        <time>2020-07-14T20:13:14.310Z</time>
      </trkpt>
      <trkpt lat="45.10692" lon="2.70774">
        <ele>1622.2374267578</ele>
        <time>2020-07-14T20:13:16.029Z</time>
      </trkpt>
      <trkpt lat="45.10693" lon="2.7078">
        <ele>1622.5733642578</ele>
        <time>2020-07-14T20:13:17.750Z</time>
      </trkpt>
      <trkpt lat="45.10693" lon="2.70785">
        <ele>1622.3934326172</ele>
        <time>2020-07-14T20:13:19.472Z</time>
      </trkpt>
      <trkpt lat="45.10695" lon="2.70794">
        <ele>1623.1732177734</ele>
        <time>2020-07-14T20:13:21.196Z</time>
      </trkpt>
      <trkpt lat="45.10695" lon="2.70797">
        <ele>1623.0653076172</ele>
        <time>2020-07-14T20:13:22.921Z</time>
      </trkpt>
      <trkpt lat="45.10694" lon="2.70801">
        <ele>1622.3693847656</ele>
        <time>2020-07-14T20:13:24.647Z</time>
      </trkpt>
      <trkpt lat="45.10689" lon="2.70813">
        <ele>1619.1779785156</ele>
        <time>2020-07-14T20:13:26.376Z</time>
      </trkpt>
      <trkpt lat="45.10689" lon="2.70818">
        <ele>1618.8569335938</ele>
        <time>2020-07-14T20:13:28.106Z</time>
      </trkpt>
      <trkpt lat="45.10689" lon="2.70822">
        <ele>1618.4730224609</ele>
        <time>2020-07-14T20:13:29.837Z</time>
      </trkpt>
      <trkpt lat="45.10689" lon="2.70824">
        <ele>1618.2810058594</ele>
        <time>2020-07-14T20:13:31.569Z</time>
      </trkpt>
      <trkpt lat="45.10693" lon="2.70835">
        <ele>1619.6728515625</ele>
        <time>2020-07-14T20:13:33.303Z</time>
      </trkpt>
      <trkpt lat="45.10696" lon="2.70842">
        <ele>1621.5837402344</ele>
        <time>2020-07-14T20:13:35.039Z</time>
      </trkpt>
      <trkpt lat="45.10698" lon="2.70846">
        <ele>1622.9995117188</ele>
        <time>2020-07-14T20:13:36.777Z</time>
      </trkpt>
      <trkpt lat="45.10699" lon="2.70849">
        <ele>1623.7553710938</ele>
        <time>2020-07-14T20:13:38.515Z</time>
      </trkpt>
      <trkpt lat="45.10698" lon="2.70855">
        <ele>1623.4315185547</ele>
        <time>2020-07-14T20:13:40.255Z</time>
      </trkpt>
      <trkpt lat="45.10697" lon="2.70861">
        <ele>1623.1075439453</ele>
        <time>2020-07-14T20:13:41.996Z</time>
      </trkpt>
      <trkpt lat="45.10697" lon="2.70864">
        <ele>1623.2514648438</ele>
        <time>2020-07-14T20:13:43.738Z</time>
      </trkpt>
      <trkpt lat="45.10696" lon="2.70869">
        <ele>1622.8795166016</ele>
        <time>2020-07-14T20:13:45.481Z</time>
      </trkpt>
      <trkpt lat="45.10695" lon="2.70873">
        <ele>1622.4595947266</ele>
        <time>2020-07-14T20:13:47.225Z</time>
      </trkpt>
      <trkpt lat="45.10694" lon="2.70877">
        <ele>1622.0396728516</ele>
        <time>2020-07-14T20:13:48.970Z</time>
      </trkpt>
      <trkpt lat="45.10691" lon="2.70881">
        <ele>1620.3959960938</ele>
        <time>2020-07-14T20:13:50.717Z</time>
      </trkpt>
      <trkpt lat="45.10688" lon="2.70885">
        <ele>1618.7521972656</ele>
        <time>2020-07-14T20:13:52.465Z</time>
      </trkpt>
      <trkpt lat="45.10687" lon="2.70889">
        <ele>1618.3322753906</ele>
        <time>2020-07-14T20:13:54.214Z</time>
      </trkpt>
      <trkpt lat="45.10683" lon="2.70903">
        <ele>1616.1965332031</ele>
        <time>2020-07-14T20:13:55.967Z</time>
      </trkpt>
      <trkpt lat="45.10677" lon="2.70916">
        <ele>1612.4652099609</ele>
        <time>2020-07-14T20:13:57.723Z</time>
      </trkpt>
      <trkpt lat="45.10672" lon="2.70924">
        <ele>1608.9528808594</ele>
        <time>2020-07-14T20:13:59.482Z</time>
      </trkpt>
      <trkpt lat="45.10671" lon="2.70927">
        <ele>1608.0529785156</ele>
        <time>2020-07-14T20:14:01.241Z</time>
      </trkpt>
      <trkpt lat="45.10671" lon="2.70931">
        <ele>1607.7170410156</ele>
        <time>2020-07-14T20:14:03.001Z</time>
      </trkpt>
      <trkpt lat="45.10672" lon="2.70937">
        <ele>1607.8610839844</ele>
        <time>2020-07-14T20:14:04.763Z</time>
      </trkpt>
      <trkpt lat="45.1068" lon="2.70952">
        <ele>1611.7844238281</ele>
        <time>2020-07-14T20:14:06.529Z</time>
      </trkpt>
      <trkpt lat="45.10685" lon="2.70962">
        <ele>1614.1839599609</ele>
        <time>2020-07-14T20:14:08.298Z</time>
      </trkpt>
      <trkpt lat="45.10687" lon="2.70976">
        <ele>1614.3039550781</ele>
        <time>2020-07-14T20:14:10.071Z</time>
      </trkpt>
      <trkpt lat="45.10688" lon="2.70983">
        <ele>1614.4633789062</ele>
        <time>2020-07-14T20:14:11.845Z</time>
      </trkpt>
      <trkpt lat="45.10691" lon="2.70989">
        <ele>1616.0831298828</ele>
        <time>2020-07-14T20:14:13.621Z</time>
      </trkpt>
      <trkpt lat="45.10692" lon="2.70992">
        <ele>1616.5989990234</ele>
        <time>2020-07-14T20:14:15.398Z</time>
      </trkpt>
      <trkpt lat="45.10691" lon="2.70996">
        <ele>1615.9151611328</ele>
        <time>2020-07-14T20:14:17.176Z</time>
      </trkpt>
      <trkpt lat="45.10689" lon="2.7101">
        <ele>1614.9488525391</ele>
        <time>2020-07-14T20:14:18.957Z</time>
      </trkpt>
      <trkpt lat="45.1069" lon="2.71016">
        <ele>1615.8967285156</ele>
        <time>2020-07-14T20:14:20.740Z</time>
      </trkpt>
      <trkpt lat="45.10689" lon="2.7102">
        <ele>1615.5487060547</ele>
        <time>2020-07-14T20:14:22.524Z</time>
      </trkpt>
      <trkpt lat="45.10687" lon="2.71024">
        <ele>1614.6129150391</ele>
        <time>2020-07-14T20:14:24.309Z</time>
      </trkpt>
      <trkpt lat="45.10684" lon="2.7104">
        <ele>1613.8090820312</ele>
        <time>2020-07-14T20:14:26.098Z</time>
      </trkpt>
      <trkpt lat="45.10684" lon="2.71045">
        <ele>1614.1090087891</ele>
        <time>2020-07-14T20:14:27.888Z</time>
      </trkpt>
      <trkpt lat="45.10682" lon="2.71048">
        <ele>1613.1131591797</ele>
        <time>2020-07-14T20:14:29.679Z</time>
      </trkpt>
      <trkpt lat="45.10679" lon="2.71052">
        <ele>1611.5894775391</ele>
        <time>2020-07-14T20:14:31.471Z</time>
      </trkpt>
      <trkpt lat="45.10677" lon="2.71058">
        <ele>1611.0837402344</ele>
        <time>2020-07-14T20:14:33.265Z</time>
      </trkpt>
      <trkpt lat="45.10674" lon="2.71063">
        <ele>1610.1959228516</ele>
        <time>2020-07-14T20:14:35.060Z</time>
      </trkpt>
      <trkpt lat="45.1066" lon="2.71074">
        <ele>1604.4249267578</ele>
        <time>2020-07-14T20:14:36.861Z</time>
      </trkpt>
      <trkpt lat="45.10656" lon="2.71078">
        <ele>1602.8891601562</ele>
        <time>2020-07-14T20:14:38.663Z</time>
      </trkpt>
      <trkpt lat="45.10646" lon="2.71094">
        <ele>1600.2705078125</ele>
        <time>2020-07-14T20:14:40.470Z</time>
      </trkpt>
      <trkpt lat="45.10636" lon="2.71104">
        <ele>1598.0817871094</ele>
        <time>2020-07-14T20:14:42.281Z</time>
      </trkpt>
      <trkpt lat="45.10622" lon="2.71112">
        <ele>1594.9516601562</ele>
        <time>2020-07-14T20:14:44.097Z</time>
      </trkpt>
      <trkpt lat="45.10617" lon="2.71115">
        <ele>1593.6439208984</ele>
        <time>2020-07-14T20:14:45.915Z</time>
      </trkpt>
      <trkpt lat="45.10612" lon="2.71121">
        <ele>1593.3079833984</ele>
        <time>2020-07-14T20:14:47.735Z</time>
      </trkpt>
      <trkpt lat="45.10608" lon="2.71121">
        <ele>1591.4842529297</ele>
        <time>2020-07-14T20:14:49.557Z</time>
      </trkpt>
      <trkpt lat="45.10604" lon="2.71124">
        <ele>1590.6324462891</ele>
        <time>2020-07-14T20:14:51.380Z</time>
      </trkpt>
      <trkpt lat="45.10602" lon="2.71129">
        <ele>1591.3403320312</ele>
        <time>2020-07-14T20:14:53.205Z</time>
      </trkpt>
      <trkpt lat="45.10599" lon="2.71132">
        <ele>1590.9443359375</ele>
        <time>2020-07-14T20:14:55.031Z</time>
      </trkpt>
      <trkpt lat="45.10593" lon="2.71139">
        <ele>1590.3823242188</ele>
        <time>2020-07-14T20:14:56.859Z</time>
      </trkpt>
      <trkpt lat="45.10589" lon="2.71145">
        <ele>1590.1423339844</ele>
        <time>2020-07-14T20:14:58.689Z</time>
      </trkpt>
      <trkpt lat="45.10586" lon="2.71164">
        <ele>1594.1376953125</ele>
        <time>2020-07-14T20:15:00.524Z</time>
      </trkpt>
      <trkpt lat="45.10584" lon="2.71171">
        <ele>1595.1214599609</ele>
        <time>2020-07-14T20:15:02.361Z</time>
      </trkpt>
      <trkpt lat="45.1058" lon="2.71176">
        <ele>1594.2937011719</ele>
        <time>2020-07-14T20:15:04.200Z</time>
      </trkpt>
      <trkpt lat="45.1058" lon="2.71181">
        <ele>1595.4334716797</ele>
        <time>2020-07-14T20:15:06.040Z</time>
      </trkpt>
      <trkpt lat="45.10579" lon="2.71184">
        <ele>1595.6253662109</ele>
        <time>2020-07-14T20:15:07.881Z</time>
      </trkpt>
      <trkpt lat="45.10575" lon="2.71187">
        <ele>1594.3416748047</ele>
        <time>2020-07-14T20:15:09.723Z</time>
      </trkpt>
      <trkpt lat="45.10573" lon="2.71189">
        <ele>1593.8137207031</ele>
        <time>2020-07-14T20:15:11.566Z</time>
      </trkpt>
      <trkpt lat="45.1057" lon="2.71197">
        <ele>1594.1552734375</ele>
        <time>2020-07-14T20:15:13.411Z</time>
      </trkpt>
      <trkpt lat="45.10565" lon="2.71203">
        <ele>1592.7994384766</ele>
        <time>2020-07-14T20:15:15.258Z</time>
      </trkpt>
      <trkpt lat="45.10561" lon="2.71207">
        <ele>1591.5516357422</ele>
        <time>2020-07-14T20:15:17.107Z</time>
      </trkpt>
      <trkpt lat="45.10558" lon="2.71208">
        <ele>1590.2078857422</ele>
        <time>2020-07-14T20:15:18.957Z</time>
      </trkpt>
      <trkpt lat="45.10552" lon="2.7121">
        <ele>1587.5203857422</ele>
        <time>2020-07-14T20:15:20.809Z</time>
      </trkpt>
      <trkpt lat="45.1055" lon="2.71212">
        <ele>1586.896484375</ele>
        <time>2020-07-14T20:15:22.662Z</time>
      </trkpt>
      <trkpt lat="45.10547" lon="2.71216">
        <ele>1586.1645507812</ele>
        <time>2020-07-14T20:15:24.516Z</time>
      </trkpt>
      <trkpt lat="45.10546" lon="2.71224">
        <ele>1587.2803955078</ele>
        <time>2020-07-14T20:15:26.372Z</time>
      </trkpt>
      <trkpt lat="45.10539" lon="2.71238">
        <ele>1586.2565917969</ele>
        <time>2020-07-14T20:15:28.232Z</time>
      </trkpt>
      <trkpt lat="45.10535" lon="2.71248">
        <ele>1585.9575195312</ele>
        <time>2020-07-14T20:15:30.095Z</time>
      </trkpt>
      <trkpt lat="45.10533" lon="2.71255">
        <ele>1585.9686279297</ele>
        <time>2020-07-14T20:15:31.960Z</time>
      </trkpt>
      <trkpt lat="45.10529" lon="2.71263">
        <ele>1584.2888183594</ele>
        <time>2020-07-14T20:15:33.827Z</time>
      </trkpt>
      <trkpt lat="45.10527" lon="2.7127">
        <ele>1583.7009277344</ele>
        <time>2020-07-14T20:15:35.696Z</time>
      </trkpt>
      <trkpt lat="45.10524" lon="2.71276">
        <ele>1582.4411621094</ele>
        <time>2020-07-14T20:15:37.566Z</time>
      </trkpt>
      <trkpt lat="45.1052" lon="2.71279">
        <ele>1580.3415527344</ele>
        <time>2020-07-14T20:15:39.438Z</time>
      </trkpt>
      <trkpt lat="45.10512" lon="2.71289">
        <ele>1576.4781494141</ele>
        <time>2020-07-14T20:15:41.313Z</time>
      </trkpt>
      <trkpt lat="45.10508" lon="2.71294">
        <ele>1574.5465087891</ele>
        <time>2020-07-14T20:15:43.190Z</time>
      </trkpt>
      <trkpt lat="45.10504" lon="2.71305">
        <ele>1574.6633300781</ele>
        <time>2020-07-14T20:15:45.070Z</time>
      </trkpt>
      <trkpt lat="45.10501" lon="2.71308">
        <ele>1574.3754882812</ele>
        <time>2020-07-14T20:15:46.951Z</time>
      </trkpt>
      <trkpt lat="45.10492" lon="2.71314">
        <ele>1572.6477050781</ele>
        <time>2020-07-14T20:15:48.836Z</time>
      </trkpt>
      <trkpt lat="45.10475" lon="2.71323">
        <ele>1568.7124023438</ele>
        <time>2020-07-14T20:15:50.727Z</time>
      </trkpt>
      <trkpt lat="45.10469" lon="2.71324">
        <ele>1566.6966552734</ele>
        <time>2020-07-14T20:15:52.620Z</time>
      </trkpt>
      <trkpt lat="45.10452" lon="2.71328">
        <ele>1561.029296875</ele>
        <time>2020-07-14T20:15:54.519Z</time>
      </trkpt>
      <trkpt lat="45.10445" lon="2.7133">
        <ele>1558.0736083984</ele>
        <time>2020-07-14T20:15:56.420Z</time>
      </trkpt>
      <trkpt lat="45.10442" lon="2.71333">
        <ele>1557.2457275391</ele>
        <time>2020-07-14T20:15:58.322Z</time>
      </trkpt>
      <trkpt lat="45.1044" lon="2.71336">
        <ele>1556.9097900391</ele>
        <time>2020-07-14T20:16:00.225Z</time>
      </trkpt>
      <trkpt lat="45.1044" lon="2.71342">
        <ele>1557.2866210938</ele>
        <time>2020-07-14T20:16:02.130Z</time>
      </trkpt>
      <trkpt lat="45.10437" lon="2.71351">
        <ele>1556.134765625</ele>
        <time>2020-07-14T20:16:04.037Z</time>
      </trkpt>
      <trkpt lat="45.10436" lon="2.7136">
        <ele>1555.966796875</ele>
        <time>2020-07-14T20:16:05.946Z</time>
      </trkpt>
      <trkpt lat="45.10436" lon="2.71367">
        <ele>1556.21875</ele>
        <time>2020-07-14T20:16:07.857Z</time>
      </trkpt>
      <trkpt lat="45.10436" lon="2.71373">
        <ele>1556.4346923828</ele>
        <time>2020-07-14T20:16:09.769Z</time>
      </trkpt>
      <trkpt lat="45.10437" lon="2.71402">
        <ele>1558.1461181641</ele>
        <time>2020-07-14T20:16:11.688Z</time>
      </trkpt>
      <trkpt lat="45.10438" lon="2.71418">
        <ele>1559.7537841797</ele>
        <time>2020-07-14T20:16:13.611Z</time>
      </trkpt>
      <trkpt lat="45.10438" lon="2.71426">
        <ele>1558.3950195312</ele>
        <time>2020-07-14T20:16:15.536Z</time>
      </trkpt>
      <trkpt lat="45.10442" lon="2.71441">
        <ele>1556.2593994141</ele>
        <time>2020-07-14T20:16:17.464Z</time>
      </trkpt>
      <trkpt lat="45.10441" lon="2.71454">
        <ele>1552.3719482422</ele>
        <time>2020-07-14T20:16:19.395Z</time>
      </trkpt>
      <trkpt lat="45.1044" lon="2.71468">
        <ele>1548.220703125</ele>
        <time>2020-07-14T20:16:21.330Z</time>
      </trkpt>
      <trkpt lat="45.10436" lon="2.7148">
        <ele>1543.3697509766</ele>
        <time>2020-07-14T20:16:23.268Z</time>
      </trkpt>
      <trkpt lat="45.10436" lon="2.71479">
        <ele>1543.4934082031</ele>
        <time>2020-07-14T20:16:25.206Z</time>
      </trkpt>
      <trkpt lat="45.10436" lon="2.7148">
        <ele>1543.3697509766</ele>
        <time>2020-07-14T20:16:27.144Z</time>
      </trkpt>
      <trkpt lat="45.10425" lon="2.71522">
        <ele>1532.8637695312</ele>
        <time>2020-07-14T20:16:29.093Z</time>
      </trkpt>
      <trkpt lat="45.10418" lon="2.71543">
        <ele>1521.9455566406</ele>
        <time>2020-07-14T20:16:31.047Z</time>
      </trkpt>
      <trkpt lat="45.10413" lon="2.71551">
        <ele>1521.6323242188</ele>
        <time>2020-07-14T20:16:33.004Z</time>
      </trkpt>
      <trkpt lat="45.10409" lon="2.71558">
        <ele>1521.8963623047</ele>
        <time>2020-07-14T20:16:34.963Z</time>
      </trkpt>
      <trkpt lat="45.10406" lon="2.71567">
        <ele>1521.8243408203</ele>
        <time>2020-07-14T20:16:36.924Z</time>
      </trkpt>
      <trkpt lat="45.10399" lon="2.71585">
        <ele>1521.8723144531</ele>
        <time>2020-07-14T20:16:38.890Z</time>
      </trkpt>
      <trkpt lat="45.10395" lon="2.71594">
        <ele>1519.8732910156</ele>
        <time>2020-07-14T20:16:40.859Z</time>
      </trkpt>
      <trkpt lat="45.10386" lon="2.716">
        <ele>1519.7376708984</ele>
        <time>2020-07-14T20:16:42.831Z</time>
      </trkpt>
      <trkpt lat="45.10359" lon="2.71614">
        <ele>1517.4652099609</ele>
        <time>2020-07-14T20:16:44.813Z</time>
      </trkpt>
      <trkpt lat="45.1033" lon="2.71632">
        <ele>1513.3049316406</ele>
        <time>2020-07-14T20:16:46.805Z</time>
      </trkpt>
      <trkpt lat="45.10315" lon="2.7164">
        <ele>1517.0961914062</ele>
        <time>2020-07-14T20:16:48.803Z</time>
      </trkpt>
      <trkpt lat="45.10307" lon="2.71646">
        <ele>1519.1599121094</ele>
        <time>2020-07-14T20:16:50.804Z</time>
      </trkpt>
      <trkpt lat="45.10312" lon="2.71658">
        <ele>1518.248046875</ele>
        <time>2020-07-14T20:16:52.808Z</time>
      </trkpt>
      <trkpt lat="45.10324" lon="2.71676">
        <ele>1513.5367431641</ele>
        <time>2020-07-14T20:16:54.818Z</time>
      </trkpt>
      <trkpt lat="45.10334" lon="2.7169">
        <ele>1505.9300537109</ele>
        <time>2020-07-14T20:16:56.832Z</time>
      </trkpt>
      <trkpt lat="45.10347" lon="2.71706">
        <ele>1496.8594970703</ele>
        <time>2020-07-14T20:16:58.852Z</time>
      </trkpt>
      <trkpt lat="45.10351" lon="2.7171">
        <ele>1494.4119873047</ele>
        <time>2020-07-14T20:17:00.874Z</time>
      </trkpt>
      <trkpt lat="45.10359" lon="2.71711">
        <ele>1492.1203613281</ele>
        <time>2020-07-14T20:17:02.899Z</time>
      </trkpt>
      <trkpt lat="45.10362" lon="2.7171">
        <ele>1491.7723388672</ele>
        <time>2020-07-14T20:17:04.925Z</time>
      </trkpt>
      <trkpt lat="45.10364" lon="2.71707">
        <ele>1492.4083251953</ele>
        <time>2020-07-14T20:17:06.952Z</time>
      </trkpt>
      <trkpt lat="45.10369" lon="2.71706">
        <ele>1491.5804443359</ele>
        <time>2020-07-14T20:17:08.980Z</time>
      </trkpt>
      <trkpt lat="45.10372" lon="2.71704">
        <ele>1491.6043701172</ele>
        <time>2020-07-14T20:17:11.009Z</time>
      </trkpt>
      <trkpt lat="45.10382" lon="2.717">
        <ele>1490.3162841797</ele>
        <time>2020-07-14T20:17:13.042Z</time>
      </trkpt>
      <trkpt lat="45.10389" lon="2.71694">
        <ele>1490.3642578125</ele>
        <time>2020-07-14T20:17:15.078Z</time>
      </trkpt>
      <trkpt lat="45.10398" lon="2.71682">
        <ele>1492.2481689453</ele>
        <time>2020-07-14T20:17:17.118Z</time>
      </trkpt>
      <trkpt lat="45.10404" lon="2.71681">
        <ele>1490.9163818359</ele>
        <time>2020-07-14T20:17:19.160Z</time>
      </trkpt>
      <trkpt lat="45.10416" lon="2.71682">
        <ele>1487.0650634766</ele>
        <time>2020-07-14T20:17:21.206Z</time>
      </trkpt>
      <trkpt lat="45.1042" lon="2.7168">
        <ele>1486.705078125</ele>
        <time>2020-07-14T20:17:23.253Z</time>
      </trkpt>
      <trkpt lat="45.10425" lon="2.71678">
        <ele>1486.0572509766</ele>
        <time>2020-07-14T20:17:25.302Z</time>
      </trkpt>
      <trkpt lat="45.10438" lon="2.71678">
        <ele>1482.3138427734</ele>
        <time>2020-07-14T20:17:27.355Z</time>
      </trkpt>
      <trkpt lat="45.10444" lon="2.71681">
        <ele>1479.3983154297</ele>
        <time>2020-07-14T20:17:29.410Z</time>
      </trkpt>
      <trkpt lat="45.10456" lon="2.7168">
        <ele>1476.3388671875</ele>
        <time>2020-07-14T20:17:31.469Z</time>
      </trkpt>
      <trkpt lat="45.10474" lon="2.71684">
        <ele>1471.7427978516</ele>
        <time>2020-07-14T20:17:33.534Z</time>
      </trkpt>
      <trkpt lat="45.1048" lon="2.71688">
        <ele>1469.4392089844</ele>
        <time>2020-07-14T20:17:35.602Z</time>
      </trkpt>
      <trkpt lat="45.10482" lon="2.71691">
        <ele>1467.9514160156</ele>
        <time>2020-07-14T20:17:37.671Z</time>
      </trkpt>
      <trkpt lat="45.10483" lon="2.71693">
        <ele>1466.9915771484</ele>
        <time>2020-07-14T20:17:39.740Z</time>
      </trkpt>
      <trkpt lat="45.10475" lon="2.7171">
        <ele>1461.3106689453</ele>
        <time>2020-07-14T20:17:41.814Z</time>
      </trkpt>
      <trkpt lat="45.10465" lon="2.71729">
        <ele>1455.1076660156</ele>
        <time>2020-07-14T20:17:43.894Z</time>
      </trkpt>
      <trkpt lat="45.10464" lon="2.71735">
        <ele>1452.8640136719</ele>
        <time>2020-07-14T20:17:45.975Z</time>
      </trkpt>
      <trkpt lat="45.10465" lon="2.71747">
        <ele>1447.9808349609</ele>
        <time>2020-07-14T20:17:48.059Z</time>
      </trkpt>
      <trkpt lat="45.10466" lon="2.71753">
        <ele>1445.4732666016</ele>
        <time>2020-07-14T20:17:50.144Z</time>
      </trkpt>
      <trkpt lat="45.10466" lon="2.71758">
        <ele>1442.8120117188</ele>
        <time>2020-07-14T20:17:52.230Z</time>
      </trkpt>
      <trkpt lat="45.10467" lon="2.71766">
        <ele>1439.7138671875</ele>
        <time>2020-07-14T20:17:54.318Z</time>
      </trkpt>
      <trkpt lat="45.10471" lon="2.71775">
        <ele>1435.5385742188</ele>
        <time>2020-07-14T20:17:56.409Z</time>
      </trkpt>
      <trkpt lat="45.10475" lon="2.71781">
        <ele>1432.2270507812</ele>
        <time>2020-07-14T20:17:58.502Z</time>
      </trkpt>
      <trkpt lat="45.10475" lon="2.71786">
        <ele>1430.7873535156</ele>
        <time>2020-07-14T20:18:00.596Z</time>
      </trkpt>
      <trkpt lat="45.10475" lon="2.71789">
        <ele>1429.9234619141</ele>
        <time>2020-07-14T20:18:02.691Z</time>
      </trkpt>
      <trkpt lat="45.1048" lon="2.71789">
        <ele>1427.9437255859</ele>
        <time>2020-07-14T20:18:04.787Z</time>
      </trkpt>
      <trkpt lat="45.10483" lon="2.71786">
        <ele>1427.6198730469</ele>
        <time>2020-07-14T20:18:06.885Z</time>
      </trkpt>
      <trkpt lat="45.10484" lon="2.71781">
        <ele>1428.6636962891</ele>
        <time>2020-07-14T20:18:08.984Z</time>
      </trkpt>
      <trkpt lat="45.10485" lon="2.71778">
        <ele>1429.2662353516</ele>
        <time>2020-07-14T20:18:11.084Z</time>
      </trkpt>
      <trkpt lat="45.1049" lon="2.71777">
        <ele>1429.1583251953</ele>
        <time>2020-07-14T20:18:13.185Z</time>
      </trkpt>
      <trkpt lat="45.10497" lon="2.71776">
        <ele>1428.7863769531</ele>
        <time>2020-07-14T20:18:15.289Z</time>
      </trkpt>
      <trkpt lat="45.10499" lon="2.71782">
        <ele>1425.2109375</ele>
        <time>2020-07-14T20:18:17.394Z</time>
      </trkpt>
      <trkpt lat="45.10498" lon="2.71791">
        <ele>1420.3757324219</ele>
        <time>2020-07-14T20:18:19.501Z</time>
      </trkpt>
      <trkpt lat="45.10496" lon="2.71817">
        <ele>1413.5461425781</ele>
        <time>2020-07-14T20:18:21.615Z</time>
      </trkpt>
      <trkpt lat="45.10494" lon="2.71841">
        <ele>1407.2823486328</ele>
        <time>2020-07-14T20:18:23.734Z</time>
      </trkpt>
      <trkpt lat="45.1049" lon="2.71856">
        <ele>1404.0069580078</ele>
        <time>2020-07-14T20:18:25.857Z</time>
      </trkpt>
      <trkpt lat="45.1049" lon="2.71862">
        <ele>1402.0632324219</ele>
        <time>2020-07-14T20:18:27.981Z</time>
      </trkpt>
      <trkpt lat="45.10491" lon="2.71869">
        <ele>1399.3175048828</ele>
        <time>2020-07-14T20:18:30.107Z</time>
      </trkpt>
      <trkpt lat="45.10492" lon="2.71874">
        <ele>1397.0137939453</ele>
        <time>2020-07-14T20:18:32.234Z</time>
      </trkpt>
      <trkpt lat="45.10492" lon="2.71878">
        <ele>1395.4300537109</ele>
        <time>2020-07-14T20:18:34.362Z</time>
      </trkpt>
      <trkpt lat="45.10491" lon="2.71882">
        <ele>1394.1702880859</ele>
        <time>2020-07-14T20:18:36.491Z</time>
      </trkpt>
      <trkpt lat="45.10491" lon="2.71885">
        <ele>1392.9825439453</ele>
        <time>2020-07-14T20:18:38.621Z</time>
      </trkpt>
      <trkpt lat="45.10492" lon="2.71885">
        <ele>1392.6585693359</ele>
        <time>2020-07-14T20:18:40.751Z</time>
      </trkpt>
      <trkpt lat="45.10494" lon="2.71888">
        <ele>1390.8228759766</ele>
        <time>2020-07-14T20:18:42.882Z</time>
      </trkpt>
      <trkpt lat="45.10494" lon="2.71891">
        <ele>1389.6351318359</ele>
        <time>2020-07-14T20:18:45.014Z</time>
      </trkpt>
      <trkpt lat="45.10492" lon="2.71897">
        <ele>1387.9073486328</ele>
        <time>2020-07-14T20:18:47.148Z</time>
      </trkpt>
      <trkpt lat="45.10492" lon="2.71901">
        <ele>1386.3236083984</ele>
        <time>2020-07-14T20:18:49.283Z</time>
      </trkpt>
      <trkpt lat="45.10496" lon="2.71903">
        <ele>1384.2359619141</ele>
        <time>2020-07-14T20:18:51.419Z</time>
      </trkpt>
      <trkpt lat="45.10508" lon="2.71911">
        <ele>1377.1811523438</ele>
        <time>2020-07-14T20:18:53.559Z</time>
      </trkpt>
      <trkpt lat="45.10509" lon="2.71916">
        <ele>1374.8775634766</ele>
        <time>2020-07-14T20:18:55.701Z</time>
      </trkpt>
      <trkpt lat="45.1051" lon="2.71928">
        <ele>1371.0916748047</ele>
        <time>2020-07-14T20:18:57.845Z</time>
      </trkpt>
      <trkpt lat="45.10509" lon="2.71933">
        <ele>1370.2758789062</ele>
        <time>2020-07-14T20:18:59.991Z</time>
      </trkpt>
      <trkpt lat="45.1051" lon="2.71937">
        <ele>1369.0400390625</ele>
        <time>2020-07-14T20:19:02.138Z</time>
      </trkpt>
      <trkpt lat="45.10511" lon="2.7194">
        <ele>1368.0322265625</ele>
        <time>2020-07-14T20:19:04.285Z</time>
      </trkpt>
      <trkpt lat="45.1051" lon="2.71946">
        <ele>1366.9884033203</ele>
        <time>2020-07-14T20:19:06.434Z</time>
      </trkpt>
      <trkpt lat="45.1051" lon="2.7195">
        <ele>1366.0765380859</ele>
        <time>2020-07-14T20:19:08.584Z</time>
      </trkpt>
      <trkpt lat="45.10511" lon="2.71952">
        <ele>1365.2966308594</ele>
        <time>2020-07-14T20:19:10.734Z</time>
      </trkpt>
      <trkpt lat="45.10513" lon="2.71954">
        <ele>1364.1928710938</ele>
        <time>2020-07-14T20:19:12.885Z</time>
      </trkpt>
      <trkpt lat="45.10517" lon="2.71953">
        <ele>1363.125</ele>
        <time>2020-07-14T20:19:15.038Z</time>
      </trkpt>
      <trkpt lat="45.10521" lon="2.71952">
        <ele>1362.0572509766</ele>
        <time>2020-07-14T20:19:17.192Z</time>
      </trkpt>
      <trkpt lat="45.10536" lon="2.71957">
        <ele>1356.0582275391</ele>
        <time>2020-07-14T20:19:19.351Z</time>
      </trkpt>
      <trkpt lat="45.10539" lon="2.71961">
        <ele>1354.1745605469</ele>
        <time>2020-07-14T20:19:21.511Z</time>
      </trkpt>
      <trkpt lat="45.10542" lon="2.71965">
        <ele>1352.2907714844</ele>
        <time>2020-07-14T20:19:23.673Z</time>
      </trkpt>
      <trkpt lat="45.10541" lon="2.71971">
        <ele>1351.2469482422</ele>
        <time>2020-07-14T20:19:25.836Z</time>
      </trkpt>
      <trkpt lat="45.10544" lon="2.71974">
        <ele>1349.6807861328</ele>
        <time>2020-07-14T20:19:28.001Z</time>
      </trkpt>
      <trkpt lat="45.10545" lon="2.71976">
        <ele>1349.0689697266</ele>
        <time>2020-07-14T20:19:30.166Z</time>
      </trkpt>
      <trkpt lat="45.10548" lon="2.71979">
        <ele>1347.9171142578</ele>
        <time>2020-07-14T20:19:32.332Z</time>
      </trkpt>
      <trkpt lat="45.10552" lon="2.71982">
        <ele>1346.609375</ele>
        <time>2020-07-14T20:19:34.500Z</time>
      </trkpt>
      <trkpt lat="45.10558" lon="2.71984">
        <ele>1345.2175292969</ele>
        <time>2020-07-14T20:19:36.670Z</time>
      </trkpt>
      <trkpt lat="45.10562" lon="2.71988">
        <ele>1343.6817626953</ele>
        <time>2020-07-14T20:19:38.842Z</time>
      </trkpt>
      <trkpt lat="45.10567" lon="2.71991">
        <ele>1342.2180175781</ele>
        <time>2020-07-14T20:19:41.015Z</time>
      </trkpt>
      <trkpt lat="45.10572" lon="2.71995">
        <ele>1340.5263671875</ele>
        <time>2020-07-14T20:19:43.190Z</time>
      </trkpt>
      <trkpt lat="45.10576" lon="2.72">
        <ele>1338.7626953125</ele>
        <time>2020-07-14T20:19:45.367Z</time>
      </trkpt>
      <trkpt lat="45.10582" lon="2.72006">
        <ele>1336.3472900391</ele>
        <time>2020-07-14T20:19:47.547Z</time>
      </trkpt>
      <trkpt lat="45.10588" lon="2.72012">
        <ele>1333.7557373047</ele>
        <time>2020-07-14T20:19:49.729Z</time>
      </trkpt>
      <trkpt lat="45.10593" lon="2.72016">
        <ele>1331.8720703125</ele>
        <time>2020-07-14T20:19:51.913Z</time>
      </trkpt>
      <trkpt lat="45.10596" lon="2.72022">
        <ele>1329.7484130859</ele>
        <time>2020-07-14T20:19:54.099Z</time>
      </trkpt>
      <trkpt lat="45.10599" lon="2.7203">
        <ele>1327.0728759766</ele>
        <time>2020-07-14T20:19:56.287Z</time>
      </trkpt>
      <trkpt lat="45.10603" lon="2.72035">
        <ele>1325.0692138672</ele>
        <time>2020-07-14T20:19:58.477Z</time>
      </trkpt>
      <trkpt lat="45.10607" lon="2.72043">
        <ele>1322.2376708984</ele>
        <time>2020-07-14T20:20:00.669Z</time>
      </trkpt>
      <trkpt lat="45.10611" lon="2.7205">
        <ele>1319.6820068359</ele>
        <time>2020-07-14T20:20:02.863Z</time>
      </trkpt>
      <trkpt lat="45.10614" lon="2.72055">
        <ele>1317.8343505859</ele>
        <time>2020-07-14T20:20:05.059Z</time>
      </trkpt>
      <trkpt lat="45.1062" lon="2.72057">
        <ele>1316.3465576172</ele>
        <time>2020-07-14T20:20:07.257Z</time>
      </trkpt>
      <trkpt lat="45.10623" lon="2.72062">
        <ele>1314.4989013672</ele>
        <time>2020-07-14T20:20:09.456Z</time>
      </trkpt>
      <trkpt lat="45.10624" lon="2.72067">
        <ele>1312.9631347656</ele>
        <time>2020-07-14T20:20:11.656Z</time>
      </trkpt>
      <trkpt lat="45.10627" lon="2.72072">
        <ele>1311.1556396484</ele>
        <time>2020-07-14T20:20:13.858Z</time>
      </trkpt>
      <trkpt lat="45.10629" lon="2.72078">
        <ele>1309.6198730469</ele>
        <time>2020-07-14T20:20:16.061Z</time>
      </trkpt>
      <trkpt lat="45.10631" lon="2.72085">
        <ele>1307.8082275391</ele>
        <time>2020-07-14T20:20:18.266Z</time>
      </trkpt>
      <trkpt lat="45.10637" lon="2.72099">
        <ele>1304.5201416016</ele>
        <time>2020-07-14T20:20:20.475Z</time>
      </trkpt>
      <trkpt lat="45.10646" lon="2.72114">
        <ele>1301.640625</ele>
        <time>2020-07-14T20:20:22.689Z</time>
      </trkpt>
      <trkpt lat="45.10648" lon="2.72121">
        <ele>1300.4288330078</ele>
        <time>2020-07-14T20:20:24.905Z</time>
      </trkpt>
      <trkpt lat="45.10652" lon="2.7213">
        <ele>1298.78515625</ele>
        <time>2020-07-14T20:20:27.123Z</time>
      </trkpt>
      <trkpt lat="45.10658" lon="2.72138">
        <ele>1297.1773681641</ele>
        <time>2020-07-14T20:20:29.344Z</time>
      </trkpt>
      <trkpt lat="45.10663" lon="2.7215">
        <ele>1295.0057373047</ele>
        <time>2020-07-14T20:20:31.568Z</time>
      </trkpt>
      <trkpt lat="45.10666" lon="2.72161">
        <ele>1293.1101074219</ele>
        <time>2020-07-14T20:20:33.795Z</time>
      </trkpt>
      <trkpt lat="45.10668" lon="2.72171">
        <ele>1291.3923339844</ele>
        <time>2020-07-14T20:20:36.024Z</time>
      </trkpt>
      <trkpt lat="45.10666" lon="2.72174">
        <ele>1290.8643798828</ele>
        <time>2020-07-14T20:20:38.254Z</time>
      </trkpt>
      <trkpt lat="45.10664" lon="2.7218">
        <ele>1289.6885986328</ele>
        <time>2020-07-14T20:20:40.486Z</time>
      </trkpt>
      <trkpt lat="45.10663" lon="2.72183">
        <ele>1289.1007080078</ele>
        <time>2020-07-14T20:20:42.719Z</time>
      </trkpt>
      <trkpt lat="45.10663" lon="2.72185">
        <ele>1288.6688232422</ele>
        <time>2020-07-14T20:20:44.952Z</time>
      </trkpt>
      <trkpt lat="45.10663" lon="2.72187">
        <ele>1288.2368164062</ele>
        <time>2020-07-14T20:20:47.186Z</time>
      </trkpt>
      <trkpt lat="45.10665" lon="2.72191">
        <ele>1287.2530517578</ele>
        <time>2020-07-14T20:20:49.421Z</time>
      </trkpt>
      <trkpt lat="45.10666" lon="2.72198">
        <ele>1285.6812744141</ele>
        <time>2020-07-14T20:20:51.657Z</time>
      </trkpt>
      <trkpt lat="45.10666" lon="2.72204">
        <ele>1284.3854980469</ele>
        <time>2020-07-14T20:20:53.895Z</time>
      </trkpt>
      <trkpt lat="45.10667" lon="2.72208">
        <ele>1283.4616699219</ele>
        <time>2020-07-14T20:20:56.134Z</time>
      </trkpt>
      <trkpt lat="45.1067" lon="2.72212">
        <ele>1282.4178466797</ele>
        <time>2020-07-14T20:20:58.374Z</time>
      </trkpt>
      <trkpt lat="45.10671" lon="2.72217">
        <ele>1281.5129394531</ele>
        <time>2020-07-14T20:21:00.615Z</time>
      </trkpt>
      <trkpt lat="45.10672" lon="2.7223">
        <ele>1279.7972412109</ele>
        <time>2020-07-14T20:21:02.860Z</time>
      </trkpt>
      <trkpt lat="45.10681" lon="2.7227">
        <ele>1272.0310058594</ele>
        <time>2020-07-14T20:21:05.114Z</time>
      </trkpt>
      <trkpt lat="45.10681" lon="2.72279">
        <ele>1270.0874023438</ele>
        <time>2020-07-14T20:21:07.371Z</time>
      </trkpt>
      <trkpt lat="45.1068" lon="2.723">
        <ele>1265.7081298828</ele>
        <time>2020-07-14T20:21:09.633Z</time>
      </trkpt>
      <trkpt lat="45.1068" lon="2.72308">
        <ele>1264.1257324219</ele>
        <time>2020-07-14T20:21:11.896Z</time>
      </trkpt>
      <trkpt lat="45.10683" lon="2.72318">
        <ele>1262.4219970703</ele>
        <time>2020-07-14T20:21:14.162Z</time>
      </trkpt>
      <trkpt lat="45.10688" lon="2.72329">
        <ele>1260.0583496094</ele>
        <time>2020-07-14T20:21:16.431Z</time>
      </trkpt>
      <trkpt lat="45.10693" lon="2.72343">
        <ele>1257.5140380859</ele>
        <time>2020-07-14T20:21:18.704Z</time>
      </trkpt>
      <trkpt lat="45.10698" lon="2.72352">
        <ele>1255.4263916016</ele>
        <time>2020-07-14T20:21:20.979Z</time>
      </trkpt>
      <trkpt lat="45.10706" lon="2.72361">
        <ele>1252.4748535156</ele>
        <time>2020-07-14T20:21:23.258Z</time>
      </trkpt>
      <trkpt lat="45.10723" lon="2.72375">
        <ele>1248.8824462891</ele>
        <time>2020-07-14T20:21:25.543Z</time>
      </trkpt>
      <trkpt lat="45.10731" lon="2.72386">
        <ele>1247.2266845703</ele>
        <time>2020-07-14T20:21:27.832Z</time>
      </trkpt>
      <trkpt lat="45.10737" lon="2.72395">
        <ele>1245.9309082031</ele>
        <time>2020-07-14T20:21:30.124Z</time>
      </trkpt>
      <trkpt lat="45.10746" lon="2.72408">
        <ele>1244.0233154297</ele>
        <time>2020-07-14T20:21:32.420Z</time>
      </trkpt>
      <trkpt lat="45.10767" lon="2.72436">
        <ele>1239.5528564453</ele>
        <time>2020-07-14T20:21:34.726Z</time>
      </trkpt>
      <trkpt lat="45.10779" lon="2.72445">
        <ele>1237.5012207031</ele>
        <time>2020-07-14T20:21:37.037Z</time>
      </trkpt>
      <trkpt lat="45.10788" lon="2.72459">
        <ele>1235.3536376953</ele>
        <time>2020-07-14T20:21:39.352Z</time>
      </trkpt>
      <trkpt lat="45.10804" lon="2.72475">
        <ele>1232.2821044922</ele>
        <time>2020-07-14T20:21:41.674Z</time>
      </trkpt>
      <trkpt lat="45.10819" lon="2.72484">
        <ele>1229.9064941406</ele>
        <time>2020-07-14T20:21:44.001Z</time>
      </trkpt>
      <trkpt lat="45.10829" lon="2.72488">
        <ele>1228.4907226562</ele>
        <time>2020-07-14T20:21:46.331Z</time>
      </trkpt>
      <trkpt lat="45.10834" lon="2.72489">
        <ele>1227.8668212891</ele>
        <time>2020-07-14T20:21:48.663Z</time>
      </trkpt>
      <trkpt lat="45.1084" lon="2.72491">
        <ele>1227.0510253906</ele>
        <time>2020-07-14T20:21:50.997Z</time>
      </trkpt>
      <trkpt lat="45.10848" lon="2.72494">
        <ele>1225.9351806641</ele>
        <time>2020-07-14T20:21:53.334Z</time>
      </trkpt>
      <trkpt lat="45.10853" lon="2.72497">
        <ele>1225.1433105469</ele>
        <time>2020-07-14T20:21:55.673Z</time>
      </trkpt>
      <trkpt lat="45.10857" lon="2.72501">
        <ele>1224.3754882812</ele>
        <time>2020-07-14T20:21:58.013Z</time>
      </trkpt>
      <trkpt lat="45.10861" lon="2.72504">
        <ele>1223.6856689453</ele>
        <time>2020-07-14T20:22:00.355Z</time>
      </trkpt>
      <trkpt lat="45.1087" lon="2.7251">
        <ele>1222.0659179688</ele>
        <time>2020-07-14T20:22:02.700Z</time>
      </trkpt>
      <trkpt lat="45.1088" lon="2.72521">
        <ele>1219.8737792969</ele>
        <time>2020-07-14T20:22:05.049Z</time>
      </trkpt>
      <trkpt lat="45.10884" lon="2.72524">
        <ele>1219.2138671875</ele>
        <time>2020-07-14T20:22:07.400Z</time>
      </trkpt>
      <trkpt lat="45.10887" lon="2.72526">
        <ele>1218.7459716797</ele>
        <time>2020-07-14T20:22:09.752Z</time>
      </trkpt>
      <trkpt lat="45.10897" lon="2.72526">
        <ele>1217.9061279297</ele>
        <time>2020-07-14T20:22:12.107Z</time>
      </trkpt>
      <trkpt lat="45.10913" lon="2.72525">
        <ele>1217.7427978516</ele>
        <time>2020-07-14T20:22:14.468Z</time>
      </trkpt>
      <trkpt lat="45.10919" lon="2.72526">
        <ele>1217.4908447266</ele>
        <time>2020-07-14T20:22:16.831Z</time>
      </trkpt>
      <trkpt lat="45.10922" lon="2.72528">
        <ele>1217.0949707031</ele>
        <time>2020-07-14T20:22:19.195Z</time>
      </trkpt>
      <trkpt lat="45.10922" lon="2.72531">
        <ele>1216.5550537109</ele>
        <time>2020-07-14T20:22:21.560Z</time>
      </trkpt>
      <trkpt lat="45.10923" lon="2.72535">
        <ele>1215.8231201172</ele>
        <time>2020-07-14T20:22:23.926Z</time>
      </trkpt>
      <trkpt lat="45.10925" lon="2.72541">
        <ele>1214.7193603516</ele>
        <time>2020-07-14T20:22:26.293Z</time>
      </trkpt>
      <trkpt lat="45.10929" lon="2.72544">
        <ele>1214.1314697266</ele>
        <time>2020-07-14T20:22:28.662Z</time>
      </trkpt>
      <trkpt lat="45.10932" lon="2.72546">
        <ele>1213.7354736328</ele>
        <time>2020-07-14T20:22:31.032Z</time>
      </trkpt>
      <trkpt lat="45.10934" lon="2.72547">
        <ele>1213.5314941406</ele>
        <time>2020-07-14T20:22:33.402Z</time>
      </trkpt>
      <trkpt lat="45.10938" lon="2.72547">
        <ele>1213.4835205078</ele>
        <time>2020-07-14T20:22:35.774Z</time>
      </trkpt>
      <trkpt lat="45.1094" lon="2.72549">
        <ele>1213.099609375</ele>
        <time>2020-07-14T20:22:38.147Z</time>
      </trkpt>
      <trkpt lat="45.10943" lon="2.72552">
        <ele>1212.5236816406</ele>
        <time>2020-07-14T20:22:40.521Z</time>
      </trkpt>
      <trkpt lat="45.10948" lon="2.72557">
        <ele>1211.5638427734</ele>
        <time>2020-07-14T20:22:42.897Z</time>
      </trkpt>
      <trkpt lat="45.10951" lon="2.72561">
        <ele>1210.8079833984</ele>
        <time>2020-07-14T20:22:45.274Z</time>
      </trkpt>
      <trkpt lat="45.10957" lon="2.72565">
        <ele>1210.0161132812</ele>
        <time>2020-07-14T20:22:47.653Z</time>
      </trkpt>
      <trkpt lat="45.10981" lon="2.72572">
        <ele>1207.2208251953</ele>
        <time>2020-07-14T20:22:50.041Z</time>
      </trkpt>
      <trkpt lat="45.11014" lon="2.72584">
        <ele>1202.685546875</ele>
        <time>2020-07-14T20:22:52.440Z</time>
      </trkpt>
      <trkpt lat="45.11057" lon="2.726">
        <ele>1197.7052001953</ele>
        <time>2020-07-14T20:22:54.854Z</time>
      </trkpt>
      <trkpt lat="45.11083" lon="2.7261">
        <ele>1196.6734619141</ele>
        <time>2020-07-14T20:22:57.277Z</time>
      </trkpt>
      <trkpt lat="45.11089" lon="2.72619">
        <ele>1194.9096679688</ele>
        <time>2020-07-14T20:22:59.703Z</time>
      </trkpt>
      <trkpt lat="45.11095" lon="2.72623">
        <ele>1194.2857666016</ele>
        <time>2020-07-14T20:23:02.131Z</time>
      </trkpt>
      <trkpt lat="45.11103" lon="2.72625">
        <ele>1194.2138671875</ele>
        <time>2020-07-14T20:23:04.562Z</time>
      </trkpt>
      <trkpt lat="45.11122" lon="2.72624">
        <ele>1195.3536376953</ele>
        <time>2020-07-14T20:23:06.999Z</time>
      </trkpt>
      <trkpt lat="45.11124" lon="2.72626">
        <ele>1194.9936523438</ele>
        <time>2020-07-14T20:23:09.437Z</time>
      </trkpt>
      <trkpt lat="45.11123" lon="2.7263">
        <ele>1194.0338134766</ele>
        <time>2020-07-14T20:23:11.876Z</time>
      </trkpt>
      <trkpt lat="45.11124" lon="2.72626">
        <ele>1194.9936523438</ele>
        <time>2020-07-14T20:23:14.316Z</time>
      </trkpt>
      <trkpt lat="45.11132" lon="2.72629">
        <ele>1194.0202636719</ele>
        <time>2020-07-14T20:23:16.759Z</time>
      </trkpt>
      <trkpt lat="45.11142" lon="2.72634">
        <ele>1192.0406494141</ele>
        <time>2020-07-14T20:23:19.205Z</time>
      </trkpt>
      <trkpt lat="45.11149" lon="2.72636">
        <ele>1190.9968261719</ele>
        <time>2020-07-14T20:23:21.653Z</time>
      </trkpt>
      <trkpt lat="45.11156" lon="2.72638">
        <ele>1189.9530029297</ele>
        <time>2020-07-14T20:23:24.104Z</time>
      </trkpt>
      <trkpt lat="45.11164" lon="2.72642">
        <ele>1188.3692626953</ele>
        <time>2020-07-14T20:23:26.558Z</time>
      </trkpt>
      <trkpt lat="45.11171" lon="2.72642">
        <ele>1187.7813720703</ele>
        <time>2020-07-14T20:23:29.014Z</time>
      </trkpt>
      <trkpt lat="45.11174" lon="2.72641">
        <ele>1187.7573242188</ele>
        <time>2020-07-14T20:23:31.471Z</time>
      </trkpt>
      <trkpt lat="45.11174" lon="2.7264">
        <ele>1187.9853515625</ele>
        <time>2020-07-14T20:23:33.928Z</time>
      </trkpt>
      <trkpt lat="45.11191" lon="2.72644">
        <ele>1185.6457519531</ele>
        <time>2020-07-14T20:23:36.391Z</time>
      </trkpt>
      <trkpt lat="45.11211" lon="2.7265">
        <ele>1182.7250976562</ele>
        <time>2020-07-14T20:23:38.861Z</time>
      </trkpt>
      <trkpt lat="45.11232" lon="2.72654">
        <ele>1183.5769042969</ele>
        <time>2020-07-14T20:23:41.338Z</time>
      </trkpt>
      <trkpt lat="45.11262" lon="2.72663">
        <ele>1184.044921875</ele>
        <time>2020-07-14T20:23:43.825Z</time>
      </trkpt>
      <trkpt lat="45.11282" lon="2.72671">
        <ele>1183.9273681641</ele>
        <time>2020-07-14T20:23:46.319Z</time>
      </trkpt>
      <trkpt lat="45.11299" lon="2.7268">
        <ele>1183.5406494141</ele>
        <time>2020-07-14T20:23:48.819Z</time>
      </trkpt>
      <trkpt lat="45.11305" lon="2.72687">
        <ele>1182.5688476562</ele>
        <time>2020-07-14T20:23:51.322Z</time>
      </trkpt>
      <trkpt lat="45.11316" lon="2.72703">
        <ele>1180.2172851562</ele>
        <time>2020-07-14T20:23:53.830Z</time>
      </trkpt>
      <trkpt lat="45.11333" lon="2.72725">
        <ele>1177.0737304688</ele>
        <time>2020-07-14T20:23:56.346Z</time>
      </trkpt>
      <trkpt lat="45.1135" lon="2.72741">
        <ele>1175.0101318359</ele>
        <time>2020-07-14T20:23:58.868Z</time>
      </trkpt>
      <trkpt lat="45.11369" lon="2.72756">
        <ele>1173.328125</ele>
        <time>2020-07-14T20:24:01.398Z</time>
      </trkpt>
      <trkpt lat="45.11399" lon="2.72771">
        <ele>1173.2593994141</ele>
        <time>2020-07-14T20:24:03.938Z</time>
      </trkpt>
      <trkpt lat="45.11423" lon="2.72781">
        <ele>1173.4992675781</ele>
        <time>2020-07-14T20:24:06.487Z</time>
      </trkpt>
      <trkpt lat="45.11427" lon="2.72783">
        <ele>1173.4992675781</ele>
        <time>2020-07-14T20:24:09.037Z</time>
      </trkpt>
      <trkpt lat="45.11427" lon="2.72784">
        <ele>1173.3793945312</ele>
        <time>2020-07-14T20:24:11.587Z</time>
      </trkpt>
      <trkpt lat="45.11429" lon="2.72785">
        <ele>1173.3793945312</ele>
        <time>2020-07-14T20:24:14.138Z</time>
      </trkpt>
      <trkpt lat="45.1144" lon="2.72809">
        <ele>1171.1596679688</ele>
        <time>2020-07-14T20:24:16.696Z</time>
      </trkpt>
      <trkpt lat="45.11457" lon="2.72839">
        <ele>1168.5852050781</ele>
        <time>2020-07-14T20:24:19.263Z</time>
      </trkpt>
      <trkpt lat="45.11472" lon="2.72859">
        <ele>1167.3237304688</ele>
        <time>2020-07-14T20:24:21.837Z</time>
      </trkpt>
      <trkpt lat="45.11481" lon="2.72874">
        <ele>1166.2080078125</ele>
        <time>2020-07-14T20:24:24.415Z</time>
      </trkpt>
      <trkpt lat="45.11495" lon="2.72884">
        <ele>1165.7520751953</ele>
        <time>2020-07-14T20:24:26.999Z</time>
      </trkpt>
      <trkpt lat="45.11508" lon="2.72892">
        <ele>1165.4520263672</ele>
        <time>2020-07-14T20:24:29.587Z</time>
      </trkpt>
      <trkpt lat="45.1153" lon="2.729">
        <ele>1165.640625</ele>
        <time>2020-07-14T20:24:32.183Z</time>
      </trkpt>
      <trkpt lat="45.11549" lon="2.7291">
        <ele>1165.6450195312</ele>
        <time>2020-07-14T20:24:34.786Z</time>
      </trkpt>
      <trkpt lat="45.11573" lon="2.72925">
        <ele>1165.46484375</ele>
        <time>2020-07-14T20:24:37.397Z</time>
      </trkpt>
      <trkpt lat="45.11576" lon="2.72928">
        <ele>1165.2489013672</ele>
        <time>2020-07-14T20:24:40.010Z</time>
      </trkpt>
      <trkpt lat="45.11579" lon="2.72936">
        <ele>1164.3129882812</ele>
        <time>2020-07-14T20:24:42.625Z</time>
      </trkpt>
      <trkpt lat="45.1158" lon="2.72941">
        <ele>1163.6651611328</ele>
        <time>2020-07-14T20:24:45.241Z</time>
      </trkpt>
      <trkpt lat="45.11581" lon="2.72946">
        <ele>1163.0172119141</ele>
        <time>2020-07-14T20:24:47.858Z</time>
      </trkpt>
      <trkpt lat="45.11594" lon="2.7295">
        <ele>1163.3771972656</ele>
        <time>2020-07-14T20:24:50.480Z</time>
      </trkpt>
      <trkpt lat="45.11597" lon="2.72951">
        <ele>1163.44921875</ele>
        <time>2020-07-14T20:24:53.103Z</time>
      </trkpt>
      <trkpt lat="45.11602" lon="2.72952">
        <ele>1163.6651611328</ele>
        <time>2020-07-14T20:24:55.727Z</time>
      </trkpt>
      <trkpt lat="45.11607" lon="2.72956">
        <ele>1163.44921875</ele>
        <time>2020-07-14T20:24:58.353Z</time>
      </trkpt>
      <trkpt lat="45.11613" lon="2.72963">
        <ele>1162.8732910156</ele>
        <time>2020-07-14T20:25:00.982Z</time>
      </trkpt>
      <trkpt lat="45.11622" lon="2.72973">
        <ele>1162.0814208984</ele>
        <time>2020-07-14T20:25:03.615Z</time>
      </trkpt>
      <trkpt lat="45.1163" lon="2.72978">
        <ele>1162.1547851562</ele>
        <time>2020-07-14T20:25:06.251Z</time>
      </trkpt>
      <trkpt lat="45.11631" lon="2.72981">
        <ele>1161.8668212891</ele>
        <time>2020-07-14T20:25:08.887Z</time>
      </trkpt>
      <trkpt lat="45.11635" lon="2.72986">
        <ele>1161.7229003906</ele>
        <time>2020-07-14T20:25:11.525Z</time>
      </trkpt>
      <trkpt lat="45.1164" lon="2.72995">
        <ele>1161.1469726562</ele>
        <time>2020-07-14T20:25:14.166Z</time>
      </trkpt>
      <trkpt lat="45.11645" lon="2.73006">
        <ele>1160.2830810547</ele>
        <time>2020-07-14T20:25:16.810Z</time>
      </trkpt>
      <trkpt lat="45.11649" lon="2.73011">
        <ele>1160.1391601562</ele>
        <time>2020-07-14T20:25:19.456Z</time>
      </trkpt>
      <trkpt lat="45.11654" lon="2.73015">
        <ele>1160.2830810547</ele>
        <time>2020-07-14T20:25:22.104Z</time>
      </trkpt>
      <trkpt lat="45.1166" lon="2.73017">
        <ele>1160.8590087891</ele>
        <time>2020-07-14T20:25:24.754Z</time>
      </trkpt>
      <trkpt lat="45.11669" lon="2.73019">
        <ele>1161.8668212891</ele>
        <time>2020-07-14T20:25:27.407Z</time>
      </trkpt>
      <trkpt lat="45.11671" lon="2.73022">
        <ele>1161.7229003906</ele>
        <time>2020-07-14T20:25:30.061Z</time>
      </trkpt>
      <trkpt lat="45.11672" lon="2.73023">
        <ele>1161.7229003906</ele>
        <time>2020-07-14T20:25:32.715Z</time>
      </trkpt>
      <trkpt lat="45.11674" lon="2.73025">
        <ele>1161.7229003906</ele>
        <time>2020-07-14T20:25:35.370Z</time>
      </trkpt>
      <trkpt lat="45.1168" lon="2.73043">
        <ele>1159.9951171875</ele>
        <time>2020-07-14T20:25:38.030Z</time>
      </trkpt>
      <trkpt lat="45.11689" lon="2.73057">
        <ele>1159.2752685547</ele>
        <time>2020-07-14T20:25:40.694Z</time>
      </trkpt>
      <trkpt lat="45.11701" lon="2.73072">
        <ele>1158.8433837891</ele>
        <time>2020-07-14T20:25:43.363Z</time>
      </trkpt>
      <trkpt lat="45.1172" lon="2.73095">
        <ele>1158.2896728516</ele>
        <time>2020-07-14T20:25:46.041Z</time>
      </trkpt>
      <trkpt lat="45.1174" lon="2.73124">
        <ele>1157.0573730469</ele>
        <time>2020-07-14T20:25:48.728Z</time>
      </trkpt>
      <trkpt lat="45.11755" lon="2.73155">
        <ele>1154.9456787109</ele>
        <time>2020-07-14T20:25:51.424Z</time>
      </trkpt>
      <trkpt lat="45.11772" lon="2.73179">
        <ele>1154.0218505859</ele>
        <time>2020-07-14T20:25:54.128Z</time>
      </trkpt>
      <trkpt lat="45.11802" lon="2.73211">
        <ele>1153.9576416016</ele>
        <time>2020-07-14T20:25:56.845Z</time>
      </trkpt>
      <trkpt lat="45.11813" lon="2.73222">
        <ele>1154.2215576172</ele>
        <time>2020-07-14T20:25:59.566Z</time>
      </trkpt>
      <trkpt lat="45.11815" lon="2.73224">
        <ele>1154.2696533203</ele>
        <time>2020-07-14T20:26:02.288Z</time>
      </trkpt>
      <trkpt lat="45.11828" lon="2.73239">
        <ele>1154.3176269531</ele>
        <time>2020-07-14T20:26:05.016Z</time>
      </trkpt>
      <trkpt lat="45.11837" lon="2.73252">
        <ele>1154.0056152344</ele>
        <time>2020-07-14T20:26:07.748Z</time>
      </trkpt>
      <trkpt lat="45.1184" lon="2.73257">
        <ele>1153.7387695312</ele>
        <time>2020-07-14T20:26:10.482Z</time>
      </trkpt>
      <trkpt lat="45.11841" lon="2.73256">
        <ele>1154.05078125</ele>
        <time>2020-07-14T20:26:13.216Z</time>
      </trkpt>
      <trkpt lat="45.1184" lon="2.73257">
        <ele>1153.7387695312</ele>
        <time>2020-07-14T20:26:15.950Z</time>
      </trkpt>
      <trkpt lat="45.11854" lon="2.73286">
        <ele>1151.3991699219</ele>
        <time>2020-07-14T20:26:18.693Z</time>
      </trkpt>
      <trkpt lat="45.11868" lon="2.73325">
        <ele>1147.4998779297</ele>
        <time>2020-07-14T20:26:21.446Z</time>
      </trkpt>
      <trkpt lat="45.1188" lon="2.73351">
        <ele>1144.958984375</ele>
        <time>2020-07-14T20:26:24.206Z</time>
      </trkpt>
      <trkpt lat="45.1189" lon="2.73362">
        <ele>1143.6031494141</ele>
        <time>2020-07-14T20:26:26.971Z</time>
      </trkpt>
      <trkpt lat="45.11902" lon="2.73371">
        <ele>1142.6313476562</ele>
        <time>2020-07-14T20:26:29.740Z</time>
      </trkpt>
      <trkpt lat="45.11909" lon="2.73378">
        <ele>1141.7915039062</ele>
        <time>2020-07-14T20:26:32.512Z</time>
      </trkpt>
      <trkpt lat="45.11914" lon="2.73386">
        <ele>1140.7236328125</ele>
        <time>2020-07-14T20:26:35.286Z</time>
      </trkpt>
      <trkpt lat="45.1192" lon="2.734">
        <ele>1138.7559814453</ele>
        <time>2020-07-14T20:26:38.064Z</time>
      </trkpt>
      <trkpt lat="45.11924" lon="2.73411">
        <ele>1137.1842041016</ele>
        <time>2020-07-14T20:26:40.845Z</time>
      </trkpt>
      <trkpt lat="45.11929" lon="2.73421">
        <ele>1135.7943115234</ele>
        <time>2020-07-14T20:26:43.629Z</time>
      </trkpt>
      <trkpt lat="45.11935" lon="2.73431">
        <ele>1134.2105712891</ele>
        <time>2020-07-14T20:26:46.416Z</time>
      </trkpt>
      <trkpt lat="45.11956" lon="2.73452">
        <ele>1131.1870117188</ele>
        <time>2020-07-14T20:26:49.212Z</time>
      </trkpt>
      <trkpt lat="45.11981" lon="2.73477">
        <ele>1130.5578613281</ele>
        <time>2020-07-14T20:26:52.018Z</time>
      </trkpt>
      <trkpt lat="45.12017" lon="2.73516">
        <ele>1129.4383544922</ele>
        <time>2020-07-14T20:26:54.839Z</time>
      </trkpt>
      <trkpt lat="45.12032" lon="2.7354">
        <ele>1126.6667480469</ele>
        <time>2020-07-14T20:26:57.668Z</time>
      </trkpt>
      <trkpt lat="45.12037" lon="2.73543">
        <ele>1126.8828125</ele>
        <time>2020-07-14T20:27:00.498Z</time>
      </trkpt>
      <trkpt lat="45.12057" lon="2.73556">
        <ele>1127.1999511719</ele>
        <time>2020-07-14T20:27:03.336Z</time>
      </trkpt>
      <trkpt lat="45.12082" lon="2.73574">
        <ele>1126.9959716797</ele>
        <time>2020-07-14T20:27:06.183Z</time>
      </trkpt>
      <trkpt lat="45.12111" lon="2.73606">
        <ele>1125.1232910156</ele>
        <time>2020-07-14T20:27:09.042Z</time>
      </trkpt>
      <trkpt lat="45.12145" lon="2.73633">
        <ele>1122.9849853516</ele>
        <time>2020-07-14T20:27:11.914Z</time>
      </trkpt>
      <trkpt lat="45.12166" lon="2.7365">
        <ele>1120.1773681641</ele>
        <time>2020-07-14T20:27:14.795Z</time>
      </trkpt>
      <trkpt lat="45.12188" lon="2.73668">
        <ele>1117.2019042969</ele>
        <time>2020-07-14T20:27:17.684Z</time>
      </trkpt>
      <trkpt lat="45.12203" lon="2.73675">
        <ele>1116.4376220703</ele>
        <time>2020-07-14T20:27:20.578Z</time>
      </trkpt>
      <trkpt lat="45.12214" lon="2.73684">
        <ele>1115.5977783203</ele>
        <time>2020-07-14T20:27:23.476Z</time>
      </trkpt>
      <trkpt lat="45.12218" lon="2.73688">
        <ele>1115.2138671875</ele>
        <time>2020-07-14T20:27:26.376Z</time>
      </trkpt>
      <trkpt lat="45.12241" lon="2.7371">
        <ele>1113.1142578125</ele>
        <time>2020-07-14T20:27:29.285Z</time>
      </trkpt>
      <trkpt lat="45.12252" lon="2.73717">
        <ele>1112.4903564453</ele>
        <time>2020-07-14T20:27:32.198Z</time>
      </trkpt>
      <trkpt lat="45.1226" lon="2.73719">
        <ele>1112.3703613281</ele>
        <time>2020-07-14T20:27:35.114Z</time>
      </trkpt>
      <trkpt lat="45.12301" lon="2.73733">
        <ele>1111.6981201172</ele>
        <time>2020-07-14T20:27:38.044Z</time>
      </trkpt>
      <trkpt lat="45.12314" lon="2.73737">
        <ele>1112.0460205078</ele>
        <time>2020-07-14T20:27:40.979Z</time>
      </trkpt>
      <trkpt lat="45.1232" lon="2.73738">
        <ele>1112.2979736328</ele>
        <time>2020-07-14T20:27:43.916Z</time>
      </trkpt>
      <trkpt lat="45.12329" lon="2.73739">
        <ele>1112.7298583984</ele>
        <time>2020-07-14T20:27:46.856Z</time>
      </trkpt>
      <trkpt lat="45.12333" lon="2.7374">
        <ele>1112.8618164062</ele>
        <time>2020-07-14T20:27:49.797Z</time>
      </trkpt>
      <trkpt lat="45.12341" lon="2.73744">
        <ele>1112.9099121094</ele>
        <time>2020-07-14T20:27:52.741Z</time>
      </trkpt>
      <trkpt lat="45.12352" lon="2.73755">
        <ele>1112.3819580078</ele>
        <time>2020-07-14T20:27:55.689Z</time>
      </trkpt>
      <trkpt lat="45.12374" lon="2.7377">
        <ele>1112.08203125</ele>
        <time>2020-07-14T20:27:58.645Z</time>
      </trkpt>
      <trkpt lat="45.12406" lon="2.73795">
        <ele>1111.3021240234</ele>
        <time>2020-07-14T20:28:01.614Z</time>
      </trkpt>
      <trkpt lat="45.12429" lon="2.73806">
        <ele>1111.494140625</ele>
        <time>2020-07-14T20:28:04.591Z</time>
      </trkpt>
      <trkpt lat="45.12439" lon="2.73808">
        <ele>1112.4437255859</ele>
        <time>2020-07-14T20:28:07.571Z</time>
      </trkpt>
      <trkpt lat="45.12447" lon="2.73811">
        <ele>1112.9595947266</ele>
        <time>2020-07-14T20:28:10.554Z</time>
      </trkpt>
      <trkpt lat="45.12456" lon="2.73813">
        <ele>1113.7874755859</ele>
        <time>2020-07-14T20:28:13.540Z</time>
      </trkpt>
      <trkpt lat="45.1246" lon="2.73817">
        <ele>1113.5954589844</ele>
        <time>2020-07-14T20:28:16.528Z</time>
      </trkpt>
      <trkpt lat="45.12499" lon="2.73866">
        <ele>1109.9240722656</ele>
        <time>2020-07-14T20:28:19.533Z</time>
      </trkpt>
      <trkpt lat="45.12521" lon="2.73886">
        <ele>1109.2281494141</ele>
        <time>2020-07-14T20:28:22.547Z</time>
      </trkpt>
      <trkpt lat="45.12553" lon="2.73908">
        <ele>1109.1610107422</ele>
        <time>2020-07-14T20:28:25.573Z</time>
      </trkpt>
      <trkpt lat="45.12552" lon="2.739">
        <ele>1110.5047607422</ele>
        <time>2020-07-14T20:28:28.600Z</time>
      </trkpt>
      <trkpt lat="45.12553" lon="2.73896">
        <ele>1111.3206787109</ele>
        <time>2020-07-14T20:28:31.628Z</time>
      </trkpt>
      <trkpt lat="45.12555" lon="2.73892">
        <ele>1112.2325439453</ele>
        <time>2020-07-14T20:28:34.658Z</time>
      </trkpt>
      <trkpt lat="45.12571" lon="2.73869">
        <ele>1117.9075927734</ele>
        <time>2020-07-14T20:28:37.695Z</time>
      </trkpt>
      <trkpt lat="45.12574" lon="2.73857">
        <ele>1121.4901123047</ele>
        <time>2020-07-14T20:28:40.735Z</time>
      </trkpt>
      <trkpt lat="45.12575" lon="2.7385">
        <ele>1123.7097167969</ele>
        <time>2020-07-14T20:28:43.777Z</time>
      </trkpt>
      <trkpt lat="45.12577" lon="2.73845">
        <ele>1125.5573730469</ele>
        <time>2020-07-14T20:28:46.820Z</time>
      </trkpt>
      <trkpt lat="45.12579" lon="2.73842">
        <ele>1126.8292236328</ele>
        <time>2020-07-14T20:28:49.864Z</time>
      </trkpt>
      <trkpt lat="45.12585" lon="2.7384">
        <ele>1128.62890625</ele>
        <time>2020-07-14T20:28:52.910Z</time>
      </trkpt>
      <trkpt lat="45.1261" lon="2.73835">
        <ele>1135.1955566406</ele>
        <time>2020-07-14T20:28:55.965Z</time>
      </trkpt>
      <trkpt lat="45.12618" lon="2.73836">
        <ele>1136.52734375</ele>
        <time>2020-07-14T20:28:59.022Z</time>
      </trkpt>
      <trkpt lat="45.12622" lon="2.73836">
        <ele>1137.3431396484</ele>
        <time>2020-07-14T20:29:02.081Z</time>
      </trkpt>
      <trkpt lat="45.12648" lon="2.73839">
        <ele>1141.4354248047</ele>
        <time>2020-07-14T20:29:05.148Z</time>
      </trkpt>
      <trkpt lat="45.12689" lon="2.73849">
        <ele>1145.9466552734</ele>
        <time>2020-07-14T20:29:08.229Z</time>
      </trkpt>
      <trkpt lat="45.12727" lon="2.73868">
        <ele>1146.8585205078</ele>
        <time>2020-07-14T20:29:11.324Z</time>
      </trkpt>
      <trkpt lat="45.12751" lon="2.73875">
        <ele>1149.2492675781</ele>
        <time>2020-07-14T20:29:14.427Z</time>
      </trkpt>
      <trkpt lat="45.12776" lon="2.73881">
        <ele>1152.9447021484</ele>
        <time>2020-07-14T20:29:17.538Z</time>
      </trkpt>
      <trkpt lat="45.12782" lon="2.73883">
        <ele>1153.6165771484</ele>
        <time>2020-07-14T20:29:20.651Z</time>
      </trkpt>
      <trkpt lat="45.12804" lon="2.73888">
        <ele>1156.1228027344</ele>
        <time>2020-07-14T20:29:23.772Z</time>
      </trkpt>
      <trkpt lat="45.1282" lon="2.73899">
        <ele>1154.3951416016</ele>
        <time>2020-07-14T20:29:26.899Z</time>
      </trkpt>
      <trkpt lat="45.12836" lon="2.73913">
        <ele>1151.515625</ele>
        <time>2020-07-14T20:29:30.032Z</time>
      </trkpt>
      <trkpt lat="45.12865" lon="2.73941">
        <ele>1146.7530517578</ele>
        <time>2020-07-14T20:29:33.177Z</time>
      </trkpt>
      <trkpt lat="45.12901" lon="2.73976">
        <ele>1139.1644287109</ele>
        <time>2020-07-14T20:29:36.336Z</time>
      </trkpt>
      <trkpt lat="45.12922" lon="2.73991">
        <ele>1135.7449951172</ele>
        <time>2020-07-14T20:29:39.503Z</time>
      </trkpt>
      <trkpt lat="45.12956" lon="2.74005">
        <ele>1133.4890136719</ele>
        <time>2020-07-14T20:29:42.682Z</time>
      </trkpt>
      <trkpt lat="45.12995" lon="2.74028">
        <ele>1128.5666503906</ele>
        <time>2020-07-14T20:29:45.875Z</time>
      </trkpt>
      <trkpt lat="45.13024" lon="2.74035">
        <ele>1126.5270996094</ele>
        <time>2020-07-14T20:29:49.078Z</time>
      </trkpt>
      <trkpt lat="45.13052" lon="2.74044">
        <ele>1124.322265625</ele>
        <time>2020-07-14T20:29:52.290Z</time>
      </trkpt>
      <trkpt lat="45.13056" lon="2.74045">
        <ele>1124.1302490234</ele>
        <time>2020-07-14T20:29:55.504Z</time>
      </trkpt>
      <trkpt lat="45.13061" lon="2.74045">
        <ele>1124.1302490234</ele>
        <time>2020-07-14T20:29:58.719Z</time>
      </trkpt>
      <trkpt lat="45.13075" lon="2.7405">
        <ele>1123.1704101562</ele>
        <time>2020-07-14T20:30:01.939Z</time>
      </trkpt>
      <trkpt lat="45.131" lon="2.74059">
        <ele>1121.4427490234</ele>
        <time>2020-07-14T20:30:05.168Z</time>
      </trkpt>
      <trkpt lat="45.13127" lon="2.74054">
        <ele>1122.4025878906</ele>
        <time>2020-07-14T20:30:08.406Z</time>
      </trkpt>
      <trkpt lat="45.13143" lon="2.7405">
        <ele>1121.6568603516</ele>
        <time>2020-07-14T20:30:11.649Z</time>
      </trkpt>
      <trkpt lat="45.13152" lon="2.74042">
        <ele>1122.3287353516</ele>
        <time>2020-07-14T20:30:14.896Z</time>
      </trkpt>
      <trkpt lat="45.1316" lon="2.74032">
        <ele>1123.0795898438</ele>
        <time>2020-07-14T20:30:18.147Z</time>
      </trkpt>
      <trkpt lat="45.13174" lon="2.7403">
        <ele>1120.7758789062</ele>
        <time>2020-07-14T20:30:21.402Z</time>
      </trkpt>
      <trkpt lat="45.13182" lon="2.74011">
        <ele>1121.3878173828</ele>
        <time>2020-07-14T20:30:24.662Z</time>
      </trkpt>
      <trkpt lat="45.13194" lon="2.73999">
        <ele>1120.6440429688</ele>
        <time>2020-07-14T20:30:27.927Z</time>
      </trkpt>
      <trkpt lat="45.13203" lon="2.73991">
        <ele>1119.6243896484</ele>
        <time>2020-07-14T20:30:31.196Z</time>
      </trkpt>
      <trkpt lat="45.13214" lon="2.7397">
        <ele>1117.9339599609</ele>
        <time>2020-07-14T20:30:34.471Z</time>
      </trkpt>
      <trkpt lat="45.13224" lon="2.73926">
        <ele>1118.1998291016</ele>
        <time>2020-07-14T20:30:37.757Z</time>
      </trkpt>
      <trkpt lat="45.13237" lon="2.7389">
        <ele>1118.8195800781</ele>
        <time>2020-07-14T20:30:41.052Z</time>
      </trkpt>
      <trkpt lat="45.13251" lon="2.73857">
        <ele>1118.5740966797</ele>
        <time>2020-07-14T20:30:44.357Z</time>
      </trkpt>
      <trkpt lat="45.13265" lon="2.7381">
        <ele>1119.8487548828</ele>
        <time>2020-07-14T20:30:47.674Z</time>
      </trkpt>
      <trkpt lat="45.13279" lon="2.73771">
        <ele>1119.3549804688</ele>
        <time>2020-07-14T20:30:51.001Z</time>
      </trkpt>
      <trkpt lat="45.13283" lon="2.73736">
        <ele>1120.6702880859</ele>
        <time>2020-07-14T20:30:54.336Z</time>
      </trkpt>
      <trkpt lat="45.13288" lon="2.73698">
        <ele>1118.9904785156</ele>
        <time>2020-07-14T20:30:57.680Z</time>
      </trkpt>
      <trkpt lat="45.13291" lon="2.73656">
        <ele>1118.3685302734</ele>
        <time>2020-07-14T20:31:01.034Z</time>
      </trkpt>
      <trkpt lat="45.13297" lon="2.73617">
        <ele>1118.0283203125</ele>
        <time>2020-07-14T20:31:04.398Z</time>
      </trkpt>
      <trkpt lat="45.13298" lon="2.73582">
        <ele>1118.6577148438</ele>
        <time>2020-07-14T20:31:07.770Z</time>
      </trkpt>
      <trkpt lat="45.13298" lon="2.73551">
        <ele>1118.6577148438</ele>
        <time>2020-07-14T20:31:11.149Z</time>
      </trkpt>
      <trkpt lat="45.13297" lon="2.73509">
        <ele>1118.7418212891</ele>
        <time>2020-07-14T20:31:14.538Z</time>
      </trkpt>
      <trkpt lat="45.13294" lon="2.73484">
        <ele>1118.7601318359</ele>
        <time>2020-07-14T20:31:17.933Z</time>
      </trkpt>
      <trkpt lat="45.13292" lon="2.73457">
        <ele>1119.1069335938</ele>
        <time>2020-07-14T20:31:21.335Z</time>
      </trkpt>
      <trkpt lat="45.13288" lon="2.73411">
        <ele>1119.8920898438</ele>
        <time>2020-07-14T20:31:24.748Z</time>
      </trkpt>
      <trkpt lat="45.13274" lon="2.73371">
        <ele>1124.5714111328</ele>
        <time>2020-07-14T20:31:28.171Z</time>
      </trkpt>
      <trkpt lat="45.13267" lon="2.73338">
        <ele>1127.0668945312</ele>
        <time>2020-07-14T20:31:31.602Z</time>
      </trkpt>
      <trkpt lat="45.13263" lon="2.73314">
        <ele>1127.4399414062</ele>
        <time>2020-07-14T20:31:35.039Z</time>
      </trkpt>
      <trkpt lat="45.13258" lon="2.73285">
        <ele>1128.287109375</ele>
        <time>2020-07-14T20:31:38.483Z</time>
      </trkpt>
      <trkpt lat="45.13259" lon="2.73265">
        <ele>1127.7711181641</ele>
        <time>2020-07-14T20:31:41.932Z</time>
      </trkpt>
      <trkpt lat="45.13254" lon="2.73243">
        <ele>1127.9732666016</ele>
        <time>2020-07-14T20:31:45.386Z</time>
      </trkpt>
      <trkpt lat="45.13243" lon="2.73207">
        <ele>1127.5533447266</ele>
        <time>2020-07-14T20:31:48.850Z</time>
      </trkpt>
      <trkpt lat="45.13232" lon="2.73177">
        <ele>1129.5035400391</ele>
        <time>2020-07-14T20:31:52.322Z</time>
      </trkpt>
      <trkpt lat="45.13222" lon="2.73158">
        <ele>1131.0681152344</ele>
        <time>2020-07-14T20:31:55.799Z</time>
      </trkpt>
      <trkpt lat="45.1321" lon="2.73135">
        <ele>1132.677734375</ele>
        <time>2020-07-14T20:31:59.283Z</time>
      </trkpt>
      <trkpt lat="45.132" lon="2.73112">
        <ele>1134.2014160156</ele>
        <time>2020-07-14T20:32:02.773Z</time>
      </trkpt>
      <trkpt lat="45.13189" lon="2.7309">
        <ele>1135.9171142578</ele>
        <time>2020-07-14T20:32:06.270Z</time>
      </trkpt>
      <trkpt lat="45.13176" lon="2.73071">
        <ele>1137.2520751953</ele>
        <time>2020-07-14T20:32:09.773Z</time>
      </trkpt>
      <trkpt lat="45.13167" lon="2.73063">
        <ele>1138.3918457031</ele>
        <time>2020-07-14T20:32:13.279Z</time>
      </trkpt>
      <trkpt lat="45.13159" lon="2.73029">
        <ele>1138.1883544922</ele>
        <time>2020-07-14T20:32:16.794Z</time>
      </trkpt>
      <trkpt lat="45.1315" lon="2.73003">
        <ele>1139.3083496094</ele>
        <time>2020-07-14T20:32:20.316Z</time>
      </trkpt>
      <trkpt lat="45.13143" lon="2.72978">
        <ele>1141.3480224609</ele>
        <time>2020-07-14T20:32:23.844Z</time>
      </trkpt>
      <trkpt lat="45.13133" lon="2.72951">
        <ele>1143.8436279297</ele>
        <time>2020-07-14T20:32:27.379Z</time>
      </trkpt>
      <trkpt lat="45.13125" lon="2.72933">
        <ele>1145.9885253906</ele>
        <time>2020-07-14T20:32:30.919Z</time>
      </trkpt>
      <trkpt lat="45.13117" lon="2.7291">
        <ele>1149.7105712891</ele>
        <time>2020-07-14T20:32:34.465Z</time>
      </trkpt>
      <trkpt lat="45.13106" lon="2.72892">
        <ele>1154.42578125</ele>
        <time>2020-07-14T20:32:38.017Z</time>
      </trkpt>
      <trkpt lat="45.13114" lon="2.72866">
        <ele>1155.2176513672</ele>
        <time>2020-07-14T20:32:41.576Z</time>
      </trkpt>
      <trkpt lat="45.13128" lon="2.72852">
        <ele>1153.2757568359</ele>
        <time>2020-07-14T20:32:45.140Z</time>
      </trkpt>
      <trkpt lat="45.13143" lon="2.72847">
        <ele>1150.7667236328</ele>
        <time>2020-07-14T20:32:48.709Z</time>
      </trkpt>
      <trkpt lat="45.13151" lon="2.72841">
        <ele>1148.4870605469</ele>
        <time>2020-07-14T20:32:52.281Z</time>
      </trkpt>
      <trkpt lat="45.13161" lon="2.7282">
        <ele>1146.0926513672</ele>
        <time>2020-07-14T20:32:55.859Z</time>
      </trkpt>
      <trkpt lat="45.13164" lon="2.72801">
        <ele>1145.720703125</ele>
        <time>2020-07-14T20:32:59.442Z</time>
      </trkpt>
      <trkpt lat="45.13152" lon="2.7277">
        <ele>1150.2899169922</ele>
        <time>2020-07-14T20:33:03.033Z</time>
      </trkpt>
      <trkpt lat="45.13151" lon="2.72754">
        <ele>1151.849609375</ele>
        <time>2020-07-14T20:33:06.628Z</time>
      </trkpt>
      <trkpt lat="45.13144" lon="2.72732">
        <ele>1152.5938720703</ele>
        <time>2020-07-14T20:33:10.229Z</time>
      </trkpt>
      <trkpt lat="45.13139" lon="2.72706">
        <ele>1152.7379150391</ele>
        <time>2020-07-14T20:33:13.836Z</time>
      </trkpt>
      <trkpt lat="45.13136" lon="2.72682">
        <ele>1152.5219726562</ele>
        <time>2020-07-14T20:33:17.449Z</time>
      </trkpt>
      <trkpt lat="45.13136" lon="2.72656">
        <ele>1151.5239257812</ele>
        <time>2020-07-14T20:33:21.068Z</time>
      </trkpt>
      <trkpt lat="45.13139" lon="2.72634">
        <ele>1149.2442626953</ele>
        <time>2020-07-14T20:33:24.692Z</time>
      </trkpt>
      <trkpt lat="45.1315" lon="2.72614">
        <ele>1145.9808349609</ele>
        <time>2020-07-14T20:33:28.322Z</time>
      </trkpt>
      <trkpt lat="45.13153" lon="2.72595">
        <ele>1146.3117675781</ele>
        <time>2020-07-14T20:33:31.957Z</time>
      </trkpt>
      <trkpt lat="45.13151" lon="2.72573">
        <ele>1146.71484375</ele>
        <time>2020-07-14T20:33:35.597Z</time>
      </trkpt>
      <trkpt lat="45.13151" lon="2.7255">
        <ele>1146.71484375</ele>
        <time>2020-07-14T20:33:39.243Z</time>
      </trkpt>
      <trkpt lat="45.13149" lon="2.72533">
        <ele>1146.7387695312</ele>
        <time>2020-07-14T20:33:42.893Z</time>
      </trkpt>
      <trkpt lat="45.13151" lon="2.72509">
        <ele>1147.8260498047</ele>
        <time>2020-07-14T20:33:46.548Z</time>
      </trkpt>
      <trkpt lat="45.13156" lon="2.7249">
        <ele>1147.8856201172</ele>
        <time>2020-07-14T20:33:50.208Z</time>
      </trkpt>
      <trkpt lat="45.13157" lon="2.72472">
        <ele>1147.2856445312</ele>
        <time>2020-07-14T20:33:53.872Z</time>
      </trkpt>
      <trkpt lat="45.13156" lon="2.72448">
        <ele>1146.5715332031</ele>
        <time>2020-07-14T20:33:57.542Z</time>
      </trkpt>
      <trkpt lat="45.13157" lon="2.72429">
        <ele>1149.2950439453</ele>
        <time>2020-07-14T20:34:01.217Z</time>
      </trkpt>
      <trkpt lat="45.13153" lon="2.72409">
        <ele>1149.4283447266</ele>
        <time>2020-07-14T20:34:04.896Z</time>
      </trkpt>
      <trkpt lat="45.13147" lon="2.72395">
        <ele>1147.9645996094</ele>
        <time>2020-07-14T20:34:08.579Z</time>
      </trkpt>
      <trkpt lat="45.13136" lon="2.72374">
        <ele>1145.3370361328</ele>
        <time>2020-07-14T20:34:12.269Z</time>
      </trkpt>
      <trkpt lat="45.13133" lon="2.72364">
        <ele>1144.5692138672</ele>
        <time>2020-07-14T20:34:15.961Z</time>
      </trkpt>
      <trkpt lat="45.13151" lon="2.72352">
        <ele>1148.9481201172</ele>
        <time>2020-07-14T20:34:19.660Z</time>
      </trkpt>
      <trkpt lat="45.13167" lon="2.72349">
        <ele>1153.7353515625</ele>
        <time>2020-07-14T20:34:23.364Z</time>
      </trkpt>
      <trkpt lat="45.13182" lon="2.72352">
        <ele>1157.8746337891</ele>
        <time>2020-07-14T20:34:27.073Z</time>
      </trkpt>
      <trkpt lat="45.13195" lon="2.72359">
        <ele>1161.1981201172</ele>
        <time>2020-07-14T20:34:30.787Z</time>
      </trkpt>
      <trkpt lat="45.132" lon="2.72376">
        <ele>1161.6180419922</ele>
        <time>2020-07-14T20:34:34.505Z</time>
      </trkpt>
      <trkpt lat="45.13208" lon="2.72391">
        <ele>1163.0218505859</ele>
        <time>2020-07-14T20:34:38.228Z</time>
      </trkpt>
      <trkpt lat="45.13225" lon="2.72404">
        <ele>1166.791015625</ele>
        <time>2020-07-14T20:34:41.957Z</time>
      </trkpt>
      <trkpt lat="45.13235" lon="2.7241">
        <ele>1169.0706787109</ele>
        <time>2020-07-14T20:34:45.690Z</time>
      </trkpt>
      <trkpt lat="45.13244" lon="2.72405">
        <ele>1171.7462158203</ele>
        <time>2020-07-14T20:34:49.426Z</time>
      </trkpt>
      <trkpt lat="45.13255" lon="2.72391">
        <ele>1175.4896240234</ele>
        <time>2020-07-14T20:34:53.167Z</time>
      </trkpt>
      <trkpt lat="45.13252" lon="2.72355">
        <ele>1177.984375</ele>
        <time>2020-07-14T20:34:56.916Z</time>
      </trkpt>
      <trkpt lat="45.13251" lon="2.72339">
        <ele>1179.4001464844</ele>
        <time>2020-07-14T20:35:00.669Z</time>
      </trkpt>
      <trkpt lat="45.13254" lon="2.72325">
        <ele>1181.4135742188</ele>
        <time>2020-07-14T20:35:04.426Z</time>
      </trkpt>
      <trkpt lat="45.13252" lon="2.72305">
        <ele>1182.2294921875</ele>
        <time>2020-07-14T20:35:08.187Z</time>
      </trkpt>
      <trkpt lat="45.13239" lon="2.72296">
        <ele>1178.8220214844</ele>
        <time>2020-07-14T20:35:11.953Z</time>
      </trkpt>
      <trkpt lat="45.1323" lon="2.72284">
        <ele>1176.8784179688</ele>
        <time>2020-07-14T20:35:15.723Z</time>
      </trkpt>
      <trkpt lat="45.13225" lon="2.72262">
        <ele>1177.0495605469</ele>
        <time>2020-07-14T20:35:19.499Z</time>
      </trkpt>
      <trkpt lat="45.1322" lon="2.72236">
        <ele>1177.8654785156</ele>
        <time>2020-07-14T20:35:23.281Z</time>
      </trkpt>
      <trkpt lat="45.13216" lon="2.72206">
        <ele>1179.4012451172</ele>
        <time>2020-07-14T20:35:27.070Z</time>
      </trkpt>
      <trkpt lat="45.13216" lon="2.72174">
        <ele>1182.5584716797</ele>
        <time>2020-07-14T20:35:30.867Z</time>
      </trkpt>
      <trkpt lat="45.13214" lon="2.72139">
        <ele>1186.0771484375</ele>
        <time>2020-07-14T20:35:34.672Z</time>
      </trkpt>
      <trkpt lat="45.13216" lon="2.72125">
        <ele>1188.5246582031</ele>
        <time>2020-07-14T20:35:38.481Z</time>
      </trkpt>
      <trkpt lat="45.13211" lon="2.72099">
        <ele>1189.7244873047</ele>
        <time>2020-07-14T20:35:42.296Z</time>
      </trkpt>
      <trkpt lat="45.13208" lon="2.72079">
        <ele>1191.1578369141</ele>
        <time>2020-07-14T20:35:46.116Z</time>
      </trkpt>
      <trkpt lat="45.13206" lon="2.72048">
        <ele>1194.2534179688</ele>
        <time>2020-07-14T20:35:49.943Z</time>
      </trkpt>
      <trkpt lat="45.13209" lon="2.7202">
        <ele>1198.5487060547</ele>
        <time>2020-07-14T20:35:53.777Z</time>
      </trkpt>
      <trkpt lat="45.13197" lon="2.71973">
        <ele>1200.6072998047</ele>
        <time>2020-07-14T20:35:57.623Z</time>
      </trkpt>
      <trkpt lat="45.13179" lon="2.71917">
        <ele>1201.8870849609</ele>
        <time>2020-07-14T20:36:01.483Z</time>
      </trkpt>
      <trkpt lat="45.13159" lon="2.71859">
        <ele>1202.0341796875</ele>
        <time>2020-07-14T20:36:05.358Z</time>
      </trkpt>
      <trkpt lat="45.13137" lon="2.71816">
        <ele>1200.5815429688</ele>
        <time>2020-07-14T20:36:09.246Z</time>
      </trkpt>
      <trkpt lat="45.13118" lon="2.71784">
        <ele>1199.666015625</ele>
        <time>2020-07-14T20:36:13.144Z</time>
      </trkpt>
      <trkpt lat="45.13093" lon="2.7173">
        <ele>1199.3598632812</ele>
        <time>2020-07-14T20:36:17.057Z</time>
      </trkpt>
      <trkpt lat="45.13081" lon="2.71701">
        <ele>1199.0023193359</ele>
        <time>2020-07-14T20:36:20.978Z</time>
      </trkpt>
      <trkpt lat="45.13061" lon="2.7166">
        <ele>1197.6689453125</ele>
        <time>2020-07-14T20:36:24.911Z</time>
      </trkpt>
      <trkpt lat="45.13048" lon="2.71638">
        <ele>1195.5092773438</ele>
        <time>2020-07-14T20:36:28.850Z</time>
      </trkpt>
      <trkpt lat="45.1304" lon="2.7161">
        <ele>1195.4543457031</ele>
        <time>2020-07-14T20:36:32.796Z</time>
      </trkpt>
      <trkpt lat="45.13026" lon="2.71579">
        <ele>1194.6849365234</ele>
        <time>2020-07-14T20:36:36.751Z</time>
      </trkpt>
      <trkpt lat="45.13009" lon="2.71531">
        <ele>1195.4167480469</ele>
        <time>2020-07-14T20:36:40.719Z</time>
      </trkpt>
      <trkpt lat="45.13" lon="2.71477">
        <ele>1197.9102783203</ele>
        <time>2020-07-14T20:36:44.700Z</time>
      </trkpt>
      <trkpt lat="45.12996" lon="2.71423">
        <ele>1201.2781982422</ele>
        <time>2020-07-14T20:36:48.694Z</time>
      </trkpt>
      <trkpt lat="45.12987" lon="2.71392">
        <ele>1201.0444335938</ele>
        <time>2020-07-14T20:36:52.696Z</time>
      </trkpt>
      <trkpt lat="45.12973" lon="2.71359">
        <ele>1199.6646728516</ele>
        <time>2020-07-14T20:36:56.707Z</time>
      </trkpt>
      <trkpt lat="45.1296" lon="2.71302">
        <ele>1200.8211669922</ele>
        <time>2020-07-14T20:37:00.732Z</time>
      </trkpt>
      <trkpt lat="45.12955" lon="2.71261">
        <ele>1203.2447509766</ele>
        <time>2020-07-14T20:37:04.767Z</time>
      </trkpt>
      <trkpt lat="45.12962" lon="2.71225">
        <ele>1207.7662353516</ele>
        <time>2020-07-14T20:37:08.810Z</time>
      </trkpt>
      <trkpt lat="45.1297" lon="2.71187">
        <ele>1212.9733886719</ele>
        <time>2020-07-14T20:37:12.863Z</time>
      </trkpt>
      <trkpt lat="45.12988" lon="2.71141">
        <ele>1220.9801025391</ele>
        <time>2020-07-14T20:37:16.928Z</time>
      </trkpt>
      <trkpt lat="45.12994" lon="2.71116">
        <ele>1223.8355712891</ele>
        <time>2020-07-14T20:37:20.999Z</time>
      </trkpt>
      <trkpt lat="45.1299" lon="2.71076">
        <ele>1224.9118652344</ele>
        <time>2020-07-14T20:37:25.080Z</time>
      </trkpt>
      <trkpt lat="45.12997" lon="2.71033">
        <ele>1229.9389648438</ele>
        <time>2020-07-14T20:37:29.171Z</time>
      </trkpt>
      <trkpt lat="45.13003" lon="2.7099">
        <ele>1234.8522949219</ele>
        <time>2020-07-14T20:37:33.273Z</time>
      </trkpt>
      <trkpt lat="45.13012" lon="2.70952">
        <ele>1240.52734375</ele>
        <time>2020-07-14T20:37:37.384Z</time>
      </trkpt>
      <trkpt lat="45.13023" lon="2.70913">
        <ele>1247.0100097656</ele>
        <time>2020-07-14T20:37:41.505Z</time>
      </trkpt>
      <trkpt lat="45.1303" lon="2.70874">
        <ele>1251.9913330078</ele>
        <time>2020-07-14T20:37:45.636Z</time>
      </trkpt>
      <trkpt lat="45.1304" lon="2.70864">
        <ele>1255.1108398438</ele>
        <time>2020-07-14T20:37:49.771Z</time>
      </trkpt>
      <trkpt lat="45.13056" lon="2.70878">
        <ele>1258.6691894531</ele>
        <time>2020-07-14T20:37:53.912Z</time>
      </trkpt>
      <trkpt lat="45.13075" lon="2.70896">
        <ele>1263.0723876953</ele>
        <time>2020-07-14T20:37:58.061Z</time>
      </trkpt>
      <trkpt lat="45.13092" lon="2.7092">
        <ele>1266.4438476562</ele>
        <time>2020-07-14T20:38:02.218Z</time>
      </trkpt>
      <trkpt lat="45.13112" lon="2.7094">
        <ele>1271.0031738281</ele>
        <time>2020-07-14T20:38:06.383Z</time>
      </trkpt>
      <trkpt lat="45.1313" lon="2.7096">
        <ele>1275.1618652344</ele>
        <time>2020-07-14T20:38:10.555Z</time>
      </trkpt>
      <trkpt lat="45.13148" lon="2.70976">
        <ele>1280.7048339844</ele>
        <time>2020-07-14T20:38:14.734Z</time>
      </trkpt>
      <trkpt lat="45.13159" lon="2.71007">
        <ele>1282.4807128906</ele>
        <time>2020-07-14T20:38:18.922Z</time>
      </trkpt>
      <trkpt lat="45.13182" lon="2.7105">
        <ele>1286.9079589844</ele>
        <time>2020-07-14T20:38:23.122Z</time>
      </trkpt>
      <trkpt lat="45.13198" lon="2.71072">
        <ele>1290.7473144531</ele>
        <time>2020-07-14T20:38:27.330Z</time>
      </trkpt>
      <trkpt lat="45.13216" lon="2.71097">
        <ele>1296.2852783203</ele>
        <time>2020-07-14T20:38:31.546Z</time>
      </trkpt>
      <trkpt lat="45.13227" lon="2.71134">
        <ele>1300.7244873047</ele>
        <time>2020-07-14T20:38:35.772Z</time>
      </trkpt>
      <trkpt lat="45.13236" lon="2.71162">
        <ele>1304.3839111328</ele>
        <time>2020-07-14T20:38:40.005Z</time>
      </trkpt>
      <trkpt lat="45.13227" lon="2.71134">
        <ele>1300.7244873047</ele>
        <time>2020-07-14T20:38:44.245Z</time>
      </trkpt>
      <trkpt lat="45.13236" lon="2.71162">
        <ele>1304.3839111328</ele>
        <time>2020-07-14T20:38:48.492Z</time>
      </trkpt>
      <trkpt lat="45.13242" lon="2.71153">
        <ele>1307.1553955078</ele>
        <time>2020-07-14T20:38:52.742Z</time>
      </trkpt>
      <trkpt lat="45.13243" lon="2.71109">
        <ele>1308.4970703125</ele>
        <time>2020-07-14T20:38:57.003Z</time>
      </trkpt>
      <trkpt lat="45.13244" lon="2.71055">
        <ele>1313.0971679688</ele>
        <time>2020-07-14T20:39:01.277Z</time>
      </trkpt>
      <trkpt lat="45.13238" lon="2.71006">
        <ele>1314.9208984375</ele>
        <time>2020-07-14T20:39:05.562Z</time>
      </trkpt>
      <trkpt lat="45.13233" lon="2.70977">
        <ele>1315.9407958984</ele>
        <time>2020-07-14T20:39:09.854Z</time>
      </trkpt>
      <trkpt lat="45.13227" lon="2.70942">
        <ele>1317.2606201172</ele>
        <time>2020-07-14T20:39:14.155Z</time>
      </trkpt>
      <trkpt lat="45.13221" lon="2.7088">
        <ele>1322.5517578125</ele>
        <time>2020-07-14T20:39:18.471Z</time>
      </trkpt>
      <trkpt lat="45.13211" lon="2.7083">
        <ele>1324.2033691406</ele>
        <time>2020-07-14T20:39:22.799Z</time>
      </trkpt>
      <trkpt lat="45.132" lon="2.7078">
        <ele>1326.3565673828</ele>
        <time>2020-07-14T20:39:27.139Z</time>
      </trkpt>
      <trkpt lat="45.13187" lon="2.70733">
        <ele>1326.9509277344</ele>
        <time>2020-07-14T20:39:31.491Z</time>
      </trkpt>
      <trkpt lat="45.13174" lon="2.70681">
        <ele>1326.5950927734</ele>
        <time>2020-07-14T20:39:35.856Z</time>
      </trkpt>
      <trkpt lat="45.13155" lon="2.70631">
        <ele>1325.7622070312</ele>
        <time>2020-07-14T20:39:40.235Z</time>
      </trkpt>
      <trkpt lat="45.13144" lon="2.70586">
        <ele>1325.6921386719</ele>
        <time>2020-07-14T20:39:44.625Z</time>
      </trkpt>
      <trkpt lat="45.13131" lon="2.70536">
        <ele>1326.3039550781</ele>
        <time>2020-07-14T20:39:49.027Z</time>
      </trkpt>
      <trkpt lat="45.1312" lon="2.70496">
        <ele>1327.2192382812</ele>
        <time>2020-07-14T20:39:53.439Z</time>
      </trkpt>
      <trkpt lat="45.13112" lon="2.70462">
        <ele>1326.3553466797</ele>
        <time>2020-07-14T20:39:57.860Z</time>
      </trkpt>
      <trkpt lat="45.13103" lon="2.70432">
        <ele>1325.3835449219</ele>
        <time>2020-07-14T20:40:02.289Z</time>
      </trkpt>
      <trkpt lat="45.13085" lon="2.70402">
        <ele>1325.1746826172</ele>
        <time>2020-07-14T20:40:06.727Z</time>
      </trkpt>
      <trkpt lat="45.1306" lon="2.70368">
        <ele>1325.7385253906</ele>
        <time>2020-07-14T20:40:11.176Z</time>
      </trkpt>
      <trkpt lat="45.1304" lon="2.7034">
        <ele>1326.2198486328</ele>
        <time>2020-07-14T20:40:15.635Z</time>
      </trkpt>
      <trkpt lat="45.13037" lon="2.70303">
        <ele>1326.1989746094</ele>
        <time>2020-07-14T20:40:20.103Z</time>
      </trkpt>
      <trkpt lat="45.13046" lon="2.70268">
        <ele>1324.0184326172</ele>
        <time>2020-07-14T20:40:24.579Z</time>
      </trkpt>
      <trkpt lat="45.13047" lon="2.70252">
        <ele>1322.5791015625</ele>
        <time>2020-07-14T20:40:29.059Z</time>
      </trkpt>
      <trkpt lat="45.13046" lon="2.70268">
        <ele>1324.0184326172</ele>
        <time>2020-07-14T20:40:33.543Z</time>
      </trkpt>
      <trkpt lat="45.13047" lon="2.70252">
        <ele>1322.5791015625</ele>
        <time>2020-07-14T20:40:38.031Z</time>
      </trkpt>
      <trkpt lat="45.13048" lon="2.70239">
        <ele>1322.1231689453</ele>
        <time>2020-07-14T20:40:42.522Z</time>
      </trkpt>
    </trkseg>
  </trk>
</gpx>